AF166 / F-GZNR 7700 Squawk Report (5th of December, 2021)

Aircraft B77W Reg No. F-GZNR Age 6 years old
Model 777 Jet engines 2 First flight 02-10-15
Registered 04-11-15 Rollout N/A Delivered 02-11-15
Construction No. 44553 Line No. 1343 Series 328(ER)
ADSHEX 3965B1 Airline name Air France Owner Air Lease Corporation
Airfield based Paris-Charles de Gaulle~Val-d'Oise~F First tracked N/A

Flight history for F-GZNR

Route Flight No Date Playback
???? AF375 2022-01-03 07:40:00
Rafic Hariri Intl (BEY) - Charles De Gaulle (CDG) AF569 2022-01-03 07:15:00
Charles De Gaulle (CDG) - Rafic Hariri Intl (BEY) AF556 2022-01-03 00:55:00
Galeao Antonio Carlos Jobim (GIG) - Charles De Gaulle (CDG) AF443 2022-01-02 16:52:00
Charles De Gaulle (CDG) - Galeao Antonio Carlos Jobim (GIG) AF442 2022-01-01 19:34:00
Leon M Ba (LBV) - Charles De Gaulle (CDG) AF977 2021-12-31 16:47:00
Charles De Gaulle (CDG) - Leon M Ba (LBV) AF926 2021-12-31 14:45:00
Incheon International (ICN) - Charles De Gaulle (CDG) AF267 2021-12-30 22:50:00
Charles De Gaulle (CDG) - Incheon International (ICN) AF264 2021-12-29 23:53:00
Abidjan Felix Houphouet Boigny Intl (ABJ) - Charles De Gaulle (CDG) AF705 2021-12-29 13:31:00
Charles De Gaulle (CDG) - Abidjan Felix Houphouet Boigny Intl (ABJ) AF704 2021-12-28 23:13:00
Sir Seewoosagur Ramgoolam Intl (MRU) - Charles De Gaulle (CDG) AF473 2021-12-28 17:16:00
Sir Seewoosagur Ramgoolam Intl (MRU) - Charles De Gaulle (CDG) AF473 2021-12-28 14:43:00
Charles De Gaulle (CDG) - Sir Seewoosagur Ramgoolam Intl (MRU) AF470 2021-12-27 09:42:00
Houari Boumediene (ALG) - Charles De Gaulle (CDG) AF4145 2021-12-26 15:58:00
Charles De Gaulle (CDG) - Houari Boumediene (ALG) AF4144 2021-12-26 13:39:00
???? AF117 2021-12-25 18:18:00
???? AF112 2021-12-25 03:37:00
Suvarnabhumi International (BKK) - Charles De Gaulle (CDG) AF165 2021-12-24 09:50:00
Suvarnabhumi International (BKK) - Charles De Gaulle (CDG) AF165 2021-12-24 02:24:00
Time Lat Lon Altitude Heading Speed Vertical Rate
2021-12-06 00:37:28 GMT 13.691234 100.745850 0 104 3 0
2021-12-06 00:37:07 GMT 13.691304 100.745567 0 104 5 0
2021-12-06 00:37:05 GMT 13.691316 100.745506 0 104 5 0
2021-12-06 00:36:54 GMT 13.691391 100.745277 0 98 5 0
2021-12-06 00:36:44 GMT 13.691437 100.745041 0 81 5 0
2021-12-06 00:36:33 GMT 13.691357 100.744804 0 92 6 0
2021-12-06 00:36:22 GMT 13.691386 100.744522 0 104 8 0
2021-12-06 00:36:10 GMT 13.691505 100.744026 0 104 12 0
2021-12-06 00:36:01 GMT 13.691631 100.743538 0 104 12 0
2021-12-06 00:35:50 GMT 13.691769 100.742973 0 104 12 0
2021-12-06 00:35:40 GMT 13.691917 100.742416 0 104 11 0
2021-12-06 00:35:28 GMT 13.692055 100.741844 0 95 10 0
2021-12-06 00:35:18 GMT 13.692130 100.741364 0 53 9 0
2021-12-06 00:35:07 GMT 13.691805 100.740982 0 45 16 0
2021-12-06 00:34:57 GMT 13.691151 100.740356 0 36 22 0
2021-12-06 00:34:46 GMT 13.690212 100.739738 0 22 26 0
2021-12-06 00:34:35 GMT 13.688747 100.739258 0 14 41 0
2021-12-06 00:34:25 GMT 13.686556 100.738678 -75 14 64 0
2021-12-06 00:34:14 GMT 13.682634 100.737640 -75 13 101 -64
2021-12-06 00:34:03 GMT 13.676954 100.736145 -75 14 141 -128
2021-12-06 00:33:52 GMT 13.670105 100.734398 25 14 142 -704
2021-12-06 00:33:47 GMT 13.666899 100.733543 75 14 142 -768
2021-12-06 00:33:40 GMT 13.661636 100.732178 175 14 143 -768
2021-12-06 00:33:29 GMT 13.655411 100.730515 300 14 143 -640
2021-12-06 00:33:19 GMT 13.648464 100.728729 425 14 142 -704
2021-12-06 00:33:09 GMT 13.641953 100.727104 550 13 140 -768
2021-12-06 00:32:58 GMT 13.635197 100.725304 675 15 138 -704
2021-12-06 00:32:48 GMT 13.628677 100.723511 800 14 137 -704
2021-12-06 00:32:37 GMT 13.622086 100.721756 1,025 14 140 -704
2021-12-06 00:32:26 GMT 13.614899 100.719864 1,075 14 145 -704
2021-12-06 00:32:22 GMT 13.612852 100.719330 1,125 14 146 -768
2021-12-06 00:32:16 GMT 13.608662 100.718224 1,200 14 151 -704
2021-12-06 00:32:09 GMT 13.603775 100.716972 1,275 14 154 -832
2021-12-06 00:32:06 GMT 13.601303 100.716309 1,375 14 155 -832
2021-12-06 00:32:02 GMT 13.598933 100.715721 1,375 14 155 -768
2021-12-06 00:31:55 GMT 13.593859 100.714371 1,575 14 158 -832
2021-12-06 00:31:50 GMT 13.589809 100.713310 1,575 14 158 -832
2021-12-06 00:31:44 GMT 13.586014 100.712288 1,625 14 161 -768
2021-12-06 00:31:40 GMT 13.583176 100.711525 1,675 14 163 -768
2021-12-06 00:31:31 GMT 13.575897 100.709633 1,825 14 167 -896
2021-12-06 00:31:24 GMT 13.570679 100.708305 1,925 14 166 -896
2021-12-06 00:31:21 GMT 13.569580 100.707977 1,975 14 167 -832
2021-12-06 00:31:18 GMT 13.566858 100.707283 1,975 14 167 -832
2021-12-06 00:31:12 GMT 13.559922 100.705505 2,100 14 167 -960
2021-12-06 00:31:09 GMT 13.559922 100.705505 2,125 14 167 -896
2021-12-06 00:31:03 GMT 13.554794 100.704094 2,225 14 168 -960
2021-12-06 00:31:00 GMT 13.552846 100.703575 2,275 14 168 -960
2021-12-06 00:30:52 GMT 13.546887 100.701988 2,400 14 168 -640
2021-12-06 00:30:49 GMT 13.544699 100.701408 2,425 14 167 -448
2021-12-06 00:30:42 GMT 13.538956 100.699883 2,450 14 167 0
2021-12-06 00:30:39 GMT 13.536692 100.699242 2,450 14 167 0
2021-12-06 00:30:31 GMT 13.531013 100.697693 2,450 15 166 0
2021-12-06 00:30:28 GMT 13.528931 100.697083 2,450 14 166 0
2021-12-06 00:30:21 GMT 13.523006 100.695526 2,450 14 167 -64
2021-12-06 00:30:17 GMT 13.521286 100.695045 2,450 14 167 -64
2021-12-06 00:30:10 GMT 13.514969 100.693390 2,450 16 166 -64
2021-12-06 00:30:07 GMT 13.512955 100.692772 2,475 18 165 -64
2021-12-06 00:29:59 GMT 13.507416 100.690834 2,475 25 162 64
2021-12-06 00:29:56 GMT 13.505722 100.690079 2,475 29 161 192
2021-12-06 00:29:49 GMT 13.500614 100.686852 2,425 45 161 128
2021-12-06 00:29:45 GMT 13.498764 100.685104 2,425 65 164 -320
2021-12-06 00:29:38 GMT 13.496285 100.680298 2,500 76 166 -576
2021-12-06 00:29:35 GMT 13.495651 100.677719 2,500 82 167 -576
2021-12-06 00:29:28 GMT 13.495447 100.670280 2,600 99 173 -640
2021-12-06 00:29:25 GMT 13.495447 100.670280 2,650 102 173 -640
2021-12-06 00:29:15 GMT 13.497216 100.661987 3,075 103 177 -640
2021-12-06 00:29:07 GMT 13.498939 100.654716 2,825 103 181 -768
2021-12-06 00:29:04 GMT 13.499313 100.653046 3,075 105 184 -960
2021-12-06 00:28:56 GMT 13.501053 100.646034 2,975 105 184 -1024
2021-12-06 00:28:53 GMT 13.501556 100.644096 3,000 105 184 -1024
2021-12-06 00:28:47 GMT 13.502942 100.638908 3,100 105 186 -704
2021-12-06 00:28:45 GMT 13.503433 100.637131 3,125 105 186 -768
2021-12-06 00:28:42 GMT 13.504013 100.634956 3,175 105 187 -640
2021-12-06 00:28:34 GMT 13.507004 100.625389 3,300 153 197 -832
2021-12-06 00:28:31 GMT 13.508926 100.621742 3,300 153 197 -832
2021-12-06 00:28:27 GMT 13.508926 100.621742 3,350 127 196 -704
2021-12-06 00:28:24 GMT 13.510483 100.619659 3,400 136 195 -768
2021-12-06 00:28:21 GMT 13.512066 100.617851 3,425 138 196 -768
2021-12-06 00:28:17 GMT 13.515152 100.615211 3,475 148 197 -832
2021-12-06 00:28:13 GMT 13.517853 100.613411 3,550 157 197 -896
2021-12-06 00:28:10 GMT 13.520416 100.612175 3,600 185 203 -960
2021-12-06 00:28:07 GMT 13.523712 100.611092 3,625 170 200 -960
2021-12-06 00:28:03 GMT 13.528173 100.610382 3,700 178 202 -960
2021-12-06 00:28:00 GMT 13.531106 100.610336 3,750 187 204 -960
2021-12-06 00:27:57 GMT 13.533371 100.610519 3,775 190 205 -896
2021-12-06 00:27:52 GMT 13.537033 100.611183 3,850 195 207 -768
2021-12-06 00:27:49 GMT 13.540146 100.611938 3,875 195 208 -640
2021-12-06 00:27:45 GMT 13.543396 100.612839 3,900 195 209 -576
2021-12-06 00:27:42 GMT 13.547653 100.613976 3,950 195 212 -384
2021-12-06 00:27:38 GMT 13.550812 100.614830 3,950 195 215 -64
2021-12-06 00:27:35 GMT 13.552846 100.615349 3,950 195 215 -64
2021-12-06 00:27:31 GMT 13.557587 100.616631 3,975 195 217 64
2021-12-06 00:27:25 GMT 13.562576 100.617996 3,975 195 221 -320
2021-12-06 00:27:21 GMT 13.567696 100.619392 4,025 195 228 -704
2021-12-06 00:27:17 GMT 13.571777 100.620461 4,075 195 230 -768
2021-12-06 00:27:09 GMT 13.579381 100.622383 4,200 194 231 -1472
2021-12-06 00:27:06 GMT 13.582947 100.623306 4,275 195 232 -1536
2021-12-06 00:27:00 GMT 13.589762 100.625076 4,425 195 232 -1472
2021-12-06 00:26:56 GMT 13.593521 100.626144 4,525 195 232 -1472
2021-12-06 00:26:50 GMT 13.600935 100.628113 4,700 195 233 -1536
2021-12-06 00:26:45 GMT 13.605560 100.629364 4,775 195 233 -1536
2021-12-06 00:26:38 GMT 13.611877 100.631027 4,925 195 234 -1344
2021-12-06 00:26:35 GMT 13.615692 100.632019 5,025 195 234 -1344
2021-12-06 00:26:28 GMT 13.623187 100.633995 5,200 195 235 -1344
2021-12-06 00:26:24 GMT 13.627097 100.635056 5,275 195 235 -1408
2021-12-06 00:26:18 GMT 13.634359 100.636932 5,425 195 236 -1344
2021-12-06 00:26:15 GMT 13.636128 100.637413 5,475 195 236 -1344
2021-12-06 00:26:13 GMT 13.638269 100.637993 5,700 195 237 -1280
2021-12-06 00:26:08 GMT 13.644379 100.639549 5,650 195 237 -1408
2021-12-06 00:26:05 GMT 13.646805 100.640213 5,675 195 237 -1472
2021-12-06 00:26:03 GMT 13.649256 100.640839 5,750 195 237 -1664
2021-12-06 00:25:59 GMT 13.653678 100.641991 5,850 195 237 -1728
2021-12-06 00:25:57 GMT 13.656647 100.642769 5,925 195 237 -1728
2021-12-06 00:25:54 GMT 13.657821 100.643105 5,975 195 238 -1792
2021-12-06 00:25:52 GMT 13.660812 100.643860 6,050 195 238 -1664
2021-12-06 00:25:49 GMT 13.664383 100.644806 6,125 195 239 -1600
2021-12-06 00:25:45 GMT 13.668482 100.645851 6,225 195 239 -1600
2021-12-06 00:25:39 GMT 13.675278 100.647598 6,400 195 240 -1600
2021-12-06 00:25:37 GMT 13.677979 100.648308 6,475 194 240 -1664
2021-12-06 00:25:34 GMT 13.679718 100.648735 6,525 194 240 -1664
2021-12-06 00:25:29 GMT 13.685898 100.650345 6,675 195 241 -1472
2021-12-06 00:25:24 GMT 13.691106 100.651726 6,800 195 241 -1472
2021-12-06 00:25:19 GMT 13.696972 100.653267 6,925 195 242 -1536
2021-12-06 00:25:15 GMT 13.702139 100.654572 7,025 195 244 -1152
2021-12-06 00:25:09 GMT 13.708098 100.656113 7,125 194 249 -1088
2021-12-06 00:25:04 GMT 13.714050 100.657639 7,225 194 254 -896
2021-12-06 00:24:57 GMT 13.721100 100.659393 7,325 194 258 -1280
2021-12-06 00:24:54 GMT 13.726730 100.660812 7,475 195 260 -1664
2021-12-06 00:24:48 GMT 13.733329 100.662567 7,625 195 264 -1792
2021-12-06 00:24:45 GMT 13.736298 100.663322 7,700 195 265 -1792
2021-12-06 00:24:43 GMT 13.738541 100.663933 7,775 195 265 -1856
2021-12-06 00:24:37 GMT 13.747062 100.666183 8,000 195 267 -1920
2021-12-06 00:24:34 GMT 13.748611 100.666588 8,050 195 268 -1984
2021-12-06 00:24:32 GMT 13.751764 100.667435 8,125 195 269 -2048
2021-12-06 00:24:28 GMT 13.756000 100.668594 8,250 196 269 -2048
2021-12-06 00:24:26 GMT 13.760330 100.669807 8,350 196 270 -2048
2021-12-06 00:24:22 GMT 13.764473 100.670906 8,475 196 270 -1984
2021-12-06 00:24:18 GMT 13.768104 100.671921 8,575 195 271 -1984
2021-12-06 00:24:14 GMT 13.774567 100.673691 8,750 196 273 -1856
2021-12-06 00:24:11 GMT 13.777130 100.674400 8,800 195 274 -1792
2021-12-06 00:24:08 GMT 13.780975 100.675446 8,900 195 275 -1664
2021-12-06 00:24:04 GMT 13.784909 100.676544 8,975 196 277 -1472
2021-12-06 00:24:01 GMT 13.790405 100.678047 9,075 195 282 -1216
2021-12-06 00:23:58 GMT 13.792823 100.678711 9,100 195 282 -1152
2021-12-06 00:23:54 GMT 13.797775 100.680084 9,225 196 288 -1216
2021-12-06 00:23:52 GMT 13.800737 100.680878 9,225 196 288 -1280
2021-12-06 00:23:47 GMT 13.806556 100.682518 9,325 196 292 -1344
2021-12-06 00:23:44 GMT 13.811164 100.683769 9,400 196 296 -1472
2021-12-06 00:23:41 GMT 13.814470 100.684685 9,475 196 298 -1472
2021-12-06 00:23:38 GMT 13.819565 100.686150 9,550 196 302 -1664
2021-12-06 00:23:34 GMT 13.824432 100.687485 9,650 196 303 -1664
2021-12-06 00:23:31 GMT 13.829041 100.688797 9,750 196 306 -1536
2021-12-06 00:23:28 GMT 13.833069 100.689934 9,800 196 310 -1280
2021-12-06 00:23:24 GMT 13.838630 100.691483 9,900 195 314 -1280
2021-12-06 00:23:20 GMT 13.843006 100.692635 9,975 195 316 -1024
2021-12-06 00:23:16 GMT 13.848825 100.694229 10,025 195 318 -704
2021-12-06 00:23:14 GMT 13.852968 100.695290 10,050 195 319 -576
2021-12-06 00:23:10 GMT 13.858927 100.696831 10,100 194 322 -704
2021-12-06 00:23:07 GMT 13.862418 100.697693 10,150 194 323 -1088
2021-12-06 00:23:04 GMT 13.866934 100.698853 10,200 194 323 -1472
2021-12-06 00:23:00 GMT 13.872893 100.700394 10,300 195 323 -1472
2021-12-06 00:22:57 GMT 13.877408 100.701553 10,400 195 323 -1536
2021-12-06 00:22:54 GMT 13.881645 100.702660 10,450 194 323 -1536
2021-12-06 00:22:50 GMT 13.888488 100.704391 10,575 189 321 -1792
2021-12-06 00:22:47 GMT 13.893655 100.705406 10,675 187 321 -1920
2021-12-06 00:22:44 GMT 13.896606 100.705750 10,750 182 320 -1856
2021-12-06 00:22:39 GMT 13.903885 100.705940 10,875 174 319 -1216
2021-12-06 00:22:36 GMT 13.911438 100.705215 10,925 170 318 -448
2021-12-06 00:22:34 GMT 13.911438 100.705215 10,950 168 319 -256
2021-12-06 00:22:30 GMT 13.916931 100.704056 10,975 162 317 -192
2021-12-06 00:22:27 GMT 13.921188 100.702866 10,975 160 316 -192
2021-12-06 00:22:24 GMT 13.925869 100.701164 10,975 155 315 -320
2021-12-06 00:22:20 GMT 13.934481 100.696686 11,025 146 316 -704
2021-12-06 00:22:17 GMT 13.934481 100.696686 11,025 144 316 -768
2021-12-06 00:22:13 GMT 13.939041 100.693390 11,100 139 314 -1152
2021-12-06 00:22:09 GMT 13.943665 100.689270 11,200 133 314 -1280
2021-12-06 00:22:06 GMT 13.946732 100.686050 11,250 132 315 -1216
2021-12-06 00:22:03 GMT 13.949203 100.683304 11,300 131 315 -1152
2021-12-06 00:21:56 GMT 13.956390 100.674973 11,450 131 318 -1024
2021-12-06 00:21:53 GMT 13.959229 100.671700 11,500 131 318 -960
2021-12-06 00:21:46 GMT 13.966095 100.663750 11,600 131 320 -960
2021-12-06 00:21:43 GMT 13.969574 100.659721 11,675 131 321 -1152
2021-12-06 00:21:37 GMT 13.975479 100.652763 11,800 130 323 -1344
2021-12-06 00:21:33 GMT 13.980196 100.647247 11,900 131 323 -1344
2021-12-06 00:21:27 GMT 13.985825 100.640587 12,025 131 324 -1344
2021-12-06 00:21:23 GMT 13.988800 100.637131 12,100 131 324 -1344
2021-12-06 00:21:21 GMT 13.990677 100.634911 12,150 131 325 -1344
2021-12-06 00:21:15 GMT 13.996445 100.628136 12,250 131 325 -1344
2021-12-06 00:21:12 GMT 14.001237 100.622574 12,375 131 326 -1280
2021-12-06 00:21:06 GMT 14.006561 100.616394 12,500 131 328 -1280
2021-12-06 00:21:03 GMT 14.008499 100.614143 12,525 131 328 -1216
2021-12-06 00:21:00 GMT 14.011505 100.610664 12,600 131 328 -1280
2021-12-06 00:20:56 GMT 14.015442 100.606071 12,675 131 328 -1344
2021-12-06 00:20:53 GMT 14.018784 100.602188 12,800 131 329 -1408
2021-12-06 00:20:50 GMT 14.022419 100.597954 12,825 131 329 -1408
2021-12-06 00:20:46 GMT 14.025724 100.594093 12,925 131 330 -1472
2021-12-06 00:20:42 GMT 14.030823 100.588219 13,050 131 330 -1472
2021-12-06 00:20:39 GMT 14.033112 100.585472 13,100 131 330 -1472
2021-12-06 00:20:36 GMT 14.035950 100.582153 13,175 131 330 -1536
2021-12-06 00:20:33 GMT 14.039108 100.578506 13,250 131 330 -1536
2021-12-06 00:20:29 GMT 14.046204 100.570221 13,425 131 330 -1536
2021-12-06 00:20:26 GMT 14.046204 100.570221 13,425 131 330 -1536
2021-12-06 00:20:22 GMT 14.050676 100.565041 13,525 131 330 -1472
2021-12-06 00:20:19 GMT 14.053795 100.561333 13,600 131 331 -1472
2021-12-06 00:20:15 GMT 14.056412 100.558243 13,675 131 331 -1472
2021-12-06 00:20:13 GMT 14.059387 100.554832 13,750 131 331 -1472
2021-12-06 00:20:09 GMT 14.064688 100.548660 13,875 131 332 -1472
2021-12-06 00:20:06 GMT 14.066317 100.546730 13,900 131 332 -1472
2021-12-06 00:20:03 GMT 14.069778 100.542709 14,000 131 333 -1472
2021-12-06 00:20:01 GMT 14.071997 100.540077 14,050 131 333 -1472
2021-12-06 00:19:56 GMT 14.076605 100.534729 14,150 131 333 -1472
2021-12-06 00:19:53 GMT 14.079771 100.531067 14,225 131 333 -1472
2021-12-06 00:19:50 GMT 14.083169 100.527122 14,300 131 333 -1408
2021-12-06 00:19:46 GMT 14.086807 100.522865 14,400 131 333 -1344
2021-12-06 00:19:42 GMT 14.091019 100.517944 14,475 131 335 -1280
2021-12-06 00:19:39 GMT 14.094062 100.514351 14,550 131 335 -1280
2021-12-06 00:19:36 GMT 14.098857 100.508667 14,650 130 336 -1344
2021-12-06 00:19:33 GMT 14.099991 100.507332 14,675 130 336 -1344
2021-12-06 00:19:29 GMT 14.104706 100.501793 14,775 131 336 -1472
2021-12-06 00:19:25 GMT 14.109192 100.496475 14,850 131 336 -1472
2021-12-06 00:19:22 GMT 14.112404 100.492714 14,975 131 337 -1536
2021-12-06 00:19:16 GMT 14.118668 100.485359 15,150 131 337 -1600
2021-12-06 00:19:12 GMT 14.121185 100.482422 15,200 131 337 -1600
2021-12-06 00:19:10 GMT 14.123749 100.479439 15,275 131 337 -1600
2021-12-06 00:19:06 GMT 14.127859 100.474594 15,375 131 337 -1600
2021-12-06 00:19:03 GMT 14.130981 100.470963 15,450 131 337 -1600
2021-12-06 00:19:00 GMT 14.133865 100.467613 15,525 131 338 -1536
2021-12-06 00:18:55 GMT 14.140594 100.459740 15,700 131 338 -1536
2021-12-06 00:18:49 GMT 14.145538 100.453964 15,825 131 338 -1536
2021-12-06 00:18:46 GMT 14.148529 100.450455 15,900 131 338 -1472
2021-12-06 00:18:42 GMT 14.152579 100.445732 16,000 131 338 -1472
2021-12-06 00:18:36 GMT 14.159088 100.438057 16,125 131 339 -1408
2021-12-06 00:18:33 GMT 14.162215 100.434410 16,200 131 340 -1344
2021-12-06 00:18:29 GMT 14.167103 100.428673 16,300 131 340 -1408
2021-12-06 00:18:26 GMT 14.169291 100.426125 16,350 131 341 -1408
2021-12-06 00:18:23 GMT 14.173574 100.421112 16,450 131 341 -1408
2021-12-06 00:18:16 GMT 14.179858 100.413788 16,600 131 342 -1344
2021-12-06 00:18:13 GMT 14.188051 100.404243 16,775 131 343 -1280
2021-12-06 00:18:09 GMT 14.188051 100.404243 16,775 131 343 -1280
2021-12-06 00:18:06 GMT 14.190658 100.401161 16,825 131 344 -1344
2021-12-06 00:18:03 GMT 14.193964 100.397308 16,900 131 345 -1344
2021-12-06 00:18:00 GMT 14.198479 100.392006 17,000 131 345 -1408
2021-12-06 00:17:55 GMT 14.201784 100.388199 17,075 131 346 -1408
2021-12-06 00:17:52 GMT 14.206787 100.382362 17,175 131 347 -1408
2021-12-06 00:17:46 GMT 14.212418 100.375778 17,300 131 347 -1472
2021-12-06 00:17:41 GMT 14.218277 100.368965 17,425 131 348 -1536
2021-12-06 00:17:38 GMT 14.221057 100.365700 17,500 131 347 -1536
2021-12-06 00:17:35 GMT 14.223291 100.363098 17,550 131 348 -1600
2021-12-06 00:17:31 GMT 14.228691 100.356735 17,700 131 348 -1664
2021-12-06 00:17:28 GMT 14.231689 100.353241 17,775 131 349 -1664
2021-12-06 00:17:25 GMT 14.234390 100.350113 17,850 131 349 -1600
2021-12-06 00:17:23 GMT 14.236542 100.347603 17,900 131 348 -1536
2021-12-06 00:17:21 GMT 14.238785 100.345001 17,950 131 348 -1536
2021-12-06 00:17:18 GMT 14.242005 100.341270 18,100 131 349 -1472
2021-12-06 00:17:15 GMT 14.244985 100.337746 18,100 131 349 -1472
2021-12-06 00:17:13 GMT 14.247638 100.334618 18,150 131 350 -1472
2021-12-06 00:17:09 GMT 14.252335 100.329086 18,275 131 350 -1472
2021-12-06 00:17:05 GMT 14.255859 100.324966 18,350 131 350 -1472
2021-12-06 00:17:03 GMT 14.258148 100.322319 18,400 131 351 -1472
2021-12-06 00:16:58 GMT 14.263513 100.316017 18,525 131 351 -1472
2021-12-06 00:16:55 GMT 14.266864 100.312164 18,600 131 351 -1472
2021-12-06 00:16:52 GMT 14.269425 100.309128 18,650 131 352 -1408
2021-12-06 00:16:48 GMT 14.274078 100.303711 18,825 131 353 -1408
2021-12-06 00:16:43 GMT 14.279709 100.297127 18,875 131 353 -1472
2021-12-06 00:16:38 GMT 14.285765 100.290047 19,075 131 353 -1600
2021-12-06 00:16:35 GMT 14.288511 100.286865 19,100 131 354 -1664
2021-12-06 00:16:33 GMT 14.290466 100.284554 19,150 131 355 -1664
2021-12-06 00:16:27 GMT 14.299870 100.273521 19,325 131 355 -1600
2021-12-06 00:16:24 GMT 14.299870 100.273521 19,375 131 355 -1536
2021-12-06 00:16:22 GMT 14.301956 100.271126 19,425 131 355 -1536
2021-12-06 00:16:17 GMT 14.308575 100.263351 19,575 131 355 -1536
2021-12-06 00:16:13 GMT 14.312486 100.258728 19,675 130 355 -1536
2021-12-06 00:16:04 GMT 14.321563 100.247932 19,875 130 357 -1408
2021-12-06 00:16:02 GMT 14.323193 100.246002 19,925 130 357 -1344
2021-12-06 00:15:55 GMT 14.334179 100.232948 20,150 130 360 -1344
2021-12-06 00:15:52 GMT 14.334179 100.232948 20,150 130 360 -1344
2021-12-06 00:15:45 GMT 14.342926 100.222542 20,300 130 361 -1408
2021-12-06 00:15:42 GMT 14.345123 100.219940 20,350 129 362 -1472
2021-12-06 00:15:35 GMT 14.354050 100.208473 20,575 125 362 -1536
2021-12-06 00:15:32 GMT 14.355919 100.205772 20,600 124 363 -1408
2021-12-06 00:15:22 GMT 14.365311 100.190765 20,775 118 367 -960
2021-12-06 00:15:12 GMT 14.372771 100.175987 20,925 113 369 -960
2021-12-06 00:15:10 GMT 14.374586 100.171989 20,975 112 371 -960
2021-12-06 00:15:02 GMT 14.379335 100.159416 21,100 107 373 -1152
2021-12-06 00:14:58 GMT 14.381882 100.151085 21,175 105 374 -960
2021-12-06 00:14:54 GMT 14.383484 100.145020 21,250 104 375 -960
2021-12-06 00:14:52 GMT 14.384399 100.141426 21,275 104 376 -896
2021-12-06 00:14:50 GMT 14.385269 100.137962 21,300 104 376 -896
2021-12-06 00:14:42 GMT 14.389069 100.123192 21,425 104 377 -896
2021-12-06 00:14:38 GMT 14.390625 100.117126 21,500 104 377 -896
2021-12-06 00:14:32 GMT 14.393280 100.106857 21,575 104 380 -832
2021-12-06 00:14:28 GMT 14.395442 100.098267 21,650 105 381 -896
2021-12-06 00:14:22 GMT 14.397816 100.089546 21,725 107 383 -896
2021-12-06 00:14:19 GMT 14.399119 100.085350 21,750 108 384 -832
2021-12-06 00:14:16 GMT 14.401886 100.077255 21,825 110 386 -832
2021-12-06 00:14:12 GMT 14.403854 100.071907 21,875 112 387 -1024
2021-12-06 00:14:07 GMT 14.407406 100.063477 21,975 115 389 -1408
2021-12-06 00:14:02 GMT 14.411362 100.055145 22,100 117 390 -1728
2021-12-06 00:13:57 GMT 14.416534 100.045479 22,300 121 392 -1792
2021-12-06 00:13:52 GMT 14.420161 100.039429 22,400 123 393 -1792
2021-12-06 00:13:49 GMT 14.427190 100.028931 22,725 126 395 -1856
2021-12-06 00:13:46 GMT 14.427190 100.028931 22,600 126 394 -1856
2021-12-06 00:13:42 GMT 14.431008 100.023628 22,725 126 395 -1792
2021-12-06 00:13:38 GMT 14.435058 100.018036 22,825 126 396 -1856
2021-12-06 00:13:34 GMT 14.439102 100.012428 22,950 126 396 -1856
2021-12-06 00:13:31 GMT 14.442413 100.007874 23,025 126 396 -1856
2021-12-06 00:13:28 GMT 14.446882 100.001656 23,175 126 397 -1856
2021-12-06 00:13:25 GMT 14.448558 99.999390 23,275 126 397 -1856
2021-12-06 00:13:22 GMT 14.452927 99.993294 23,325 126 397 -1856
2021-12-06 00:13:14 GMT 14.462523 99.980064 23,600 126 398 -1792
2021-12-06 00:13:10 GMT 14.464737 99.977005 23,650 126 399 -1792
2021-12-06 00:13:07 GMT 14.470367 99.969193 23,800 126 399 -1792
2021-12-06 00:13:04 GMT 14.472579 99.966141 23,900 126 400 -1792
2021-12-06 00:13:01 GMT 14.475092 99.962624 23,925 126 400 -1792
2021-12-06 00:12:56 GMT 14.482215 99.952843 24,125 126 401 -1792
2021-12-06 00:12:51 GMT 14.486435 99.947029 24,250 126 402 -1792
2021-12-06 00:12:45 GMT 14.493853 99.936890 24,450 126 403 -1856
2021-12-06 00:12:41 GMT 14.505569 99.920746 24,700 126 403 -1856
2021-12-06 00:12:35 GMT 14.505569 99.920746 24,775 126 403 -1856
2021-12-06 00:12:31 GMT 14.509169 99.915787 24,850 126 403 -1856
2021-12-06 00:12:21 GMT 14.521362 99.898918 25,200 126 406 -1792
2021-12-06 00:12:14 GMT 14.529140 99.888222 25,400 126 406 -1792
2021-12-06 00:12:09 GMT 14.533283 99.882446 25,500 126 407 -1792
2021-12-06 00:12:01 GMT 14.542969 99.869034 25,775 126 408 -1792
2021-12-06 00:11:59 GMT 14.545029 99.866241 25,825 126 408 -1792
2021-12-06 00:11:53 GMT 14.553268 99.854782 26,050 126 409 -1856
2021-12-06 00:11:49 GMT 14.557583 99.848862 26,175 126 410 -1856
2021-12-06 00:11:44 GMT 14.562238 99.842400 26,300 126 411 -1856
2021-12-06 00:11:41 GMT 14.565543 99.837868 26,375 126 411 -1856
2021-12-06 00:11:38 GMT 14.569780 99.832039 26,500 126 416 -1856
2021-12-06 00:11:31 GMT 14.577042 99.821922 26,675 126 413 -1792
2021-12-06 00:11:26 GMT 14.582209 99.814842 27,025 126 413 -1792
2021-12-06 00:11:21 GMT 14.589844 99.804192 27,025 126 414 -1856
2021-12-06 00:11:16 GMT 14.594238 99.798149 27,150 126 415 -1856
2021-12-06 00:11:09 GMT 14.601668 99.787804 27,325 126 416 -1856
2021-12-06 00:11:06 GMT 14.606649 99.780968 27,475 126 417 -1856
2021-12-06 00:11:01 GMT 14.610809 99.775230 27,575 126 417 -1856
2021-12-06 00:10:58 GMT 14.614284 99.770409 27,675 126 418 -1856
2021-12-06 00:10:55 GMT 14.619370 99.763390 27,800 126 418 -1856
2021-12-06 00:10:50 GMT 14.624817 99.755859 27,950 126 419 -1856
2021-12-06 00:10:48 GMT 14.625968 99.754219 27,975 126 419 -1792
2021-12-06 00:10:44 GMT 14.631500 99.746529 28,125 126 420 -1792
2021-12-06 00:10:37 GMT 14.638962 99.736206 28,325 126 421 -1856
2021-12-06 00:10:34 GMT 14.643951 99.729248 28,450 126 423 -1856
2021-12-06 00:10:31 GMT 14.646777 99.725357 28,525 126 423 -1856
2021-12-06 00:10:28 GMT 14.650501 99.720154 28,625 126 423 -1856
2021-12-06 00:10:23 GMT 14.656494 99.711914 28,775 126 425 -1856
2021-12-06 00:10:17 GMT 14.662977 99.702950 28,950 126 426 -1792
2021-12-06 00:10:13 GMT 14.667120 99.697266 29,100 126 427 -1792
2021-12-06 00:10:10 GMT 14.670685 99.692360 29,150 126 427 -1856
2021-12-06 00:10:07 GMT 14.675537 99.685631 29,275 126 428 -1856
2021-12-06 00:10:02 GMT 14.681717 99.677109 29,425 126 429 -1856
2021-12-06 00:09:56 GMT 14.688022 99.668404 29,600 126 431 -1856
2021-12-06 00:09:51 GMT 14.697418 99.655327 29,800 126 432 -1856
2021-12-06 00:09:46 GMT 14.701126 99.650208 29,925 126 434 -1856
2021-12-06 00:09:41 GMT 14.705712 99.643875 30,150 126 435 -1920
2021-12-06 00:09:38 GMT 14.709436 99.638718 30,150 126 435 -1920
2021-12-06 00:09:35 GMT 14.713257 99.633400 30,250 126 436 -1920
2021-12-06 00:09:30 GMT 14.720215 99.623695 30,425 126 437 -1856
2021-12-06 00:09:25 GMT 14.726009 99.615639 30,575 126 439 -1792
2021-12-06 00:09:19 GMT 14.732941 99.606026 30,750 126 440 -1792
2021-12-06 00:09:13 GMT 14.738892 99.597740 30,900 126 441 -1856
2021-12-06 00:09:07 GMT 14.746352 99.587448 31,075 126 443 -1792
2021-12-06 00:09:04 GMT 14.751251 99.580643 31,200 126 444 -1792
2021-12-06 00:08:57 GMT 14.758735 99.570251 31,400 126 446 -1856
2021-12-06 00:08:52 GMT 14.764415 99.562393 31,525 126 447 -1856
2021-12-06 00:08:47 GMT 14.772608 99.551071 31,750 126 448 -1856
2021-12-06 00:08:43 GMT 14.777802 99.543854 31,875 126 450 -1792
2021-12-06 00:08:36 GMT 14.785538 99.533150 32,050 126 451 -1856
2021-12-06 00:08:32 GMT 14.790530 99.526253 32,175 126 453 -1856
2021-12-06 00:08:26 GMT 14.800278 99.512695 32,425 126 454 -1856
2021-12-06 00:08:22 GMT 14.803299 99.508522 32,500 126 455 -1856
2021-12-06 00:08:16 GMT 14.810120 99.499100 32,675 126 456 -1984
2021-12-06 00:08:13 GMT 14.813736 99.494034 32,775 126 456 -2048
2021-12-06 00:08:09 GMT 14.818415 99.487511 32,900 126 457 -2176
2021-12-06 00:08:02 GMT 14.827214 99.475227 33,175 126 458 -2176
2021-12-06 00:07:59 GMT 14.831403 99.469429 33,275 126 459 -2112
2021-12-06 00:07:53 GMT 14.838991 99.458885 33,550 126 460 -1920
2021-12-06 00:07:50 GMT 14.844438 99.451286 33,625 126 460 -1984
2021-12-06 00:07:47 GMT 14.846347 99.448631 33,675 126 461 -1984
2021-12-06 00:07:43 GMT 14.851730 99.441208 33,825 126 462 -2112
2021-12-06 00:07:39 GMT 14.861389 99.427711 34,100 126 462 -2048
2021-12-06 00:07:31 GMT 14.866643 99.420433 34,250 126 464 -2112
2021-12-06 00:07:27 GMT 14.871780 99.413307 34,350 126 464 -2112
2021-12-06 00:07:21 GMT 14.881168 99.400276 34,650 126 466 -2176
2021-12-06 00:07:18 GMT 14.884380 99.395813 34,750 126 466 -2176
2021-12-06 00:07:11 GMT 14.892517 99.384544 34,975 126 467 -2176
2021-12-06 00:07:08 GMT 14.897781 99.377220 35,125 126 468 -2176
2021-12-06 00:07:05 GMT 14.900114 99.373985 35,175 126 469 -2176
2021-12-06 00:06:59 GMT 14.908680 99.362114 35,425 126 469 -2240
2021-12-06 00:06:54 GMT 14.914352 99.354187 35,575 126 470 -2240
2021-12-06 00:06:50 GMT 14.919937 99.346375 35,800 126 471 -2240
2021-12-06 00:06:47 GMT 14.925018 99.339340 35,875 126 471 -2240
2021-12-06 00:06:43 GMT 14.928268 99.334816 35,975 126 472 -2240
2021-12-06 00:06:39 GMT 14.933762 99.327202 36,375 126 473 -2304
2021-12-06 00:06:36 GMT 14.938568 99.320503 36,250 126 474 -2240
2021-12-06 00:06:28 GMT 14.948502 99.306671 36,525 126 474 -1984
2021-12-06 00:06:26 GMT 14.952439 99.301201 36,600 126 476 -1856
2021-12-06 00:06:16 GMT 14.963193 99.286240 36,825 126 476 -1216
2021-12-06 00:06:14 GMT 14.966498 99.281631 36,875 126 476 -1088
2021-12-06 00:06:07 GMT 14.975784 99.268654 36,975 126 476 -576
2021-12-06 00:06:04 GMT 14.980417 99.262260 37,000 126 474 -256
2021-12-06 00:06:00 GMT 14.984985 99.255882 37,000 126 474 -64
2021-12-06 00:05:56 GMT 14.990067 99.248802 37,000 126 474 0
2021-12-06 00:05:53 GMT 14.993866 99.243500 37,000 126 474 0
2021-12-06 00:05:50 GMT 14.998712 99.236755 37,000 126 474 0
2021-12-06 00:05:47 GMT 15.001366 99.233078 37,000 126 474 0
2021-12-06 00:05:44 GMT 15.007507 99.224518 37,000 126 474 0
2021-12-06 00:05:37 GMT 15.014557 99.214638 37,000 126 474 0
2021-12-06 00:05:35 GMT 15.017303 99.210831 37,000 126 474 0
2021-12-06 00:05:32 GMT 15.021515 99.205002 37,000 126 474 0
2021-12-06 00:05:27 GMT 15.028564 99.195122 37,000 126 474 0
2021-12-06 00:05:23 GMT 15.035768 99.185112 37,000 126 474 0
2021-12-06 00:05:17 GMT 15.041633 99.176872 37,000 126 474 0
2021-12-06 00:05:14 GMT 15.045593 99.171417 37,000 126 474 0
2021-12-06 00:05:11 GMT 15.048843 99.166840 37,000 126 474 0
2021-12-06 00:05:07 GMT 15.054482 99.158966 37,000 126 474 0
2021-12-06 00:05:01 GMT 15.062302 99.148048 37,000 126 474 0
2021-12-06 00:04:56 GMT 15.068727 99.139107 37,000 126 474 0
2021-12-06 00:04:50 GMT 15.076813 99.127762 37,000 126 474 0
2021-12-06 00:04:47 GMT 15.080338 99.122841 37,000 126 474 0
2021-12-06 00:04:40 GMT 15.090792 99.108253 37,000 126 474 0
2021-12-06 00:04:34 GMT 15.097217 99.099327 37,000 126 474 0
2021-12-06 00:04:30 GMT 15.104805 99.088737 37,000 126 474 0
2021-12-06 00:04:26 GMT 15.108078 99.084198 37,000 126 474 0
2021-12-06 00:04:24 GMT 15.110950 99.080154 37,000 126 474 0
2021-12-06 00:04:19 GMT 15.118491 99.069603 37,000 126 474 0
2021-12-06 00:04:14 GMT 15.124374 99.061409 37,000 126 474 0
2021-12-06 00:04:09 GMT 15.132202 99.050468 37,000 126 474 0
2021-12-06 00:04:06 GMT 15.134583 99.047195 37,000 126 473 0
2021-12-06 00:04:03 GMT 15.138462 99.041702 37,000 126 473 0
2021-12-06 00:03:57 GMT 15.146439 99.030617 37,000 126 474 0
2021-12-06 00:03:52 GMT 15.152206 99.022568 37,000 126 474 0
2021-12-06 00:03:46 GMT 15.161459 99.009674 37,000 126 473 0
2021-12-06 00:03:41 GMT 15.166812 99.002167 37,000 126 473 0
2021-12-06 00:03:36 GMT 15.173996 98.992165 37,000 126 473 0
2021-12-06 00:03:29 GMT 15.182174 98.980736 37,000 126 473 0
2021-12-06 00:03:25 GMT 15.187912 98.972694 37,000 126 472 0
2021-12-06 00:03:20 GMT 15.194418 98.963615 37,000 126 472 0
2021-12-06 00:03:14 GMT 15.201553 98.953613 37,000 126 472 0
2021-12-06 00:03:09 GMT 15.208709 98.943604 37,000 126 472 0
2021-12-06 00:03:04 GMT 15.215739 98.933800 37,000 126 472 0
2021-12-06 00:02:59 GMT 15.221420 98.925812 37,000 126 472 0
2021-12-06 00:02:54 GMT 15.229752 98.914200 37,000 126 472 0
2021-12-06 00:02:46 GMT 15.238861 98.901482 37,000 126 472 0
2021-12-06 00:02:42 GMT 15.243018 98.895638 37,000 126 472 0
2021-12-06 00:02:35 GMT 15.253260 98.881271 37,000 126 472 0
2021-12-06 00:02:33 GMT 15.257030 98.875969 37,000 126 472 0
2021-12-06 00:02:27 GMT 15.263548 98.866898 37,000 126 472 0
2021-12-06 00:02:22 GMT 15.270676 98.856857 37,000 126 472 0
2021-12-06 00:02:14 GMT 15.279556 98.844475 37,000 126 472 0
2021-12-06 00:02:11 GMT 15.284729 98.837227 37,000 126 472 0
2021-12-06 00:02:05 GMT 15.291107 98.828300 37,000 126 472 0
2021-12-06 00:02:01 GMT 15.298782 98.817543 37,000 126 472 0
2021-12-06 00:01:55 GMT 15.305026 98.808830 37,000 126 472 0
2021-12-06 00:01:50 GMT 15.312567 98.798233 37,000 126 472 0
2021-12-06 00:01:43 GMT 15.319977 98.787857 37,000 126 472 0
2021-12-06 00:01:38 GMT 15.326486 98.778763 37,000 126 472 0
2021-12-06 00:01:33 GMT 15.333795 98.768562 37,000 126 472 0
2021-12-06 00:01:29 GMT 15.340118 98.759621 37,000 126 472 0
2021-12-06 00:01:23 GMT 15.346643 98.750511 37,000 126 472 0
2021-12-06 00:01:18 GMT 15.353760 98.740494 37,000 126 472 0
2021-12-06 00:01:12 GMT 15.360516 98.730995 37,000 126 472 0
2021-12-06 00:01:07 GMT 15.367950 98.720589 37,000 126 472 0
2021-12-06 00:01:01 GMT 15.374342 98.711670 37,000 126 472 0
2021-12-06 00:00:57 GMT 15.382004 98.700928 37,000 126 472 0
2021-12-06 00:00:50 GMT 15.388641 98.691628 37,000 126 472 0
2021-12-06 00:00:46 GMT 15.395920 98.681419 37,000 126 472 0
2021-12-06 00:00:42 GMT 15.399294 98.676651 37,000 126 473 0
2021-12-06 00:00:38 GMT 15.405899 98.667343 37,000 126 473 0
2021-12-06 00:00:35 GMT 15.409424 98.662430 37,000 126 473 0
2021-12-06 00:00:29 GMT 15.416425 98.652565 37,000 126 473 0
2021-12-06 00:00:25 GMT 15.421600 98.645279 37,000 126 473 0
2021-12-06 00:00:21 GMT 15.427094 98.637566 37,000 126 474 0
2021-12-06 00:00:17 GMT 15.433836 98.628090 37,000 126 474 0
2021-12-06 00:00:13 GMT 15.436582 98.624268 37,000 126 474 0
2021-12-06 00:00:10 GMT 15.440872 98.618195 37,000 126 474 0
2021-12-06 00:00:07 GMT 15.444543 98.613083 37,000 126 475 0
2021-12-06 00:00:03 GMT 15.449890 98.605576 37,000 126 475 0
2021-12-05 23:59:59 GMT 15.455246 98.598106 37,000 126 475 0
2021-12-05 23:59:56 GMT 15.460557 98.590576 37,000 126 475 0
2021-12-05 23:59:53 GMT 15.463210 98.586891 37,000 126 475 0
2021-12-05 23:59:49 GMT 15.467866 98.580322 37,000 126 475 0
2021-12-05 23:59:45 GMT 15.473877 98.571892 37,000 126 475 0
2021-12-05 23:59:42 GMT 15.477173 98.567314 37,000 126 475 0
2021-12-05 23:59:36 GMT 15.486053 98.554832 37,000 126 476 0
2021-12-05 23:59:32 GMT 15.491281 98.547508 37,000 126 476 -64
2021-12-05 23:59:28 GMT 15.496076 98.540695 37,000 126 476 0
2021-12-05 23:59:24 GMT 15.502350 98.531898 37,000 126 476 0
2021-12-05 23:59:21 GMT 15.504968 98.528236 37,000 126 476 0
2021-12-05 23:59:17 GMT 15.510088 98.521027 37,000 126 476 0
2021-12-05 23:59:14 GMT 15.515671 98.513153 37,000 126 476 0
2021-12-05 23:59:10 GMT 15.519864 98.507294 37,000 126 476 0
2021-12-05 23:59:07 GMT 15.523773 98.501778 37,000 126 476 0
2021-12-05 23:59:03 GMT 15.530182 98.492767 37,000 126 476 0
2021-12-05 23:58:59 GMT 15.533981 98.487419 37,000 126 476 0
2021-12-05 23:58:56 GMT 15.537506 98.482460 37,000 126 476 0
2021-12-05 23:58:51 GMT 15.543915 98.473450 37,000 126 477 0
2021-12-05 23:58:46 GMT 15.551380 98.462952 37,000 126 477 0
2021-12-05 23:58:41 GMT 15.558549 98.452805 37,000 126 477 0
2021-12-05 23:58:36 GMT 15.564555 98.444321 37,000 126 477 0
2021-12-05 23:58:31 GMT 15.570969 98.435280 37,000 126 477 0
2021-12-05 23:58:21 GMT 15.585480 98.414856 37,000 126 477 64
2021-12-05 23:58:09 GMT 15.599899 98.394569 37,000 126 477 0
2021-12-05 23:57:59 GMT 15.612854 98.376305 37,000 126 477 0
2021-12-05 23:57:54 GMT 15.618881 98.367805 37,000 126 478 0
2021-12-05 23:57:49 GMT 15.626469 98.357117 37,000 126 478 0
2021-12-05 23:57:45 GMT 15.630566 98.351425 37,000 126 478 0
2021-12-05 23:57:38 GMT 15.641830 98.335541 37,000 126 478 0
2021-12-05 23:57:32 GMT 15.648395 98.326263 37,000 126 478 0
2021-12-05 23:57:27 GMT 15.655192 98.316696 37,000 126 478 0
2021-12-05 23:57:22 GMT 15.660461 98.309280 37,000 126 478 0
2021-12-05 23:57:16 GMT 15.669763 98.296150 37,000 126 478 0
2021-12-05 23:57:12 GMT 15.673533 98.290802 37,000 126 478 0
2021-12-05 23:57:06 GMT 15.683775 98.276382 37,000 126 478 0
2021-12-05 23:56:55 GMT 15.696625 98.258247 37,000 126 478 0
2021-12-05 23:56:52 GMT 15.700813 98.252350 37,000 126 478 0
2021-12-05 23:56:46 GMT 15.709579 98.239937 37,000 126 479 0
2021-12-05 23:56:43 GMT 15.711939 98.236610 37,000 126 479 0
2021-12-05 23:56:39 GMT 15.717178 98.229195 37,000 126 479 0
2021-12-05 23:56:34 GMT 15.725998 98.216789 37,000 126 479 0
2021-12-05 23:56:30 GMT 15.728605 98.213066 37,000 126 479 0
2021-12-05 23:56:25 GMT 15.737274 98.200813 37,000 126 479 0
2021-12-05 23:56:22 GMT 15.739609 98.197487 37,000 126 479 0
2021-12-05 23:56:17 GMT 15.746201 98.188232 37,000 126 479 0
2021-12-05 23:56:11 GMT 15.754074 98.177109 37,000 126 479 0
2021-12-05 23:56:08 GMT 15.758148 98.171371 37,000 126 479 0
2021-12-05 23:56:02 GMT 15.766917 98.158920 37,000 126 479 0
2021-12-05 23:55:55 GMT 15.775343 98.147049 37,000 126 479 0
2021-12-05 23:55:50 GMT 15.782135 98.137398 37,000 126 479 0
2021-12-05 23:55:45 GMT 15.788315 98.128677 37,000 126 478 0
2021-12-05 23:55:41 GMT 15.794861 98.119431 37,000 126 478 0
2021-12-05 23:55:37 GMT 15.799038 98.113449 37,000 126 478 0
2021-12-05 23:55:29 GMT 15.809280 98.099030 37,000 126 478 0
2021-12-05 23:55:21 GMT 15.820770 98.082710 37,000 126 478 0
2021-12-05 23:55:18 GMT 15.822733 98.079903 37,000 126 478 0
2021-12-05 23:55:14 GMT 15.828785 98.071419 37,000 126 478 0
2021-12-05 23:55:11 GMT 15.834274 98.063629 37,000 126 478 0
2021-12-05 23:55:08 GMT 15.837021 98.059723 37,000 126 478 0
2021-12-05 23:55:05 GMT 15.840702 98.054550 37,000 126 478 0
2021-12-05 23:54:57 GMT 15.851028 98.039917 37,000 126 478 0
2021-12-05 23:54:49 GMT 15.862815 98.023254 37,000 126 478 0
2021-12-05 23:54:46 GMT 15.865402 98.019539 37,000 126 478 0
2021-12-05 23:54:40 GMT 15.873505 98.008072 37,000 126 478 0
2021-12-05 23:54:36 GMT 15.878632 98.000839 37,000 126 478 0
2021-12-05 23:54:30 GMT 15.886734 97.989326 37,000 126 478 0
2021-12-05 23:54:25 GMT 15.893167 97.980240 37,000 126 478 0
2021-12-05 23:54:22 GMT 15.897079 97.974678 37,000 126 479 0
2021-12-05 23:54:17 GMT 15.903122 97.966103 37,000 126 479 0
2021-12-05 23:54:14 GMT 15.906509 97.961281 37,000 126 480 0
2021-12-05 23:54:07 GMT 15.917404 97.945862 37,000 126 480 0
2021-12-05 23:54:03 GMT 15.921610 97.939926 37,000 126 480 0
2021-12-05 23:53:57 GMT 15.930130 97.927841 37,000 126 480 0
2021-12-05 23:53:53 GMT 15.935257 97.920563 37,000 126 480 0
2021-12-05 23:53:47 GMT 15.944700 97.907112 37,000 126 481 0
2021-12-05 23:53:42 GMT 15.949173 97.900810 37,000 126 481 0
2021-12-05 23:53:31 GMT 15.963368 97.880676 37,000 126 481 0
2021-12-05 23:53:21 GMT 15.976914 97.861450 37,000 126 481 0
2021-12-05 23:53:13 GMT 15.987854 97.846001 37,000 126 480 0
2021-12-05 23:53:10 GMT 15.991532 97.840805 37,000 126 480 0
2021-12-05 23:53:01 GMT 16.003372 97.824051 37,000 126 480 0
2021-12-05 23:52:56 GMT 16.009966 97.814713 37,000 126 480 0
2021-12-05 23:52:47 GMT 16.021744 97.798187 37,000 126 480 0
2021-12-05 23:52:44 GMT 16.027935 97.789406 37,000 126 480 0
2021-12-05 23:52:36 GMT 16.035849 97.778275 37,000 126 480 0
2021-12-05 23:52:32 GMT 16.041248 97.770622 37,000 126 480 0
2021-12-05 23:52:27 GMT 16.047684 97.761551 37,000 126 480 0
2021-12-05 23:52:24 GMT 16.051397 97.756348 37,000 125 479 0
2021-12-05 23:52:16 GMT 16.062973 97.739967 37,000 126 480 0
2021-12-05 23:52:05 GMT 16.076797 97.720451 37,000 126 479 0
2021-12-05 23:51:54 GMT 16.090942 97.700066 37,000 125 479 0
2021-12-05 23:51:46 GMT 16.102386 97.683350 37,000 125 479 0
2021-12-05 23:51:43 GMT 16.104950 97.679588 37,000 125 479 0
2021-12-05 23:51:40 GMT 16.110054 97.672035 37,000 125 479 0
2021-12-05 23:51:33 GMT 16.118134 97.660172 37,000 125 479 0
2021-12-05 23:51:23 GMT 16.131187 97.641037 37,000 125 479 0
2021-12-05 23:51:12 GMT 16.145096 97.620560 37,000 125 478 0
2021-12-05 23:51:01 GMT 16.158554 97.600807 37,000 125 478 0
2021-12-05 23:50:51 GMT 16.184118 97.563202 37,000 125 479 0
2021-12-05 23:50:38 GMT 16.187943 97.557579 37,000 125 479 0
2021-12-05 23:50:30 GMT 16.199203 97.541054 37,000 125 479 0
2021-12-05 23:50:20 GMT 16.211956 97.522247 37,000 125 478 0
2021-12-05 23:50:09 GMT 16.225479 97.502312 37,000 125 478 0
2021-12-05 23:49:53 GMT 16.245939 97.472221 37,000 125 478 0
2021-12-05 23:49:48 GMT 16.252213 97.463043 37,000 125 478 0
2021-12-05 23:49:37 GMT 16.266235 97.442406 37,000 125 478 0
2021-12-05 23:49:27 GMT 16.279266 97.423241 37,000 125 478 0
2021-12-05 23:49:16 GMT 16.292538 97.403656 37,000 125 477 0
2021-12-05 23:48:51 GMT 16.326986 97.352699 37,000 125 477 0
2021-12-05 23:48:44 GMT 16.333225 97.343529 37,000 125 477 0
2021-12-05 23:48:40 GMT 16.339737 97.333900 37,000 125 477 0
2021-12-05 23:48:29 GMT 16.352783 97.314529 37,000 124 478 0
2021-12-05 23:48:20 GMT 16.365997 97.294968 37,000 124 477 0
2021-12-05 23:48:08 GMT 16.379700 97.274635 37,000 124 476 0
2021-12-05 23:47:58 GMT 16.393276 97.254555 37,000 125 477 0
2021-12-05 23:47:48 GMT 16.407852 97.233192 37,000 125 476 0
2021-12-05 23:47:36 GMT 16.420650 97.214439 37,000 125 477 0
2021-12-05 23:47:25 GMT 16.434677 97.193825 37,000 126 477 0
2021-12-05 23:47:16 GMT 16.449326 97.174553 37,000 130 476 0
2021-12-05 23:47:04 GMT 16.464783 97.156609 37,000 134 475 0
2021-12-05 23:46:53 GMT 16.481913 97.139153 37,000 137 475 0
2021-12-05 23:46:44 GMT 16.498392 97.124336 37,000 141 474 0
2021-12-05 23:46:32 GMT 16.517349 97.109406 37,000 144 474 0
2021-12-05 23:46:24 GMT 16.532272 97.098473 37,000 144 474 0
2021-12-05 23:46:21 GMT 16.537491 97.094666 37,000 144 474 0
2021-12-05 23:46:17 GMT 16.544540 97.089508 37,000 144 474 0
2021-12-05 23:46:11 GMT 16.556763 97.080589 37,000 144 474 0
2021-12-05 23:46:06 GMT 16.564171 97.075195 37,000 144 474 0
2021-12-05 23:46:01 GMT 16.575342 97.067001 37,000 144 474 0
2021-12-05 23:45:55 GMT 16.583071 97.061363 37,000 144 474 0
2021-12-05 23:45:49 GMT 16.594025 97.053322 37,000 144 474 0
2021-12-05 23:45:45 GMT 16.601578 97.047775 37,000 144 474 0
2021-12-05 23:45:39 GMT 16.613096 97.039291 37,000 144 474 0
2021-12-05 23:45:34 GMT 16.620850 97.033661 37,000 144 474 0
2021-12-05 23:45:29 GMT 16.633438 97.024406 37,000 144 474 0
2021-12-05 23:45:24 GMT 16.640238 97.019379 37,000 144 474 0
2021-12-05 23:45:17 GMT 16.652479 97.010406 37,000 144 474 0
2021-12-05 23:45:07 GMT 16.671007 96.996872 37,000 144 474 0
2021-12-05 23:44:57 GMT 16.690281 96.982697 37,000 144 475 0
2021-12-05 23:44:52 GMT 16.696930 96.977814 37,000 144 475 0
2021-12-05 23:44:46 GMT 16.709564 96.968559 37,000 144 475 0
2021-12-05 23:44:41 GMT 16.716385 96.963547 37,000 144 476 64
2021-12-05 23:44:35 GMT 16.729385 96.953957 37,000 144 476 64
2021-12-05 23:44:30 GMT 16.736229 96.948952 37,000 144 477 0
2021-12-05 23:44:25 GMT 16.748890 96.939629 37,000 144 478 0
2021-12-05 23:44:21 GMT 16.754150 96.935791 37,000 144 478 -64
2021-12-05 23:44:13 GMT 16.767929 96.925674 37,000 144 478 0
2021-12-05 23:44:10 GMT 16.772678 96.922218 37,000 144 478 0
2021-12-05 23:44:03 GMT 16.786831 96.911873 37,000 144 478 0
2021-12-05 23:43:59 GMT 16.792603 96.907608 37,000 144 478 0
2021-12-05 23:43:53 GMT 16.806015 96.897774 37,000 144 479 0
2021-12-05 23:43:48 GMT 16.812387 96.893089 37,000 144 479 0
2021-12-05 23:43:41 GMT 16.825979 96.883133 37,000 144 479 0
2021-12-05 23:43:38 GMT 16.830496 96.879799 37,000 144 479 0
2021-12-05 23:43:31 GMT 16.845016 96.869102 37,000 144 479 0
2021-12-05 23:43:26 GMT 16.852283 96.863754 37,000 144 479 0
2021-12-05 23:43:21 GMT 16.865316 96.854141 37,000 144 479 0
2021-12-05 23:43:17 GMT 16.868761 96.851646 37,000 144 478 0
2021-12-05 23:43:09 GMT 16.883286 96.840919 37,000 144 478 0
2021-12-05 23:42:59 GMT 16.903015 96.826416 37,000 144 478 0
2021-12-05 23:42:55 GMT 16.908646 96.822266 37,000 144 478 0
2021-12-05 23:42:49 GMT 16.922974 96.811768 37,000 144 478 0
2021-12-05 23:42:39 GMT 16.940359 96.799019 37,000 144 478 0
2021-12-05 23:42:35 GMT 16.944876 96.795685 37,000 144 478 0
2021-12-05 23:42:27 GMT 16.960796 96.783913 37,000 144 478 0
2021-12-05 23:42:24 GMT 16.965500 96.780441 37,000 144 478 0
2021-12-05 23:42:17 GMT 16.980194 96.769653 37,000 144 478 0
2021-12-05 23:42:13 GMT 16.985048 96.766006 37,000 144 478 0
2021-12-05 23:42:07 GMT 16.998093 96.756401 37,000 144 479 0
2021-12-05 23:42:04 GMT 17.002089 96.753456 37,000 144 479 0
2021-12-05 23:41:56 GMT 17.017136 96.742378 37,000 144 479 0
2021-12-05 23:41:53 GMT 17.022198 96.738640 37,000 144 479 0
2021-12-05 23:41:45 GMT 17.038879 96.726379 37,000 144 479 0
2021-12-05 23:41:41 GMT 17.043985 96.722603 37,000 144 479 0
2021-12-05 23:41:35 GMT 17.060257 96.710625 37,000 144 478 0
2021-12-05 23:41:32 GMT 17.060257 96.710625 37,000 144 478 0
2021-12-05 23:41:21 GMT 17.078934 96.696838 37,000 144 478 0
2021-12-05 23:41:13 GMT 17.096682 96.683762 37,000 144 477 0
2021-12-05 23:41:10 GMT 17.098846 96.682190 37,000 144 477 0
2021-12-05 23:41:03 GMT 17.114410 96.670723 37,000 144 478 0
2021-12-05 23:41:00 GMT 17.117119 96.668701 37,000 144 478 0
2021-12-05 23:40:49 GMT 17.137367 96.653740 37,000 144 478 0
2021-12-05 23:40:42 GMT 17.152176 96.642822 37,000 144 477 0
2021-12-05 23:40:39 GMT 17.155617 96.640305 37,000 144 477 0
2021-12-05 23:40:31 GMT 17.171539 96.628563 37,000 144 477 0
2021-12-05 23:40:28 GMT 17.175121 96.625885 37,000 144 477 0
2021-12-05 23:40:18 GMT 17.193743 96.612152 37,000 144 476 0
2021-12-05 23:40:09 GMT 17.212364 96.598419 37,000 144 478 0
2021-12-05 23:39:58 GMT 17.232330 96.583511 37,000 144 477 0
2021-12-05 23:39:46 GMT 17.251097 96.569527 37,000 144 478 0
2021-12-05 23:39:36 GMT 17.270279 96.555420 37,000 144 478 0
2021-12-05 23:39:26 GMT 17.290293 96.539612 37,000 140 478 0
2021-12-05 23:39:15 GMT 17.307331 96.524406 37,000 136 479 0
2021-12-05 23:39:04 GMT 17.324295 96.507324 37,000 133 480 0
2021-12-05 23:38:52 GMT 17.341278 96.487671 37,000 129 481 0
2021-12-05 23:38:42 GMT 17.355885 96.468201 37,000 126 482 0
2021-12-05 23:38:31 GMT 17.369843 96.448784 37,000 126 483 0
2021-12-05 23:38:22 GMT 17.384033 96.429169 37,000 126 484 0
2021-12-05 23:38:11 GMT 17.398087 96.409752 37,000 126 484 0
2021-12-05 23:38:00 GMT 17.413191 96.388794 37,000 126 485 0
2021-12-05 23:37:48 GMT 17.427658 96.368744 37,000 126 485 0
2021-12-05 23:37:39 GMT 17.441711 96.349228 37,000 126 485 64
2021-12-05 23:37:28 GMT 17.456577 96.328613 37,000 126 485 0
2021-12-05 23:37:16 GMT 17.471195 96.308411 37,000 126 485 0
2021-12-05 23:37:07 GMT 17.485657 96.288322 37,000 126 485 0
2021-12-05 23:36:56 GMT 17.500122 96.268227 37,000 126 485 0
2021-12-05 23:36:44 GMT 17.514069 96.248863 37,000 126 485 0
2021-12-05 23:36:35 GMT 17.528919 96.228218 37,000 126 485 0
2021-12-05 23:36:24 GMT 17.542837 96.208893 37,000 126 485 0
2021-12-05 23:36:13 GMT 17.558247 96.187508 37,000 126 485 0
2021-12-05 23:36:02 GMT 17.571991 96.168343 37,000 126 485 0
2021-12-05 23:35:52 GMT 17.586594 96.148056 37,000 126 485 0
2021-12-05 23:35:41 GMT 17.601681 96.126984 37,000 126 485 0
2021-12-05 23:35:29 GMT 17.615692 96.107468 37,000 126 484 0
2021-12-05 23:35:19 GMT 17.629990 96.087631 37,000 126 484 0
2021-12-05 23:35:09 GMT 17.643995 96.068130 37,000 126 485 0
2021-12-05 23:34:57 GMT 17.658691 96.047684 37,000 126 485 0
2021-12-05 23:34:46 GMT 17.673431 96.027252 37,000 126 485 0
2021-12-05 23:34:37 GMT 17.687429 96.007660 37,000 126 485 0
2021-12-05 23:34:26 GMT 17.701769 95.987747 37,000 126 485 0
2021-12-05 23:34:14 GMT 17.716896 95.966606 37,000 126 487 0
2021-12-05 23:34:05 GMT 17.731796 95.945869 37,000 126 487 0
2021-12-05 23:33:54 GMT 17.745712 95.926437 37,000 126 487 0
2021-12-05 23:33:42 GMT 17.760191 95.906181 37,000 126 487 0
2021-12-05 23:33:32 GMT 17.774414 95.886360 37,000 126 488 0
2021-12-05 23:33:22 GMT 17.788879 95.866119 37,000 126 488 0
2021-12-05 23:33:10 GMT 17.804031 95.844917 37,000 126 487 0
2021-12-05 23:32:59 GMT 17.818222 95.825066 37,000 126 487 0
2021-12-05 23:32:50 GMT 17.832300 95.805443 37,000 126 487 0
2021-12-05 23:32:39 GMT 17.847755 95.783859 37,000 126 487 0
2021-12-05 23:32:28 GMT 17.861675 95.764389 37,000 126 487 0
2021-12-05 23:32:17 GMT 17.876245 95.743935 37,000 126 487 0
2021-12-05 23:32:06 GMT 17.891235 95.722916 37,000 126 487 0
2021-12-05 23:31:56 GMT 17.905294 95.703232 37,000 126 487 0
2021-12-05 23:31:44 GMT 17.919632 95.683167 37,000 126 487 0
2021-12-05 23:31:33 GMT 17.934483 95.662376 37,000 126 486 0
2021-12-05 23:31:24 GMT 17.948639 95.642494 37,000 126 487 0
2021-12-05 23:31:13 GMT 17.962646 95.622795 37,000 126 486 0
2021-12-05 23:31:02 GMT 17.976938 95.602730 37,000 126 486 0
2021-12-05 23:30:52 GMT 17.991880 95.581741 37,000 126 486 0
2021-12-05 23:30:40 GMT 18.006033 95.561829 37,000 126 487 0
2021-12-05 23:30:30 GMT 18.020187 95.541977 37,000 126 486 0
2021-12-05 23:30:20 GMT 18.034756 95.521515 37,000 126 486 0
2021-12-05 23:30:09 GMT 18.049419 95.500862 37,000 126 486 0
2021-12-05 23:29:57 GMT 18.064087 95.480202 37,000 126 486 0
2021-12-05 23:29:48 GMT 18.077682 95.461075 37,000 126 486 0
2021-12-05 23:29:37 GMT 18.092331 95.440453 37,000 126 486 0
2021-12-05 23:29:25 GMT 18.107117 95.419678 37,000 126 486 0
2021-12-05 23:29:16 GMT 18.121353 95.399635 37,000 126 484 0
2021-12-05 23:29:05 GMT 18.135178 95.380173 37,000 126 484 0
2021-12-05 23:28:53 GMT 18.150206 95.359024 37,000 126 484 0
2021-12-05 23:28:42 GMT 18.164450 95.339012 37,000 126 484 0
2021-12-05 23:28:32 GMT 18.180038 95.317192 37,000 126 484 0
2021-12-05 23:28:22 GMT 18.193777 95.298004 37,000 126 484 0
2021-12-05 23:28:10 GMT 18.207697 95.278633 37,000 127 484 0
2021-12-05 23:28:01 GMT 18.222473 95.258186 37,000 127 485 0
2021-12-05 23:27:50 GMT 18.236710 95.238419 37,000 127 485 0
2021-12-05 23:27:38 GMT 18.251221 95.218307 37,000 126 485 0
2021-12-05 23:27:27 GMT 18.265701 95.198128 37,000 126 485 0
2021-12-05 23:27:18 GMT 18.280367 95.177505 37,000 126 486 0
2021-12-05 23:27:06 GMT 18.294798 95.156380 37,000 124 486 0
2021-12-05 23:26:56 GMT 18.307505 95.137154 37,000 124 486 0
2021-12-05 23:26:46 GMT 18.321671 95.115807 37,000 124 486 0
2021-12-05 23:26:35 GMT 18.335815 95.094368 37,000 124 486 0
2021-12-05 23:26:23 GMT 18.350706 95.071838 37,000 124 487 0
2021-12-05 23:26:13 GMT 18.363327 95.052727 37,000 124 487 0
2021-12-05 23:26:01 GMT 18.377707 95.030937 37,000 124 487 0
2021-12-05 23:25:52 GMT 18.391068 95.010666 37,000 124 488 0
2021-12-05 23:25:41 GMT 18.404568 94.990143 37,000 124 488 0
2021-12-05 23:25:29 GMT 18.418673 94.968666 37,000 124 488 0
2021-12-05 23:25:20 GMT 18.432684 94.947395 37,000 124 488 0
2021-12-05 23:25:09 GMT 18.446184 94.926872 37,000 124 489 0
2021-12-05 23:24:58 GMT 18.459871 94.905891 37,000 124 489 0
2021-12-05 23:24:47 GMT 18.473976 94.884323 37,000 124 489 0
2021-12-05 23:24:37 GMT 18.486786 94.864639 37,000 124 490 0
2021-12-05 23:24:26 GMT 18.500748 94.843208 37,000 124 490 0
2021-12-05 23:24:15 GMT 18.514338 94.822350 37,000 124 490 0
2021-12-05 23:24:04 GMT 18.527231 94.802422 37,000 124 490 0
2021-12-05 23:23:53 GMT 18.541306 94.780724 37,000 124 490 0
2021-12-05 23:23:44 GMT 18.554699 94.760277 37,000 124 490 0
2021-12-05 23:23:33 GMT 18.569733 94.737854 37,000 125 490 0
2021-12-05 23:23:21 GMT 18.583420 94.717941 37,000 125 489 0
2021-12-05 23:23:11 GMT 18.597794 94.697044 37,000 125 489 0
2021-12-05 23:23:01 GMT 18.612305 94.676010 37,000 125 489 0
2021-12-05 23:22:50 GMT 18.625364 94.657059 37,000 125 490 0
2021-12-05 23:22:40 GMT 18.640539 94.634979 37,000 125 490 0
2021-12-05 23:22:28 GMT 18.655483 94.613312 37,000 125 490 0
2021-12-05 23:22:18 GMT 18.668657 94.594131 37,000 125 490 0
2021-12-05 23:22:06 GMT 18.683460 94.572609 37,000 125 491 0
2021-12-05 23:21:56 GMT 18.699051 94.549911 37,000 125 492 0
2021-12-05 23:21:45 GMT 18.711300 94.532059 37,000 125 492 0
2021-12-05 23:21:34 GMT 18.725876 94.510872 37,000 125 491 0
2021-12-05 23:21:24 GMT 18.740767 94.489113 37,000 125 491 0
2021-12-05 23:21:13 GMT 18.753845 94.470062 37,000 125 491 0
2021-12-05 23:21:02 GMT 18.769592 94.447105 37,000 125 491 0
2021-12-05 23:20:51 GMT 18.785177 94.424393 37,000 125 491 0
2021-12-05 23:20:41 GMT 18.797562 94.406319 37,000 125 491 0
2021-12-05 23:20:07 GMT 18.842203 94.341248 37,000 125 491 0
2021-12-05 23:19:59 GMT 18.853657 94.324516 37,000 125 491 0
2021-12-05 23:18:59 GMT 18.934519 94.206413 37,000 125 492 0
2021-12-05 23:18:53 GMT 18.941454 94.196228 37,000 125 492 0
We lost coverage of the aircraft here for a total of 18 minutes
2021-12-05 23:00:29 GMT 20.393091 92.033218 37,000 122 489 0
2021-12-05 23:00:24 GMT 20.399935 92.021233 37,000 119 490 0
2021-12-05 23:00:06 GMT 20.418230 91.983086 37,000 110 493 0
2021-12-05 22:59:57 GMT 20.426193 91.962433 37,000 110 493 0
2021-12-05 22:59:51 GMT 20.430613 91.948875 37,000 107 494 0
2021-12-05 22:59:30 GMT 20.444321 91.899803 37,000 106 494 0
2021-12-05 22:59:20 GMT 20.451416 91.873856 37,000 106 494 0
2021-12-05 22:59:15 GMT 20.454077 91.864029 37,000 106 494 0
2021-12-05 22:59:11 GMT 20.455902 91.857475 37,000 106 494 64
2021-12-05 22:59:02 GMT 20.462402 91.833641 37,000 106 494 0
2021-12-05 22:58:49 GMT 20.470367 91.804359 37,000 106 495 0
2021-12-05 22:58:43 GMT 20.474932 91.787773 37,000 106 495 0
2021-12-05 22:58:39 GMT 20.476730 91.781204 37,000 106 495 0
2021-12-05 22:58:30 GMT 20.483404 91.756615 37,000 106 495 0
2021-12-05 22:58:25 GMT 20.485266 91.749825 37,000 106 495 0
2021-12-05 22:58:17 GMT 20.490385 91.731094 37,000 106 495 0
2021-12-05 22:58:13 GMT 20.494204 91.717064 37,000 106 494 0
2021-12-05 22:58:08 GMT 20.497322 91.705582 37,000 106 494 0
2021-12-05 22:58:05 GMT 20.499186 91.698784 37,000 106 494 0
2021-12-05 22:58:00 GMT 20.501047 91.691994 37,000 106 494 0
2021-12-05 22:57:57 GMT 20.503601 91.682671 37,000 106 494 0
2021-12-05 22:57:52 GMT 20.506256 91.672813 37,000 106 494 0
2021-12-05 22:57:42 GMT 20.513077 91.647804 37,000 106 493 0
2021-12-05 22:57:35 GMT 20.517714 91.630768 37,000 106 493 0
2021-12-05 22:57:32 GMT 20.519064 91.625877 37,000 106 493 0
2021-12-05 22:57:28 GMT 20.522186 91.614449 37,000 106 493 0
2021-12-05 22:57:25 GMT 20.523697 91.608810 37,000 106 493 0
2021-12-05 22:57:22 GMT 20.525253 91.602974 37,000 106 493 0
2021-12-05 22:57:16 GMT 20.530380 91.584091 37,000 106 493 0
2021-12-05 22:57:11 GMT 20.532797 91.575241 37,000 106 493 0
2021-12-05 22:57:05 GMT 20.536707 91.560760 37,000 106 493 0
2021-12-05 22:57:02 GMT 20.537870 91.556564 37,000 106 493 0
2021-12-05 22:56:53 GMT 20.544107 91.533440 37,000 106 494 0
2021-12-05 22:56:44 GMT 20.550385 91.510277 37,000 106 494 0
2021-12-05 22:56:32 GMT 20.557159 91.485260 37,000 106 494 0
2021-12-05 22:56:23 GMT 20.563660 91.461380 37,000 106 494 0
2021-12-05 22:56:12 GMT 20.569805 91.438713 37,000 106 494 0
2021-12-05 22:56:10 GMT 20.571075 91.434013 37,000 106 494 0
2021-12-05 22:56:03 GMT 20.575607 91.417137 37,000 105 494 0
2021-12-05 22:56:00 GMT 20.578308 91.407326 37,000 105 494 0
2021-12-05 22:55:53 GMT 20.582062 91.393303 37,000 105 494 0
2021-12-05 22:55:49 GMT 20.584534 91.384178 37,000 106 494 0
2021-12-05 22:55:42 GMT 20.588837 91.368286 37,000 105 494 0
2021-12-05 22:55:39 GMT 20.591684 91.357758 37,000 105 494 0
2021-12-05 22:55:33 GMT 20.594742 91.346512 37,000 105 494 0
2021-12-05 22:55:28 GMT 20.598063 91.334137 37,000 105 494 0
2021-12-05 22:55:19 GMT 20.604355 91.310707 37,000 105 494 0
2021-12-05 22:55:11 GMT 20.608351 91.295937 37,000 105 495 0
2021-12-05 22:55:07 GMT 20.611130 91.285645 37,000 105 495 0
2021-12-05 22:55:03 GMT 20.613470 91.276962 37,000 105 495 0
2021-12-05 22:54:57 GMT 20.617893 91.260582 37,000 105 495 0
2021-12-05 22:54:52 GMT 20.620285 91.251656 37,000 105 495 0
2021-12-05 22:54:45 GMT 20.624680 91.235229 37,000 105 495 0
2021-12-05 22:54:42 GMT 20.626648 91.227966 37,000 105 495 0
2021-12-05 22:54:40 GMT 20.628553 91.220932 37,000 106 495 0
2021-12-05 22:54:36 GMT 20.631226 91.211098 37,000 106 495 0
2021-12-05 22:54:32 GMT 20.633057 91.204330 37,000 106 495 -64
2021-12-05 22:54:30 GMT 20.634888 91.197510 37,000 106 494 -64
2021-12-05 22:54:25 GMT 20.637680 91.187210 37,000 106 494 0
2021-12-05 22:54:22 GMT 20.639400 91.180878 37,000 105 494 0
2021-12-05 22:54:20 GMT 20.641296 91.173866 37,000 105 494 0
2021-12-05 22:54:16 GMT 20.644043 91.163567 37,000 105 494 0
2021-12-05 22:54:13 GMT 20.645554 91.157982 37,000 105 494 0
2021-12-05 22:54:03 GMT 20.652248 91.133141 37,000 105 493 0
2021-12-05 22:53:59 GMT 20.655304 91.121681 37,000 105 494 0
2021-12-05 22:53:53 GMT 20.657776 91.112511 37,000 105 494 0
2021-12-05 22:53:51 GMT 20.658829 91.108543 37,000 105 494 0
2021-12-05 22:53:48 GMT 20.661530 91.098488 37,000 105 494 0
2021-12-05 22:53:42 GMT 20.665516 91.083748 37,000 105 494 0
2021-12-05 22:53:32 GMT 20.670963 91.063576 37,000 105 494 0
2021-12-05 22:53:30 GMT 20.672266 91.058685 37,000 105 494 0
2021-12-05 22:53:26 GMT 20.675339 91.047195 37,000 105 494 0
2021-12-05 22:53:22 GMT 20.677853 91.037857 37,000 105 494 0
2021-12-05 22:53:19 GMT 20.678925 91.033890 37,000 105 494 0
2021-12-05 22:53:13 GMT 20.683207 91.017982 37,000 105 494 0
2021-12-05 22:53:10 GMT 20.685287 91.010254 37,000 105 494 0
2021-12-05 22:53:03 GMT 20.689499 90.994606 37,000 105 494 0
2021-12-05 22:52:59 GMT 20.692200 90.984505 37,000 105 493 0
2021-12-05 22:52:53 GMT 20.695683 90.971642 37,000 105 493 0
2021-12-05 22:52:48 GMT 20.699615 90.956940 37,000 105 493 0
2021-12-05 22:52:43 GMT 20.702087 90.947815 37,000 106 493 0
2021-12-05 22:52:37 GMT 20.705225 90.936134 37,000 106 493 0
2021-12-05 22:52:33 GMT 20.708450 90.924179 37,000 106 493 0
2021-12-05 22:52:27 GMT 20.712341 90.909706 37,000 106 493 0
2021-12-05 22:52:21 GMT 20.716072 90.895882 37,000 106 493 0
2021-12-05 22:52:16 GMT 20.718842 90.885628 37,000 106 493 0
2021-12-05 22:52:10 GMT 20.722403 90.872269 37,000 105 493 0
2021-12-05 22:52:06 GMT 20.725342 90.861298 37,000 105 494 0
2021-12-05 22:52:00 GMT 20.729246 90.846794 37,000 105 494 0
2021-12-05 22:51:55 GMT 20.732712 90.833885 37,000 105 494 0
2021-12-05 22:51:52 GMT 20.733994 90.829216 37,000 105 494 0
2021-12-05 22:51:50 GMT 20.735950 90.821976 37,000 106 494 0
2021-12-05 22:51:45 GMT 20.738983 90.810730 37,000 106 494 0
2021-12-05 22:51:42 GMT 20.740311 90.805824 37,000 106 494 0
2021-12-05 22:51:38 GMT 20.742840 90.796455 37,000 106 494 0
2021-12-05 22:51:35 GMT 20.745163 90.788025 37,000 106 493 0
2021-12-05 22:51:32 GMT 20.746702 90.782425 37,000 106 493 0
2021-12-05 22:51:27 GMT 20.749741 90.771202 37,000 106 493 0
2021-12-05 22:51:22 GMT 20.753082 90.759041 37,000 106 493 0
2021-12-05 22:51:16 GMT 20.756712 90.745674 37,000 105 494 0
2021-12-05 22:51:12 GMT 20.759319 90.736084 37,000 105 493 0
2021-12-05 22:51:07 GMT 20.765900 90.710724 37,000 105 495 64
2021-12-05 22:51:02 GMT 20.765900 90.710724 37,000 105 495 0
2021-12-05 22:50:52 GMT 20.772217 90.688316 37,000 108 494 -64
2021-12-05 22:50:42 GMT 20.779999 90.665215 37,000 111 492 0
2021-12-05 22:50:40 GMT 20.781647 90.660698 37,000 112 492 0
2021-12-05 22:50:35 GMT 20.785950 90.649712 37,000 116 491 0
2021-12-05 22:50:32 GMT 20.788692 90.643051 37,000 114 491 0
2021-12-05 22:50:29 GMT 20.791998 90.635307 37,000 115 490 0
2021-12-05 22:50:25 GMT 20.797073 90.624207 37,000 116 490 0
2021-12-05 22:50:22 GMT 20.798584 90.620972 37,000 117 490 0
2021-12-05 22:50:19 GMT 20.802380 90.613289 37,000 118 489 0
2021-12-05 22:50:12 GMT 20.809753 90.599144 37,000 120 489 0
2021-12-05 22:50:08 GMT 20.813227 90.592911 37,000 121 488 0
2021-12-05 22:50:05 GMT 20.817369 90.585770 37,000 123 488 0
2021-12-05 22:50:02 GMT 20.821699 90.578728 37,000 123 487 0
2021-12-05 22:49:58 GMT 20.835991 90.556206 37,000 124 487 0
2021-12-05 22:49:50 GMT 20.835991 90.556206 37,000 124 487 0
2021-12-05 22:49:46 GMT 20.842321 90.546219 37,000 124 488 0
2021-12-05 22:49:42 GMT 20.846651 90.539429 37,000 124 488 0
2021-12-05 22:49:40 GMT 20.849211 90.535431 37,000 124 488 0
2021-12-05 22:49:36 GMT 20.854294 90.527443 37,000 124 489 0
2021-12-05 22:49:31 GMT 20.862013 90.515259 37,000 124 489 0
2021-12-05 22:49:26 GMT 20.867111 90.507233 37,000 123 490 0
2021-12-05 22:49:22 GMT 20.872162 90.499229 37,000 123 490 0
2021-12-05 22:49:20 GMT 20.875488 90.493996 37,000 123 490 0
2021-12-05 22:49:15 GMT 20.881054 90.485146 37,000 123 491 0
2021-12-05 22:49:11 GMT 20.886292 90.476875 37,000 123 492 0
2021-12-05 22:49:08 GMT 20.888687 90.473061 37,000 123 492 0
2021-12-05 22:49:04 GMT 20.895576 90.462173 37,000 123 492 0
2021-12-05 22:49:01 GMT 20.898880 90.456963 37,000 123 492 0
2021-12-05 22:48:58 GMT 20.902817 90.450684 37,000 123 492 0
2021-12-05 22:48:55 GMT 20.906424 90.445045 37,000 123 492 0
2021-12-05 22:48:51 GMT 20.910736 90.438179 37,000 123 492 0
2021-12-05 22:48:48 GMT 20.915955 90.429886 37,000 123 493 0
2021-12-05 22:48:44 GMT 20.920902 90.421974 37,000 123 493 0
2021-12-05 22:48:41 GMT 20.923553 90.417778 37,000 123 493 0
2021-12-05 22:48:38 GMT 20.927746 90.411087 37,000 123 493 0
2021-12-05 22:48:35 GMT 20.933075 90.402573 37,000 123 493 0
2021-12-05 22:48:32 GMT 20.936403 90.397308 37,000 123 493 0
2021-12-05 22:48:26 GMT 20.943386 90.386169 37,000 123 493 0
2021-12-05 22:48:22 GMT 20.948320 90.378281 37,000 123 493 0
2021-12-05 22:48:20 GMT 20.951385 90.373390 37,000 123 493 0
2021-12-05 22:48:16 GMT 20.957474 90.363678 37,000 123 494 0
2021-12-05 22:48:12 GMT 20.961216 90.357803 37,000 123 494 0
2021-12-05 22:48:10 GMT 20.964380 90.352715 37,000 123 494 0
2021-12-05 22:48:05 GMT 20.971550 90.341377 37,000 123 494 0
2021-12-05 22:48:02 GMT 20.973953 90.337532 37,000 123 494 0
2021-12-05 22:47:55 GMT 20.982817 90.323547 37,000 123 494 0
2021-12-05 22:47:52 GMT 20.986773 90.317307 37,000 123 494 0
2021-12-05 22:47:50 GMT 20.989241 90.313461 37,000 123 494 0
2021-12-05 22:47:42 GMT 21.000183 90.295990 37,000 123 494 0
2021-12-05 22:47:40 GMT 21.002602 90.292137 37,000 123 493 0
2021-12-05 22:47:31 GMT 21.014006 90.274208 37,000 125 490 0
2021-12-05 22:47:27 GMT 21.020050 90.265434 37,000 129 486 0
2021-12-05 22:47:22 GMT 21.026249 90.257080 37,000 129 486 0
2021-12-05 22:47:19 GMT 21.030853 90.251137 37,000 130 485 0
2021-12-05 22:47:16 GMT 21.034676 90.246429 37,000 131 484 0
2021-12-05 22:47:12 GMT 21.040867 90.239159 37,000 133 482 0
2021-12-05 22:47:10 GMT 21.044683 90.234779 37,000 134 482 0
2021-12-05 22:47:06 GMT 21.051434 90.227509 37,000 136 480 0
2021-12-05 22:47:01 GMT 21.056580 90.222275 37,000 141 475 0
2021-12-05 22:46:58 GMT 21.064133 90.214935 37,000 139 477 0
2021-12-05 22:46:54 GMT 21.070194 90.209404 37,000 140 476 0
2021-12-05 22:46:51 GMT 21.073454 90.206551 37,000 141 475 0
2021-12-05 22:46:48 GMT 21.079506 90.201469 37,000 143 475 0
2021-12-05 22:46:44 GMT 21.088676 90.194145 37,000 143 475 0
2021-12-05 22:46:40 GMT 21.093658 90.190216 37,000 143 474 0
2021-12-05 22:46:36 GMT 21.100733 90.184685 37,000 143 475 0
2021-12-05 22:46:30 GMT 21.113161 90.174965 37,000 144 473 0
2021-12-05 22:46:26 GMT 21.119568 90.170036 37,000 144 473 0
2021-12-05 22:46:21 GMT 21.126251 90.165047 37,000 145 472 0
2021-12-05 22:46:19 GMT 21.130371 90.161995 37,000 146 472 0
2021-12-05 22:46:14 GMT 21.139343 90.155708 37,000 147 471 0
2021-12-05 22:46:11 GMT 21.145283 90.151772 37,000 148 471 0
2021-12-05 22:46:05 GMT 21.158970 90.143028 37,000 149 471 0
2021-12-05 22:46:01 GMT 21.166122 90.138481 37,000 149 471 0
2021-12-05 22:45:53 GMT 21.178289 90.130714 37,000 149 471 0
2021-12-05 22:45:49 GMT 21.186390 90.125580 37,000 149 471 0
2021-12-05 22:45:44 GMT 21.198399 90.117950 37,000 149 471 0
2021-12-05 22:45:39 GMT 21.207384 90.112206 37,000 149 471 0
2021-12-05 22:45:31 GMT 21.220322 90.103920 37,000 149 472 0
2021-12-05 22:45:29 GMT 21.226135 90.100174 37,000 149 472 0
2021-12-05 22:45:21 GMT 21.239086 90.091911 37,000 149 472 0
2021-12-05 22:45:18 GMT 21.246395 90.087181 37,000 149 472 0
2021-12-05 22:45:11 GMT 21.258224 90.079597 37,000 149 472 0
2021-12-05 22:45:06 GMT 21.266878 90.074059 37,000 149 472 0
2021-12-05 22:45:01 GMT 21.279261 90.066170 37,000 149 472 0
2021-12-05 22:44:56 GMT 21.288664 90.060173 37,000 149 472 0
2021-12-05 22:44:49 GMT 21.298254 90.054016 37,000 148 472 0
2021-12-05 22:44:43 GMT 21.312149 90.045097 37,000 148 473 0
2021-12-05 22:44:40 GMT 21.319668 90.040230 37,000 148 473 0
2021-12-05 22:44:32 GMT 21.332376 90.031944 37,000 148 473 0
2021-12-05 22:44:29 GMT 21.338196 90.028130 37,000 148 473 0
2021-12-05 22:44:23 GMT 21.347580 90.022026 37,000 150 473 0
2021-12-05 22:44:19 GMT 21.357887 90.015312 37,000 148 474 -64
2021-12-05 22:44:14 GMT 21.366919 90.009514 37,000 149 473 -64
2021-12-05 22:44:10 GMT 21.371475 90.006645 37,000 149 473 0
2021-12-05 22:44:07 GMT 21.377930 90.002647 37,000 150 473 0
2021-12-05 22:44:01 GMT 21.389635 89.995728 37,000 153 470 0
2021-12-05 22:43:57 GMT 21.397430 89.991508 37,000 155 469 0
2021-12-05 22:43:52 GMT 21.409187 89.985909 37,000 159 467 0
2021-12-05 22:43:47 GMT 21.420364 89.981377 37,000 162 466 0
2021-12-05 22:43:41 GMT 21.430462 89.977974 37,000 164 465 0
2021-12-05 22:43:35 GMT 21.444443 89.974030 37,000 166 464 0
2021-12-05 22:43:31 GMT 21.454514 89.971481 37,000 166 465 0
2021-12-05 22:43:28 GMT 21.459549 89.970238 37,000 166 465 0
2021-12-05 22:43:25 GMT 21.466919 89.968391 37,000 166 465 0
2021-12-05 22:43:21 GMT 21.472183 89.967094 37,000 166 465 0
2021-12-05 22:43:18 GMT 21.480553 89.964958 37,000 166 465 0
2021-12-05 22:43:14 GMT 21.488113 89.963097 37,000 166 465 0
2021-12-05 22:43:11 GMT 21.493378 89.961746 37,000 166 465 0
2021-12-05 22:43:08 GMT 21.498825 89.960396 37,000 166 465 0
2021-12-05 22:43:05 GMT 21.506622 89.958443 37,000 166 465 0
2021-12-05 22:43:01 GMT 21.514206 89.956551 37,000 166 465 0
2021-12-05 22:42:55 GMT 21.528688 89.953003 37,000 167 464 0
2021-12-05 22:42:51 GMT 21.536463 89.951118 37,000 167 464 0
2021-12-05 22:42:48 GMT 21.542978 89.949493 37,000 167 464 0
2021-12-05 22:42:44 GMT 21.550964 89.947563 37,000 167 464 0
2021-12-05 22:42:40 GMT 21.558746 89.945618 37,000 166 465 0
2021-12-05 22:42:35 GMT 21.570305 89.942780 37,000 166 465 0
2021-12-05 22:42:31 GMT 21.578917 89.940643 37,000 166 465 0
2021-12-05 22:42:25 GMT 21.591293 89.937477 37,000 166 465 0
2021-12-05 22:42:21 GMT 21.599899 89.935280 37,000 166 465 0
2021-12-05 22:42:16 GMT 21.611458 89.932304 37,000 166 465 0
2021-12-05 22:42:13 GMT 21.616114 89.931129 37,000 166 465 0
2021-12-05 22:42:10 GMT 21.624298 89.929085 37,000 166 465 0
2021-12-05 22:42:04 GMT 21.636520 89.926041 37,000 167 465 0
2021-12-05 22:42:01 GMT 21.640924 89.924980 37,000 167 464 0
2021-12-05 22:41:59 GMT 21.645348 89.923958 37,000 168 464 0
2021-12-05 22:41:54 GMT 21.656521 89.921471 37,000 169 463 0
2021-12-05 22:41:51 GMT 21.662619 89.920197 37,000 169 462 0
2021-12-05 22:41:49 GMT 21.668106 89.919098 37,000 169 463 0
2021-12-05 22:41:40 GMT 21.685226 89.915756 37,000 169 462 0
2021-12-05 22:41:35 GMT 21.694290 89.914009 37,000 169 462 0
2021-12-05 22:41:32 GMT 21.702942 89.912308 37,000 169 462 0
2021-12-05 22:41:29 GMT 21.707382 89.911407 37,000 169 462 0
2021-12-05 22:41:25 GMT 21.715622 89.909813 37,000 169 462 0
2021-12-05 22:41:22 GMT 21.725092 89.907936 37,000 169 462 0
2021-12-05 22:41:19 GMT 21.729126 89.907166 37,000 169 462 0
2021-12-05 22:41:15 GMT 21.736496 89.905670 37,000 169 462 0
2021-12-05 22:41:09 GMT 21.752747 89.902473 37,000 169 462 0
2021-12-05 22:41:06 GMT 21.758881 89.901276 37,000 169 462 0
2021-12-05 22:41:00 GMT 21.770899 89.898933 37,000 169 462 0
2021-12-05 22:40:55 GMT 21.786076 89.895935 37,000 169 462 0
2021-12-05 22:40:48 GMT 21.795776 89.894035 37,000 169 463 0
2021-12-05 22:40:42 GMT 21.808456 89.891533 37,000 169 463 0
2021-12-05 22:40:39 GMT 21.815029 89.890236 37,000 169 463 0
2021-12-05 22:40:36 GMT 21.819260 89.889389 37,000 169 463 0
2021-12-05 22:40:30 GMT 21.833176 89.886642 37,000 169 463 0
2021-12-05 22:40:27 GMT 21.841827 89.884895 37,000 169 463 0
2021-12-05 22:40:20 GMT 21.853271 89.882698 37,000 169 462 0
2021-12-05 22:40:17 GMT 21.861465 89.881050 37,000 169 462 0
2021-12-05 22:40:14 GMT 21.867821 89.879814 37,000 169 462 0
2021-12-05 22:40:10 GMT 21.873919 89.878593 37,000 169 462 0
2021-12-05 22:40:05 GMT 21.886185 89.876152 37,000 169 461 0
2021-12-05 22:39:59 GMT 21.898819 89.873657 37,000 169 462 0
2021-12-05 22:39:55 GMT 21.908043 89.871773 37,000 169 462 0
2021-12-05 22:39:49 GMT 21.920929 89.869164 37,000 169 462 0
2021-12-05 22:39:44 GMT 21.929735 89.867348 37,000 169 462 0
2021-12-05 22:39:40 GMT 21.938162 89.865669 37,000 169 462 0
2021-12-05 22:39:37 GMT 21.943190 89.864655 37,000 169 462 0
2021-12-05 22:39:34 GMT 21.952221 89.862823 37,000 169 460 0
2021-12-05 22:39:28 GMT 21.966326 89.859978 37,000 169 460 0
2021-12-05 22:39:22 GMT 21.974304 89.858376 37,000 169 460 0
2021-12-05 22:39:19 GMT 21.981455 89.856926 37,000 169 460 0
2021-12-05 22:39:16 GMT 21.988392 89.855553 37,000 169 460 0
2021-12-05 22:39:13 GMT 21.996351 89.853920 37,000 169 460 0
2021-12-05 22:39:10 GMT 22.003098 89.852585 37,000 169 459 0
2021-12-05 22:39:06 GMT 22.009598 89.851288 37,000 169 460 0
2021-12-05 22:39:00 GMT 22.021957 89.848740 37,000 169 460 0
2021-12-05 22:38:56 GMT 22.033264 89.846443 37,000 169 460 0
2021-12-05 22:38:50 GMT 22.043554 89.844360 37,000 169 459 0
2021-12-05 22:38:48 GMT 22.049606 89.843140 37,000 169 459 0
2021-12-05 22:38:42 GMT 22.060734 89.840904 37,000 169 459 0
2021-12-05 22:38:39 GMT 22.065765 89.839851 37,000 169 459 0
2021-12-05 22:38:36 GMT 22.071627 89.838715 37,000 169 459 0
2021-12-05 22:38:30 GMT 22.086290 89.835762 37,000 169 459 0
2021-12-05 22:38:25 GMT 22.094238 89.834152 37,000 169 459 0
2021-12-05 22:38:19 GMT 22.108704 89.831261 37,000 169 459 0
2021-12-05 22:38:16 GMT 22.116222 89.829712 37,000 169 459 0
2021-12-05 22:38:10 GMT 22.128141 89.827324 37,000 169 459 0
2021-12-05 22:38:08 GMT 22.131306 89.826660 37,000 169 459 0
2021-12-05 22:38:05 GMT 22.139454 89.824982 37,000 169 459 0
2021-12-05 22:38:00 GMT 22.148666 89.823120 37,000 169 459 0
2021-12-05 22:37:58 GMT 22.153885 89.822021 37,000 169 459 0
2021-12-05 22:37:53 GMT 22.161007 89.820557 37,000 169 459 0
2021-12-05 22:37:50 GMT 22.176224 89.817429 37,000 169 459 0
2021-12-05 22:37:47 GMT 22.176224 89.817429 37,000 169 459 0
2021-12-05 22:37:44 GMT 22.184376 89.815773 37,000 169 459 0
2021-12-05 22:37:40 GMT 22.190893 89.814453 37,000 169 458 0
2021-12-05 22:37:36 GMT 22.198202 89.812981 37,000 169 458 0
2021-12-05 22:37:33 GMT 22.205511 89.811501 37,000 169 458 0
2021-12-05 22:37:29 GMT 22.212616 89.810089 37,000 169 458 0
2021-12-05 22:37:25 GMT 22.221588 89.808289 37,000 169 458 0
2021-12-05 22:37:19 GMT 22.231859 89.806213 37,000 169 459 0
2021-12-05 22:37:17 GMT 22.238331 89.804893 37,000 168 458 0
2021-12-05 22:37:14 GMT 22.243973 89.803741 37,000 168 458 0
2021-12-05 22:37:08 GMT 22.256252 89.801079 37,000 167 460 0
2021-12-05 22:37:04 GMT 22.266027 89.798683 37,000 165 460 0
2021-12-05 22:37:01 GMT 22.278877 89.795128 37,000 163 463 0
2021-12-05 22:36:58 GMT 22.278877 89.795128 37,000 161 464 0
2021-12-05 22:36:53 GMT 22.286837 89.792328 37,000 159 466 0
2021-12-05 22:36:49 GMT 22.294565 89.789375 37,000 157 468 0
2021-12-05 22:36:45 GMT 22.304535 89.784866 37,000 153 471 0
2021-12-05 22:36:41 GMT 22.310486 89.781952 37,000 153 471 0
2021-12-05 22:36:38 GMT 22.315933 89.778976 37,000 151 473 0
2021-12-05 22:36:35 GMT 22.323807 89.774330 37,000 148 475 0
2021-12-05 22:36:32 GMT 22.327618 89.771935 37,000 146 477 0
2021-12-05 22:36:29 GMT 22.336349 89.765991 37,000 145 478 0
2021-12-05 22:36:24 GMT 22.342934 89.761147 37,000 144 478 0
2021-12-05 22:36:21 GMT 22.350128 89.755554 37,000 143 480 0
2021-12-05 22:36:18 GMT 22.355347 89.751457 37,000 143 479 0
2021-12-05 22:36:15 GMT 22.359970 89.747765 37,000 143 479 0
2021-12-05 22:36:12 GMT 22.365509 89.743370 37,000 143 479 0
2021-12-05 22:36:09 GMT 22.370167 89.739685 37,000 143 479 -64
2021-12-05 22:36:05 GMT 22.378738 89.732834 37,000 143 479 0
2021-12-05 22:36:02 GMT 22.382689 89.729713 37,000 143 479 0
2021-12-05 22:35:59 GMT 22.388031 89.725441 37,000 143 479 0
2021-12-05 22:35:54 GMT 22.397324 89.718048 37,000 143 479 0
2021-12-05 22:35:49 GMT 22.407669 89.709808 37,000 143 479 0
2021-12-05 22:35:44 GMT 22.416578 89.702759 37,000 143 478 0
2021-12-05 22:35:41 GMT 22.421951 89.698479 37,000 143 478 0
2021-12-05 22:35:38 GMT 22.426401 89.694923 37,000 143 479 0
2021-12-05 22:35:35 GMT 22.432453 89.690094 37,000 143 479 0
2021-12-05 22:35:32 GMT 22.434967 89.688110 37,000 143 479 0
2021-12-05 22:35:29 GMT 22.440308 89.683846 37,000 143 479 0
2021-12-05 22:35:26 GMT 22.446213 89.679199 37,000 143 478 0
2021-12-05 22:35:22 GMT 22.454590 89.672508 37,000 143 478 0
2021-12-05 22:35:19 GMT 22.459545 89.668526 37,000 143 478 0
2021-12-05 22:35:17 GMT 22.464712 89.664360 37,000 143 478 0
2021-12-05 22:35:12 GMT 22.473976 89.656982 37,000 143 477 0
2021-12-05 22:35:09 GMT 22.478214 89.653572 37,000 143 477 0
2021-12-05 22:35:06 GMT 22.483753 89.649147 37,000 143 477 0
2021-12-05 22:35:01 GMT 22.492081 89.642448 37,000 143 477 0
2021-12-05 22:34:58 GMT 22.497940 89.637749 37,000 143 477 0
2021-12-05 22:34:55 GMT 22.503260 89.633484 37,000 143 477 0
2021-12-05 22:34:52 GMT 22.509125 89.628807 37,000 143 476 0
2021-12-05 22:34:49 GMT 22.513548 89.625244 37,000 143 476 0
2021-12-05 22:34:46 GMT 22.518860 89.621025 37,000 143 476 0
2021-12-05 22:34:43 GMT 22.522751 89.617874 37,000 143 476 0
2021-12-05 22:34:39 GMT 22.530899 89.611382 37,000 143 476 0
2021-12-05 22:34:37 GMT 22.534636 89.608406 37,000 143 476 0
2021-12-05 22:34:34 GMT 22.541519 89.602844 37,000 143 475 0
2021-12-05 22:34:30 GMT 22.550217 89.595955 37,000 143 475 0
2021-12-05 22:34:27 GMT 22.552185 89.594406 37,000 143 475 0
2021-12-05 22:34:23 GMT 22.559784 89.588310 37,000 143 476 0
2021-12-05 22:34:20 GMT 22.565453 89.583794 37,000 143 475 0
2021-12-05 22:34:17 GMT 22.568665 89.581245 37,000 143 475 0
2021-12-05 22:34:14 GMT 22.575943 89.575424 37,000 143 475 0
2021-12-05 22:34:11 GMT 22.578964 89.573029 37,000 143 475 0
2021-12-05 22:34:07 GMT 22.595060 89.560188 37,000 143 475 0
2021-12-05 22:34:03 GMT 22.595060 89.560188 37,000 143 475 0
2021-12-05 22:33:58 GMT 22.604782 89.552406 37,000 143 475 0
2021-12-05 22:33:55 GMT 22.608124 89.549713 37,000 143 475 64
2021-12-05 22:33:51 GMT 22.617172 89.542488 37,000 143 475 0
2021-12-05 22:33:48 GMT 22.622665 89.538116 37,000 143 475 0
2021-12-05 22:33:44 GMT 22.627600 89.534149 37,000 143 474 0
2021-12-05 22:33:40 GMT 22.636444 89.527077 37,000 143 475 0
2021-12-05 22:33:36 GMT 22.645290 89.520012 37,000 143 474 0
2021-12-05 22:33:32 GMT 22.650736 89.515633 37,000 143 474 0
2021-12-05 22:33:28 GMT 22.655670 89.511665 37,000 143 474 0
2021-12-05 22:33:26 GMT 22.659210 89.508812 37,000 143 474 0
2021-12-05 22:33:23 GMT 22.666260 89.503166 37,000 143 473 0
2021-12-05 22:33:18 GMT 22.673859 89.497078 37,000 143 473 0
2021-12-05 22:33:14 GMT 22.683556 89.489288 37,000 143 473 0
2021-12-05 22:33:11 GMT 22.686907 89.486641 37,000 143 473 0
2021-12-05 22:33:08 GMT 22.693052 89.481712 37,000 143 473 0
2021-12-05 22:33:05 GMT 22.697800 89.477898 37,000 143 473 0
2021-12-05 22:33:02 GMT 22.707321 89.470261 37,000 143 472 0
2021-12-05 22:32:59 GMT 22.707321 89.470261 37,000 143 472 0
2021-12-05 22:32:57 GMT 22.712036 89.466461 37,000 143 472 64
2021-12-05 22:32:52 GMT 22.725592 89.455666 37,000 143 471 0
2021-12-05 22:32:49 GMT 22.725592 89.455666 37,000 143 471 0
2021-12-05 22:32:44 GMT 22.735291 89.447937 37,000 143 471 0
2021-12-05 22:32:39 GMT 22.743530 89.441345 37,000 143 471 0
2021-12-05 22:32:33 GMT 22.754223 89.432777 37,000 143 471 0
2021-12-05 22:32:28 GMT 22.762321 89.426369 37,000 143 471 0
2021-12-05 22:32:25 GMT 22.768093 89.421745 37,000 143 471 64
2021-12-05 22:32:21 GMT 22.773912 89.417114 37,000 143 471 -64
2021-12-05 22:32:18 GMT 22.780930 89.411530 37,000 143 471 0
2021-12-05 22:32:14 GMT 22.787971 89.405922 37,000 143 470 -64
2021-12-05 22:32:09 GMT 22.797144 89.398651 37,000 143 471 0
2021-12-05 22:32:06 GMT 22.799936 89.396416 37,000 143 471 64
2021-12-05 22:32:02 GMT 22.807478 89.390411 37,000 143 471 0
2021-12-05 22:31:59 GMT 22.813110 89.385933 37,000 143 471 0
2021-12-05 22:31:57 GMT 22.818045 89.382019 37,000 143 471 0
2021-12-05 22:31:49 GMT 22.831219 89.371490 37,000 143 471 0
2021-12-05 22:31:46 GMT 22.837234 89.366737 37,000 143 472 0
2021-12-05 22:31:39 GMT 22.849562 89.356895 37,000 143 473 -64
2021-12-05 22:31:35 GMT 22.855682 89.351959 37,000 143 473 0
2021-12-05 22:31:29 GMT 22.870834 89.339821 37,000 143 473 64
2021-12-05 22:31:27 GMT 22.870834 89.339821 37,000 143 473 0
2021-12-05 22:31:24 GMT 22.874359 89.336975 37,000 143 474 -64
2021-12-05 22:31:19 GMT 22.884247 89.329033 37,000 143 475 192
2021-12-05 22:31:16 GMT 22.889511 89.324738 37,000 142 476 -128
2021-12-05 22:31:13 GMT 22.894438 89.320679 37,000 141 477 0
2021-12-05 22:31:09 GMT 22.901373 89.314781 37,000 141 478 0
2021-12-05 22:31:07 GMT 22.904343 89.312256 37,000 140 478 64
2021-12-05 22:31:03 GMT 22.912857 89.304565 37,000 139 481 0
2021-12-05 22:30:59 GMT 22.919622 89.298248 37,000 138 482 0
2021-12-05 22:30:55 GMT 22.925262 89.292778 37,000 137 484 64
2021-12-05 22:30:52 GMT 22.930389 89.287735 37,000 136 483 64
2021-12-05 22:30:48 GMT 22.937405 89.280548 37,000 135 485 0
2021-12-05 22:30:44 GMT 22.942520 89.275055 37,000 134 487 -64
2021-12-05 22:30:41 GMT 22.948206 89.268799 37,000 133 488 0
2021-12-05 22:30:37 GMT 22.954023 89.262291 37,000 132 488 -64
2021-12-05 22:30:34 GMT 22.958773 89.256691 37,000 131 489 0
2021-12-05 22:30:30 GMT 22.965637 89.248535 37,000 131 489 0
2021-12-05 22:30:27 GMT 22.970123 89.242989 37,000 130 490 64
2021-12-05 22:30:22 GMT 22.976416 89.234924 37,000 129 491 64
2021-12-05 22:30:18 GMT 22.981165 89.228615 37,000 128 492 64
2021-12-05 22:30:16 GMT 22.985413 89.222816 37,000 127 493 0
2021-12-05 22:30:12 GMT 22.990986 89.214989 37,000 126 494 0
2021-12-05 22:30:08 GMT 22.995071 89.208984 37,000 125 495 64
2021-12-05 22:30:05 GMT 23.000336 89.201141 37,000 125 495 64
2021-12-05 22:30:01 GMT 23.005697 89.193115 37,000 125 495 0
2021-12-05 22:29:57 GMT 23.009720 89.187065 37,000 125 495 -64
2021-12-05 22:29:54 GMT 23.014160 89.180367 37,000 125 496 -64
2021-12-05 22:29:50 GMT 23.020407 89.170891 37,000 125 496 -64
2021-12-05 22:29:47 GMT 23.024277 89.164986 37,000 125 495 0
2021-12-05 22:29:44 GMT 23.029358 89.157295 37,000 125 495 64
2021-12-05 22:29:41 GMT 23.035212 89.148407 37,000 125 495 64
2021-12-05 22:29:38 GMT 23.035212 89.148407 37,000 125 495 64
2021-12-05 22:29:35 GMT 23.038841 89.142967 37,000 125 495 0
2021-12-05 22:29:31 GMT 23.046616 89.131264 37,000 125 495 -64
2021-12-05 22:29:28 GMT 23.049828 89.126434 37,000 125 495 0
2021-12-05 22:29:26 GMT 23.052668 89.122215 37,000 125 495 0
2021-12-05 22:29:21 GMT 23.058014 89.114151 37,000 125 495 -64
2021-12-05 22:29:18 GMT 23.062180 89.107910 37,000 125 495 64
2021-12-05 22:29:15 GMT 23.066959 89.100647 37,000 125 494 0
2021-12-05 22:29:08 GMT 23.076036 89.086914 37,000 125 493 0
2021-12-05 22:29:05 GMT 23.080692 89.079895 37,000 125 493 64
2021-12-05 22:29:01 GMT 23.086029 89.071854 37,000 125 493 -128
2021-12-05 22:28:58 GMT 23.090002 89.065804 37,000 125 493 -64
2021-12-05 22:28:53 GMT 23.095322 89.057724 37,000 125 493 0
2021-12-05 22:28:50 GMT 23.100616 89.049683 37,025 125 493 64
2021-12-05 22:28:47 GMT 23.104433 89.043831 37,000 125 494 128
2021-12-05 22:28:41 GMT 23.112305 89.031906 37,000 125 494 -64
2021-12-05 22:28:36 GMT 23.119099 89.021606 37,000 125 495 -64
2021-12-05 22:28:33 GMT 23.123108 89.015572 37,000 125 495 128
2021-12-05 22:28:30 GMT 23.125755 89.011536 36,975 125 495 64
2021-12-05 22:28:27 GMT 23.130037 89.005074 37,000 125 495 64
2021-12-05 22:28:25 GMT 23.132767 89.001045 37,000 125 496 64
2021-12-05 22:28:21 GMT 23.139359 88.991158 37,025 125 497 -64
2021-12-05 22:28:18 GMT 23.145399 88.982086 37,000 125 497 -64
2021-12-05 22:28:14 GMT 23.147964 88.978226 37,000 125 497 0
2021-12-05 22:28:10 GMT 23.153315 88.970085 37,000 125 498 64
2021-12-05 22:28:07 GMT 23.156799 88.964790 37,000 125 498 -128
2021-12-05 22:28:04 GMT 23.161789 88.957298 37,000 125 498 -128
2021-12-05 22:27:58 GMT 23.169571 88.945465 37,000 125 498 0
2021-12-05 22:27:53 GMT 23.177055 88.934074 37,000 125 498 0
2021-12-05 22:27:50 GMT 23.181061 88.927933 37,000 125 498 0
2021-12-05 22:27:47 GMT 23.183624 88.924088 37,000 125 497 0
2021-12-05 22:27:43 GMT 23.189903 88.914543 37,000 125 496 0
2021-12-05 22:27:38 GMT 23.196468 88.904572 37,000 125 496 0
2021-12-05 22:27:32 GMT 23.204590 88.892181 37,000 124 496 0
2021-12-05 22:27:27 GMT 23.209991 88.883842 37,000 124 495 -64
2021-12-05 22:27:23 GMT 23.216125 88.874199 37,000 124 495 0
2021-12-05 22:27:20 GMT 23.219744 88.868462 37,000 124 495 0
2021-12-05 22:27:17 GMT 23.223358 88.862663 37,000 124 496 0
2021-12-05 22:27:11 GMT 23.233011 88.847198 37,000 123 495 0
2021-12-05 22:27:08 GMT 23.235664 88.842827 37,000 123 495 0
2021-12-05 22:27:01 GMT 23.245605 88.826408 37,000 122 494 64
2021-12-05 22:26:57 GMT 23.249212 88.820343 37,000 122 495 64
2021-12-05 22:26:50 GMT 23.258801 88.804016 37,000 121 495 -64
2021-12-05 22:26:47 GMT 23.262571 88.797455 37,000 121 495 -128
2021-12-05 22:26:38 GMT 23.272394 88.780365 37,000 121 493 -64
2021-12-05 22:26:35 GMT 23.276230 88.773628 37,000 121 493 0
2021-12-05 22:26:27 GMT 23.285431 88.757645 37,000 121 492 128
2021-12-05 22:26:25 GMT 23.289139 88.751152 37,025 121 492 0
2021-12-05 22:26:17 GMT 23.298660 88.734573 37,000 121 492 0
2021-12-05 22:26:13 GMT 23.301676 88.729301 37,000 121 492 -128
2021-12-05 22:26:08 GMT 23.309509 88.715698 37,000 122 491 -64
2021-12-05 22:26:04 GMT 23.313721 88.708359 37,000 122 491 0
2021-12-05 22:25:57 GMT 23.321823 88.694374 37,000 121 490 128
2021-12-05 22:25:55 GMT 23.324020 88.690582 36,975 121 490 128
2021-12-05 22:25:52 GMT 23.326860 88.685555 36,975 121 490 0
2021-12-05 22:25:46 GMT 23.336105 88.669456 37,000 121 490 0
2021-12-05 22:25:41 GMT 23.340179 88.662315 37,000 121 490 64
2021-12-05 22:25:37 GMT 23.345352 88.653328 37,000 121 490 -64
2021-12-05 22:25:35 GMT 23.348740 88.647461 37,000 121 490 -64
2021-12-05 22:25:32 GMT 23.352219 88.641388 37,000 121 490 0
2021-12-05 22:25:26 GMT 23.357986 88.631302 37,000 121 490 -64
2021-12-05 22:25:23 GMT 23.361923 88.624413 37,000 121 490 0
2021-12-05 22:25:20 GMT 23.365402 88.618370 37,000 122 490 0
2021-12-05 22:25:17 GMT 23.369659 88.611031 37,000 122 490 0
2021-12-05 22:25:14 GMT 23.374437 88.602654 37,000 121 490 -64
2021-12-05 22:25:11 GMT 23.378069 88.596397 37,000 121 490 -64
2021-12-05 22:25:07 GMT 23.381516 88.590302 37,000 121 491 64
2021-12-05 22:25:03 GMT 23.387892 88.579201 37,000 121 493 -64
2021-12-05 22:25:00 GMT 23.390312 88.574982 37,000 121 493 0
2021-12-05 22:24:56 GMT 23.394424 88.567833 37,000 121 494 0
2021-12-05 22:24:53 GMT 23.399734 88.558540 37,000 121 495 64
2021-12-05 22:24:50 GMT 23.402847 88.553055 37,000 121 495 0
2021-12-05 22:24:46 GMT 23.407013 88.545860 37,000 121 496 -64
2021-12-05 22:24:44 GMT 23.410049 88.540596 37,000 121 497 0
2021-12-05 22:24:41 GMT 23.413542 88.534447 37,000 121 497 -64
2021-12-05 22:24:36 GMT 23.418915 88.525085 37,000 121 498 0
2021-12-05 22:24:32 GMT 23.424900 88.514709 37,000 121 498 0
2021-12-05 22:24:29 GMT 23.428802 88.507904 37,025 121 498 0
2021-12-05 22:24:26 GMT 23.431000 88.504059 37,000 121 498 0
2021-12-05 22:24:20 GMT 23.439423 88.489380 37,000 121 498 0
2021-12-05 22:24:17 GMT 23.443800 88.481697 37,000 121 499 0
2021-12-05 22:24:13 GMT 23.448715 88.473152 37,000 121 499 0
2021-12-05 22:24:09 GMT 23.452240 88.466957 37,000 121 500 64
2021-12-05 22:24:06 GMT 23.456039 88.460365 37,000 121 500 0
2021-12-05 22:24:02 GMT 23.460297 88.452873 37,000 121 500 0
2021-12-05 22:23:59 GMT 23.465286 88.444084 37,000 121 502 0
2021-12-05 22:23:56 GMT 23.468706 88.438057 37,000 121 502 0
2021-12-05 22:23:51 GMT 23.473618 88.429504 37,000 121 502 0
2021-12-05 22:23:47 GMT 23.480209 88.417915 37,000 121 502 0
2021-12-05 22:23:45 GMT 23.481583 88.415520 37,000 121 502 0
2021-12-05 22:23:42 GMT 23.486721 88.406525 37,000 121 502 0
2021-12-05 22:23:39 GMT 23.489513 88.401588 37,000 121 502 0
2021-12-05 22:23:36 GMT 23.493797 88.394066 37,000 121 502 0
2021-12-05 22:23:31 GMT 23.498592 88.385674 37,000 121 503 0
2021-12-05 22:23:27 GMT 23.503510 88.377068 37,000 121 503 0
2021-12-05 22:23:25 GMT 23.506926 88.371025 37,000 121 503 -64
2021-12-05 22:23:16 GMT 23.518284 88.350929 37,000 121 505 64
2021-12-05 22:23:13 GMT 23.519897 88.348106 37,000 121 505 0
2021-12-05 22:23:05 GMT 23.530153 88.329872 37,000 121 505 0
2021-12-05 22:23:03 GMT 23.533585 88.323784 37,000 121 506 0
2021-12-05 22:22:57 GMT 23.541504 88.309654 37,000 121 507 0
2021-12-05 22:22:53 GMT 23.545029 88.303314 37,000 120 507 0
2021-12-05 22:22:47 GMT 23.552490 88.289742 37,000 120 507 0
2021-12-05 22:22:43 GMT 23.558413 88.278931 37,000 120 509 0
2021-12-05 22:22:40 GMT 23.562090 88.272087 37,000 120 509 0
2021-12-05 22:22:34 GMT 23.568237 88.260597 37,000 119 509 64
2021-12-05 22:22:31 GMT 23.570841 88.255714 37,000 119 510 64
2021-12-05 22:22:27 GMT 23.576567 88.244781 37,000 119 510 64
2021-12-05 22:22:24 GMT 23.580734 88.236694 37,000 118 511 64
2021-12-05 22:22:20 GMT 23.583801 88.230591 37,000 118 511 64
2021-12-05 22:22:16 GMT 23.588425 88.221336 37,000 117 511 0
2021-12-05 22:22:12 GMT 23.593826 88.210091 37,000 116 513 -64
2021-12-05 22:22:09 GMT 23.596527 88.204346 37,000 116 512 -64
2021-12-05 22:22:06 GMT 23.600355 88.196014 37,000 115 513 -128
2021-12-05 22:22:03 GMT 23.603622 88.188576 37,000 114 514 -128
2021-12-05 22:22:00 GMT 23.605848 88.183418 37,025 114 514 -128
2021-12-05 22:21:57 GMT 23.608873 88.176064 37,025 113 514 -64
2021-12-05 22:21:50 GMT 23.615524 88.158569 37,025 109 516 64
2021-12-05 22:21:47 GMT 23.617952 88.151192 37,000 107 518 64
2021-12-05 22:21:41 GMT 23.622095 88.136108 37,000 102 521 64
2021-12-05 22:21:37 GMT 23.623810 88.127289 36,975 97 526 0
2021-12-05 22:21:27 GMT 23.626192 88.099106 37,000 92 533 0
2021-12-05 22:21:20 GMT 23.626877 88.080040 37,000 92 534 0
2021-12-05 22:21:16 GMT 23.627243 88.069305 37,000 92 533 0
2021-12-05 22:21:08 GMT 23.627914 88.050758 37,000 92 533 0
2021-12-05 22:21:05 GMT 23.628342 88.039497 37,000 92 533 0
2021-12-05 22:20:59 GMT 23.628937 88.023682 37,000 92 533 0
2021-12-05 22:20:56 GMT 23.629171 88.017799 37,000 92 533 0
2021-12-05 22:20:46 GMT 23.630264 87.988029 37,000 92 533 0
2021-12-05 22:20:35 GMT 23.631226 87.959900 37,000 92 533 0
2021-12-05 22:20:27 GMT 23.631958 87.937675 37,000 92 532 0
2021-12-05 22:20:24 GMT 23.632151 87.931206 37,000 92 532 0
2021-12-05 22:20:16 GMT 23.632895 87.908714 37,000 92 532 0
2021-12-05 22:20:12 GMT 23.633102 87.901764 37,000 92 532 0
2021-12-05 22:20:03 GMT 23.634012 87.873367 37,000 92 532 0
2021-12-05 22:19:56 GMT 23.634567 87.856499 37,000 92 532 0
2021-12-05 22:19:52 GMT 23.634979 87.844749 37,000 92 532 0
2021-12-05 22:19:46 GMT 23.635502 87.828697 37,000 92 532 0
2021-12-05 22:19:44 GMT 23.635666 87.822777 37,000 92 531 0
2021-12-05 22:19:41 GMT 23.635895 87.816109 37,000 92 531 0
2021-12-05 22:19:36 GMT 23.636398 87.801666 37,000 92 531 0
2021-12-05 22:19:30 GMT 23.636946 87.786461 37,000 92 531 0
2021-12-05 22:19:26 GMT 23.637314 87.776848 37,000 92 531 0
2021-12-05 22:19:23 GMT 23.637634 87.766930 37,000 92 531 0
2021-12-05 22:19:20 GMT 23.637922 87.758942 37,000 92 531 0
2021-12-05 22:19:16 GMT 23.638229 87.750908 37,000 92 530 0
2021-12-05 22:19:09 GMT 23.638947 87.729820 37,000 92 530 0
2021-12-05 22:19:05 GMT 23.639236 87.721809 37,000 92 530 0
2021-12-05 22:18:59 GMT 23.639786 87.705566 37,000 92 530 0
2021-12-05 22:18:56 GMT 23.640112 87.696754 37,000 92 530 0
2021-12-05 22:18:51 GMT 23.640656 87.681023 37,000 92 530 0
2021-12-05 22:18:46 GMT 23.641088 87.667946 37,000 92 530 0
2021-12-05 22:18:39 GMT 23.641787 87.649338 37,000 92 530 0
2021-12-05 22:18:36 GMT 23.642065 87.641563 37,000 92 530 0
2021-12-05 22:18:29 GMT 23.642990 87.614899 37,000 92 530 0
2021-12-05 22:18:26 GMT 23.642990 87.614899 37,000 92 530 0
2021-12-05 22:18:16 GMT 23.643883 87.586121 37,000 91 530 0
2021-12-05 22:18:09 GMT 23.644455 87.567444 37,000 91 530 0
2021-12-05 22:18:06 GMT 23.644627 87.561867 37,000 91 530 0
2021-12-05 22:18:04 GMT 23.644766 87.557823 37,000 92 530 0
2021-12-05 22:17:58 GMT 23.645325 87.541046 37,000 91 530 0
2021-12-05 22:17:54 GMT 23.645744 87.527969 37,000 91 530 0
2021-12-05 22:17:51 GMT 23.645920 87.521820 37,000 91 530 0
2021-12-05 22:17:46 GMT 23.646395 87.506622 37,000 91 530 0
2021-12-05 22:17:43 GMT 23.646582 87.499939 37,000 91 530 0
2021-12-05 22:17:39 GMT 23.646790 87.493538 37,000 91 530 0
2021-12-05 22:17:35 GMT 23.647247 87.478844 37,000 91 530 0
2021-12-05 22:17:32 GMT 23.647430 87.472176 37,000 91 530 0
2021-12-05 22:17:26 GMT 23.647932 87.455368 37,000 91 531 0
2021-12-05 22:17:23 GMT 23.648071 87.450294 37,000 91 531 0
2021-12-05 22:17:20 GMT 23.648346 87.439064 37,000 91 531 0
2021-12-05 22:17:14 GMT 23.648815 87.421684 37,000 91 531 0
2021-12-05 22:17:09 GMT 23.649141 87.411011 37,000 91 531 0
2021-12-05 22:17:05 GMT 23.649513 87.397949 37,000 91 531 0
2021-12-05 22:17:00 GMT 23.649933 87.384064 37,000 91 530 0
2021-12-05 22:16:55 GMT 23.650213 87.373650 37,000 91 530 0
2021-12-05 22:16:52 GMT 23.650539 87.364265 37,000 91 530 0
2021-12-05 22:16:49 GMT 23.650770 87.356544 37,000 91 530 0
2021-12-05 22:16:46 GMT 23.651051 87.347214 37,000 91 530 0
2021-12-05 22:16:42 GMT 23.651331 87.337318 37,000 91 530 0
2021-12-05 22:16:35 GMT 23.651779 87.321571 37,000 91 530 0
2021-12-05 22:16:31 GMT 23.652262 87.306641 37,000 91 530 0
2021-12-05 22:16:28 GMT 23.652466 87.298637 37,000 91 530 0
2021-12-05 22:16:24 GMT 23.652727 87.291199 37,000 91 530 0
2021-12-05 22:16:20 GMT 23.653015 87.281036 37,000 91 530 0
2021-12-05 22:16:15 GMT 23.653427 87.267708 37,000 91 529 0
2021-12-05 22:16:12 GMT 23.653704 87.257614 37,000 91 529 0
2021-12-05 22:16:09 GMT 23.653931 87.249603 37,000 91 529 0
2021-12-05 22:16:06 GMT 23.654160 87.241875 37,000 91 529 0
2021-12-05 22:16:01 GMT 23.654617 87.228035 37,000 91 529 0
2021-12-05 22:15:58 GMT 23.654755 87.222748 37,000 91 529 0
2021-12-05 22:15:55 GMT 23.655054 87.213669 37,000 91 529 0
2021-12-05 22:15:49 GMT 23.655579 87.195839 37,000 91 528 0
2021-12-05 22:15:45 GMT 23.655899 87.185463 37,000 91 529 0
2021-12-05 22:15:37 GMT 23.656494 87.166084 37,000 91 529 0
2021-12-05 22:15:34 GMT 23.656815 87.155151 37,000 91 529 0
2021-12-05 22:15:27 GMT 23.657242 87.139458 37,000 91 529 0
2021-12-05 22:15:22 GMT 23.657593 87.127228 37,000 91 529 0
2021-12-05 22:15:17 GMT 23.658005 87.110191 37,000 91 529 0
2021-12-05 22:15:13 GMT 23.658234 87.099762 37,000 91 530 0
2021-12-05 22:15:08 GMT 23.658554 87.086693 37,000 91 530 0
2021-12-05 22:15:05 GMT 23.658691 87.081093 37,000 91 530 0
2021-12-05 22:15:02 GMT 23.658964 87.069344 37,000 91 530 0
2021-12-05 22:14:56 GMT 23.659332 87.053886 37,000 91 530 0
2021-12-05 22:14:51 GMT 23.659653 87.041321 37,000 91 531 0
2021-12-05 22:14:44 GMT 23.660156 87.023216 37,000 91 531 0
2021-12-05 22:14:37 GMT 23.660706 87.004494 37,000 91 531 0
2021-12-05 22:14:34 GMT 23.660889 86.997833 37,000 91 531 0
2021-12-05 22:14:27 GMT 23.661385 86.980728 37,000 91 531 0
2021-12-05 22:14:24 GMT 23.661711 86.969482 37,000 91 531 0
2021-12-05 22:14:17 GMT 23.662216 86.951042 37,000 91 531 0
2021-12-05 22:14:13 GMT 23.662548 86.939789 37,000 91 531 0
2021-12-05 22:14:07 GMT 23.662903 86.927544 37,000 91 531 0
2021-12-05 22:14:02 GMT 23.663315 86.912537 37,000 91 531 0
2021-12-05 22:13:57 GMT 23.663713 86.898903 37,000 91 531 0
2021-12-05 22:13:52 GMT 23.664225 86.882317 37,000 91 531 0
2021-12-05 22:13:47 GMT 23.664597 86.869507 37,000 91 531 0
2021-12-05 22:13:41 GMT 23.664970 86.855888 37,000 91 531 0
2021-12-05 22:13:38 GMT 23.665192 86.848396 37,000 91 531 0
2021-12-05 22:13:36 GMT 23.665375 86.840111 37,000 91 531 0
2021-12-05 22:13:31 GMT 23.665668 86.826714 37,000 91 531 0
2021-12-05 22:13:25 GMT 23.665995 86.812828 37,000 91 531 0
2021-12-05 22:13:17 GMT 23.666382 86.793823 37,000 92 531 0
2021-12-05 22:13:14 GMT 23.666656 86.783394 37,000 92 531 0
2021-12-05 22:13:09 GMT 23.667110 86.770073 37,000 92 530 0
2021-12-05 22:13:04 GMT 23.667856 86.755669 37,000 94 530 0
2021-12-05 22:12:57 GMT 23.669065 86.740845 37,000 97 528 0
2021-12-05 22:12:53 GMT 23.670790 86.727470 37,000 100 526 0
2021-12-05 22:12:47 GMT 23.673208 86.713478 37,000 102 523 0
2021-12-05 22:12:41 GMT 23.676283 86.699699 37,000 106 521 0
2021-12-05 22:12:38 GMT 23.679382 86.688133 37,000 108 518 0
2021-12-05 22:12:32 GMT 23.684801 86.671509 37,000 111 515 0
2021-12-05 22:12:27 GMT 23.688665 86.661194 37,000 114 512 0
2021-12-05 22:12:21 GMT 23.694305 86.648155 37,000 117 509 0
2021-12-05 22:12:15 GMT 23.699930 86.636627 37,000 119 506 0
2021-12-05 22:12:09 GMT 23.708403 86.620773 37,000 121 504 0
2021-12-05 22:12:03 GMT 23.715408 86.608124 37,000 121 504 0
2021-12-05 22:11:58 GMT 23.719994 86.599838 37,000 121 505 0
2021-12-05 22:11:55 GMT 23.725674 86.589622 37,000 121 505 0
2021-12-05 22:11:49 GMT 23.733402 86.575684 37,000 121 505 0
2021-12-05 22:11:43 GMT 23.737885 86.567589 37,000 121 505 0
2021-12-05 22:11:38 GMT 23.746124 86.552788 37,000 121 505 0
2021-12-05 22:11:33 GMT 23.752029 86.542107 37,000 121 505 0
2021-12-05 22:11:26 GMT 23.759146 86.529198 37,000 121 505 0
2021-12-05 22:11:22 GMT 23.763977 86.520485 37,000 120 505 0
2021-12-05 22:11:16 GMT 23.771484 86.506958 37,000 120 506 0
2021-12-05 22:11:12 GMT 23.776276 86.498215 37,000 120 505 0
2021-12-05 22:11:06 GMT 23.784748 86.482872 37,000 121 505 0
2021-12-05 22:11:01 GMT 23.790335 86.472923 37,000 121 505 0
2021-12-05 22:10:55 GMT 23.798126 86.459297 37,000 122 504 0
2021-12-05 22:10:49 GMT 23.805744 86.446182 37,000 122 504 0
2021-12-05 22:10:44 GMT 23.810911 86.437370 37,000 122 503 0
2021-12-05 22:10:39 GMT 23.817261 86.426750 37,000 123 502 0
2021-12-05 22:10:33 GMT 23.825455 86.413216 37,000 123 503 0
2021-12-05 22:10:30 GMT 23.829859 86.406021 37,000 123 502 0
2021-12-05 22:10:23 GMT 23.838593 86.391960 37,000 124 502 0
2021-12-05 22:10:19 GMT 23.844242 86.382957 37,000 124 502 0
2021-12-05 22:10:12 GMT 23.852947 86.369171 37,000 124 502 0
2021-12-05 22:10:08 GMT 23.857555 86.361916 37,000 124 502 0
2021-12-05 22:10:00 GMT 23.867706 86.345825 37,000 124 502 0
2021-12-05 22:09:57 GMT 23.872871 86.337715 37,000 124 502 0
2021-12-05 22:09:50 GMT 23.881805 86.323494 37,000 124 502 0
2021-12-05 22:09:46 GMT 23.886045 86.316833 37,000 124 502 0
2021-12-05 22:09:40 GMT 23.895126 86.302437 37,000 124 502 -64
2021-12-05 22:09:36 GMT 23.899361 86.295738 37,000 124 502 0
2021-12-05 22:09:29 GMT 23.909866 86.279091 37,000 124 502 0
2021-12-05 22:09:26 GMT 23.914351 86.272011 37,000 124 502 0
2021-12-05 22:09:17 GMT 23.923847 86.256981 37,000 124 502 0
2021-12-05 22:09:08 GMT 23.937927 86.234642 37,000 124 502 0
2021-12-05 22:08:57 GMT 23.951706 86.212715 37,000 124 502 0
2021-12-05 22:08:53 GMT 23.956852 86.204536 37,000 124 502 0
2021-12-05 22:08:44 GMT 23.969742 86.184082 37,000 124 502 0
2021-12-05 22:08:41 GMT 23.972351 86.179909 37,000 124 502 0
2021-12-05 22:08:32 GMT 23.983017 86.163025 37,000 124 500 0
2021-12-05 22:08:25 GMT 23.994560 86.144630 37,000 124 502 64
2021-12-05 22:08:22 GMT 23.999817 86.136322 37,000 124 502 0
2021-12-05 22:08:14 GMT 24.008102 86.123146 37,000 124 502 0
2021-12-05 22:08:07 GMT 24.016937 86.109161 37,000 124 501 0
2021-12-05 22:08:00 GMT 24.027565 86.092285 37,000 124 500 0
2021-12-05 22:07:52 GMT 24.036392 86.078285 37,000 124 500 0
2021-12-05 22:07:49 GMT 24.040319 86.072075 37,000 124 500 0
2021-12-05 22:07:40 GMT 24.054062 86.050163 37,000 124 500 0
2021-12-05 22:07:31 GMT 24.064545 86.033478 37,000 124 500 0
2021-12-05 22:07:27 GMT 24.068485 86.027252 37,000 124 499 0
2021-12-05 22:07:19 GMT 24.078678 86.011032 37,000 124 499 0
2021-12-05 22:07:10 GMT 24.093296 85.987709 37,000 124 499 0
2021-12-05 22:06:59 GMT 24.106750 85.966309 37,000 124 499 0
2021-12-05 22:06:53 GMT 24.113434 85.955711 37,000 124 499 0
2021-12-05 22:06:48 GMT 24.120987 85.943657 37,000 124 498 0
2021-12-05 22:06:36 GMT 24.135334 85.920753 37,000 124 497 0
2021-12-05 22:06:26 GMT 24.149672 85.897903 37,000 124 498 0
2021-12-05 22:06:16 GMT 24.162846 85.876915 37,000 124 498 0
2021-12-05 22:06:05 GMT 24.176834 85.854439 37,000 124 497 0
2021-12-05 22:05:54 GMT 24.190613 85.832420 37,000 124 497 0
2021-12-05 22:05:43 GMT 24.205536 85.808510 37,000 124 497 0
2021-12-05 22:05:33 GMT 24.218765 85.787354 37,000 124 497 0
2021-12-05 22:05:22 GMT 24.232815 85.764877 37,000 124 497 0
2021-12-05 22:05:10 GMT 24.247787 85.740967 37,000 124 497 0
2021-12-05 22:05:01 GMT 24.260651 85.720367 37,000 124 498 0
2021-12-05 22:04:49 GMT 24.276489 85.694984 37,000 124 497 0
2021-12-05 22:04:37 GMT 24.291687 85.670677 37,000 124 497 0
2021-12-05 22:04:27 GMT 24.303619 85.651543 37,000 124 497 0
2021-12-05 22:04:17 GMT 24.316702 85.630554 37,000 124 497 0
2021-12-05 22:04:07 GMT 24.330872 85.607857 37,000 124 498 0
2021-12-05 22:03:56 GMT 24.344742 85.585579 37,000 124 498 0
2021-12-05 22:03:43 GMT 24.359762 85.561371 37,000 124 497 64
2021-12-05 22:03:29 GMT 24.379826 85.529137 37,000 124 497 0
2021-12-05 22:03:22 GMT 24.388779 85.514778 37,000 124 497 0
2021-12-05 22:03:11 GMT 24.403290 85.491486 37,000 124 496 0
2021-12-05 22:03:00 GMT 24.416229 85.470680 37,000 124 497 0
2021-12-05 22:02:33 GMT 24.452911 85.411583 37,000 124 498 -64
2021-12-05 22:02:29 GMT 24.456684 85.405540 37,000 124 498 0
2021-12-05 22:02:09 GMT 24.483870 85.361748 37,000 124 500 0
2021-12-05 22:01:57 GMT 24.498627 85.338013 37,000 124 501 0
2021-12-05 22:01:46 GMT 24.511894 85.316612 37,000 124 501 0
2021-12-05 22:01:36 GMT 24.526884 85.292412 37,000 124 502 0
2021-12-05 22:01:25 GMT 24.540573 85.270287 37,000 124 501 0
2021-12-05 22:01:14 GMT 24.554861 85.247116 37,000 124 501 0
2021-12-05 22:01:04 GMT 24.567627 85.226494 37,000 124 500 0
2021-12-05 22:00:40 GMT 24.599579 85.174713 37,000 124 500 0
2021-12-05 22:00:32 GMT 24.609192 85.159149 37,000 124 500 0
2021-12-05 22:00:20 GMT 24.623428 85.135956 37,000 123 500 0
2021-12-05 22:00:10 GMT 24.637527 85.112968 37,000 123 501 0
2021-12-05 21:59:53 GMT 24.660582 85.075325 37,000 123 501 0
2021-12-05 21:59:49 GMT 24.665863 85.066628 37,000 123 501 0
2021-12-05 21:59:37 GMT 24.679064 85.045059 37,000 123 502 0
2021-12-05 21:59:23 GMT 24.698709 85.012779 37,000 123 503 0
We lost coverage of the aircraft here for a total of 8 minutes
2021-12-05 21:51:38 GMT 25.317062 84.037689 37,000 124 508 0
2021-12-05 21:51:23 GMT 25.338198 84.004005 37,000 124 508 0
2021-12-05 21:51:17 GMT 25.346100 83.991447 37,000 124 508 0
2021-12-05 21:51:05 GMT 25.361240 83.967369 37,000 124 507 0
2021-12-05 21:50:11 GMT 25.433578 83.852135 37,000 124 507 0
2021-12-05 21:50:03 GMT 25.443970 83.835548 37,000 124 506 0
2021-12-05 21:49:53 GMT 25.458021 83.813194 37,000 124 506 0
2021-12-05 21:49:42 GMT 25.472267 83.790443 37,000 124 505 0
2021-12-05 21:49:32 GMT 25.485855 83.768768 37,000 124 505 0
2021-12-05 21:49:21 GMT 25.500229 83.745827 37,000 124 505 0
2021-12-05 21:49:11 GMT 25.514071 83.723694 37,000 124 505 0
2021-12-05 21:49:00 GMT 25.528271 83.700951 37,000 124 505 0
2021-12-05 21:48:49 GMT 25.542654 83.677994 37,000 124 505 0
2021-12-05 21:48:39 GMT 25.556488 83.655907 37,000 124 505 0
2021-12-05 21:48:28 GMT 25.570585 83.633369 37,000 124 505 0
2021-12-05 21:48:18 GMT 25.584272 83.611450 37,000 124 504 0
2021-12-05 21:48:07 GMT 25.598610 83.588493 37,000 124 504 0
2021-12-05 21:47:57 GMT 25.612106 83.566795 37,000 124 505 0
2021-12-05 21:47:46 GMT 25.626526 83.543549 37,000 124 505 0
2021-12-05 21:47:34 GMT 25.642277 83.518173 37,000 124 505 0
2021-12-05 21:47:26 GMT 25.653774 83.499619 37,000 124 505 0
2021-12-05 21:47:15 GMT 25.667507 83.477386 37,000 124 505 0
2021-12-05 21:47:04 GMT 25.681751 83.454323 37,000 124 505 0
2021-12-05 21:46:53 GMT 25.696106 83.431038 37,000 124 505 0
2021-12-05 21:46:34 GMT 25.721460 83.389809 37,000 124 504 0
2021-12-05 21:46:32 GMT 25.724350 83.385063 37,000 124 503 0
2021-12-05 21:46:22 GMT 25.737196 83.364151 37,000 124 503 0
2021-12-05 21:46:11 GMT 25.752279 83.339645 37,000 124 503 0
2021-12-05 21:46:01 GMT 25.765034 83.319016 37,000 124 503 0
2021-12-05 21:45:51 GMT 25.778908 83.297096 37,000 125 501 0
2021-12-05 21:45:40 GMT 25.793571 83.274345 37,000 125 501 0
2021-12-05 21:45:29 GMT 25.807617 83.252617 37,000 125 500 0
2021-12-05 21:45:18 GMT 25.822153 83.230087 37,000 125 500 0
2021-12-05 21:45:05 GMT 25.839659 83.203003 37,000 125 500 0
2021-12-05 21:44:58 GMT 25.849640 83.187546 37,000 125 499 0
2021-12-05 21:44:47 GMT 25.864014 83.165207 37,000 125 500 64
2021-12-05 21:44:36 GMT 25.879227 83.141624 37,000 125 500 0
2021-12-05 21:44:24 GMT 25.894821 83.117378 37,000 125 501 -64
2021-12-05 21:44:14 GMT 25.909393 83.094826 37,000 125 501 -64
2021-12-05 21:44:05 GMT 25.921495 83.076027 37,000 125 501 0
2021-12-05 21:43:54 GMT 25.935516 83.054260 37,000 125 501 0
2021-12-05 21:43:44 GMT 25.949799 83.032074 37,000 125 501 -64
2021-12-05 21:43:28 GMT 25.970398 83.000000 37,000 125 502 64
2021-12-05 21:43:17 GMT 25.985506 82.976410 37,000 125 503 0
2021-12-05 21:43:04 GMT 26.003288 82.948624 37,000 125 504 -64
2021-12-05 21:42:56 GMT 26.013611 82.932632 37,000 125 504 -64
2021-12-05 21:42:47 GMT 26.026844 82.911972 37,000 125 504 0
2021-12-05 21:42:34 GMT 26.043369 82.886192 37,000 125 504 0
2021-12-05 21:42:25 GMT 26.056229 82.866089 37,000 125 505 0
2021-12-05 21:42:15 GMT 26.069504 82.845360 37,000 125 506 0
2021-12-05 21:42:04 GMT 26.084476 82.822075 37,000 125 507 0
2021-12-05 21:41:53 GMT 26.099140 82.799149 37,000 125 507 0
2021-12-05 21:41:43 GMT 26.112762 82.777885 37,000 125 508 0
2021-12-05 21:41:33 GMT 26.127165 82.755310 37,000 125 508 0
2021-12-05 21:41:22 GMT 26.141327 82.733116 37,000 125 509 0
2021-12-05 21:41:12 GMT 26.155930 82.710258 37,000 125 510 0
2021-12-05 21:41:01 GMT 26.170670 82.687149 37,000 125 510 0
2021-12-05 21:40:51 GMT 26.184330 82.665726 37,000 125 510 0
2021-12-05 21:40:40 GMT 26.198809 82.643013 37,000 125 510 0
2021-12-05 21:40:30 GMT 26.213194 82.620514 37,000 125 510 0
2021-12-05 21:40:17 GMT 26.230139 82.593895 37,000 125 511 0
2021-12-05 21:40:08 GMT 26.242722 82.574074 37,000 125 512 0
2021-12-05 21:39:58 GMT 26.256393 82.552589 37,000 125 511 0
2021-12-05 21:39:47 GMT 26.270918 82.529770 37,000 125 511 0
2021-12-05 21:39:37 GMT 26.285706 82.506546 37,000 125 512 0
2021-12-05 21:38:42 GMT 26.361181 82.387581 37,000 125 514 0
2021-12-05 21:37:44 GMT 26.440321 82.262611 37,000 125 516 0
2021-12-05 21:37:19 GMT 26.481262 82.197838 37,000 125 519 0
2021-12-05 21:37:11 GMT 26.486664 82.189293 37,000 125 519 0
2021-12-05 21:36:58 GMT 26.503632 82.162361 37,000 124 519 0
2021-12-05 21:36:27 GMT 26.548096 82.091759 37,000 125 521 0
2021-12-05 21:34:30 GMT 26.709906 81.834625 37,000 124 518 0
2021-12-05 21:34:14 GMT 26.729969 81.802666 37,000 124 517 0
2021-12-05 21:34:12 GMT 26.732712 81.798294 37,000 124 517 0
2021-12-05 21:34:02 GMT 26.746122 81.776787 37,000 124 517 0
2021-12-05 21:33:52 GMT 26.760088 81.754440 37,000 124 517 0
2021-12-05 21:33:42 GMT 26.774195 81.731834 37,000 124 518 0
2021-12-05 21:33:32 GMT 26.787880 81.709808 37,000 124 518 0
2021-12-05 21:33:22 GMT 26.801147 81.688477 37,000 124 518 0
2021-12-05 21:33:13 GMT 26.814367 81.667084 37,000 124 518 0
2021-12-05 21:33:03 GMT 26.828247 81.644531 37,000 124 518 0
2021-12-05 21:32:53 GMT 26.841183 81.623558 37,000 124 518 0
2021-12-05 21:32:43 GMT 26.854889 81.601265 37,000 124 518 0
2021-12-05 21:32:33 GMT 26.868462 81.579140 37,000 124 518 0
2021-12-05 21:32:23 GMT 26.882288 81.556534 37,000 124 518 0
2021-12-05 21:32:13 GMT 26.895788 81.534660 37,000 124 518 0
2021-12-05 21:32:03 GMT 26.909683 81.512131 37,000 124 518 0
2021-12-05 21:31:53 GMT 26.923487 81.490242 37,000 125 517 0
2021-12-05 21:31:43 GMT 26.937607 81.468704 37,000 126 515 0
2021-12-05 21:31:33 GMT 26.951466 81.447617 37,000 126 515 0
2021-12-05 21:31:23 GMT 26.965897 81.425690 37,000 126 515 0
2021-12-05 21:31:13 GMT 26.980234 81.403992 37,000 126 516 0
2021-12-05 21:31:03 GMT 26.994370 81.382523 37,000 126 516 0
2021-12-05 21:30:53 GMT 27.008698 81.360809 37,000 126 516 0
2021-12-05 21:30:43 GMT 27.022877 81.339287 37,000 126 515 0
2021-12-05 21:30:32 GMT 27.037725 81.316681 37,000 126 515 0
2021-12-05 21:30:23 GMT 27.050720 81.296913 37,000 126 515 0
2021-12-05 21:30:13 GMT 27.065145 81.274902 37,000 126 517 0
2021-12-05 21:30:02 GMT 27.080414 81.251503 37,000 126 518 -64
2021-12-05 21:29:53 GMT 27.093449 81.231644 37,000 126 518 0
2021-12-05 21:29:43 GMT 27.107483 81.210213 37,000 126 518 0
2021-12-05 21:29:33 GMT 27.121706 81.188545 37,000 126 518 0
2021-12-05 21:29:23 GMT 27.136230 81.166466 37,000 126 518 0
2021-12-05 21:29:13 GMT 27.150467 81.144760 37,000 126 518 0
2021-12-05 21:29:06 GMT 27.159971 81.130234 37,000 126 519 0
2021-12-05 21:29:03 GMT 27.164675 81.123100 37,000 126 519 0
2021-12-05 21:28:56 GMT 27.173519 81.109634 37,000 126 519 0
2021-12-05 21:28:53 GMT 27.178619 81.101799 37,000 126 519 0
2021-12-05 21:28:47 GMT 27.187578 81.088135 37,000 126 519 0
2021-12-05 21:28:43 GMT 27.193165 81.079628 37,000 126 519 0
2021-12-05 21:28:31 GMT 27.208246 81.056602 37,000 126 520 0
2021-12-05 21:28:21 GMT 27.222473 81.034897 37,000 126 520 0
2021-12-05 21:28:12 GMT 27.236458 81.013504 37,000 126 521 0
2021-12-05 21:28:02 GMT 27.250122 80.992508 37,000 126 522 0
2021-12-05 21:27:52 GMT 27.264725 80.970222 37,000 126 523 -64
2021-12-05 21:27:42 GMT 27.279285 80.947845 37,000 125 524 0
2021-12-05 21:27:32 GMT 27.293427 80.926071 37,000 126 525 -64
2021-12-05 21:27:22 GMT 27.307730 80.903954 37,000 125 528 0
2021-12-05 21:27:12 GMT 27.321854 80.882179 37,000 125 532 0
2021-12-05 21:27:01 GMT 27.337383 80.858215 37,000 125 536 0
2021-12-05 21:26:52 GMT 27.351288 80.836830 37,000 126 536 64
2021-12-05 21:26:42 GMT 27.366385 80.813637 37,000 126 539 -128
2021-12-05 21:26:40 GMT 27.370947 80.806610 37,000 126 539 0
2021-12-05 21:26:32 GMT 27.380768 80.791489 37,000 126 538 64
2021-12-05 21:26:26 GMT 27.389740 80.777649 37,000 126 539 -64
2021-12-05 21:26:22 GMT 27.395920 80.768166 37,000 126 539 0
2021-12-05 21:26:20 GMT 27.400042 80.761818 37,000 126 539 64
2021-12-05 21:26:12 GMT 27.410751 80.745316 37,000 126 539 0
2021-12-05 21:26:09 GMT 27.415171 80.738525 37,000 126 539 0
2021-12-05 21:25:59 GMT 27.430710 80.714478 37,000 126 539 0
2021-12-05 21:25:50 GMT 27.441893 80.697273 37,000 126 539 0
2021-12-05 21:25:47 GMT 27.447014 80.689301 37,000 126 539 -64
2021-12-05 21:25:42 GMT 27.454786 80.677307 37,000 125 537 64
2021-12-05 21:25:31 GMT 27.469730 80.654282 37,000 125 537 64
2021-12-05 21:25:22 GMT 27.483929 80.632362 37,000 125 537 0
2021-12-05 21:25:16 GMT 27.492691 80.618813 37,000 125 537 -64
2021-12-05 21:25:12 GMT 27.498413 80.609955 37,000 125 537 -128
2021-12-05 21:25:05 GMT 27.507431 80.595963 37,000 125 536 64
2021-12-05 21:25:01 GMT 27.513565 80.586479 37,000 125 536 -64
2021-12-05 21:24:55 GMT 27.523638 80.570930 37,000 125 536 0
2021-12-05 21:24:52 GMT 27.527435 80.565079 37,000 125 536 128
2021-12-05 21:24:42 GMT 27.542130 80.542328 37,000 125 535 0
2021-12-05 21:24:32 GMT 27.556961 80.519264 37,000 125 535 0
2021-12-05 21:24:22 GMT 27.571541 80.496719 37,000 125 535 0
2021-12-05 21:24:11 GMT 27.586485 80.473427 37,000 125 535 0
2021-12-05 21:24:02 GMT 27.600590 80.451561 37,000 125 535 0
2021-12-05 21:23:52 GMT 27.615280 80.428780 37,000 125 534 0
2021-12-05 21:23:42 GMT 27.629379 80.406914 37,000 125 534 0
2021-12-05 21:23:31 GMT 27.645605 80.381683 37,000 125 534 0
2021-12-05 21:23:21 GMT 27.660965 80.357841 37,000 125 534 0
2021-12-05 21:23:10 GMT 27.676189 80.334145 37,000 125 533 -64
2021-12-05 21:23:01 GMT 27.688480 80.314972 37,000 125 533 -64
2021-12-05 21:22:58 GMT 27.693649 80.306900 37,000 125 532 -64
2021-12-05 21:22:52 GMT 27.702213 80.293579 37,000 125 532 0
2021-12-05 21:22:48 GMT 27.707846 80.284813 37,000 125 531 0
2021-12-05 21:22:42 GMT 27.716784 80.270920 37,000 125 531 64
2021-12-05 21:22:36 GMT 27.724548 80.258804 37,000 125 531 64
2021-12-05 21:22:32 GMT 27.731186 80.248444 37,000 125 532 -64
2021-12-05 21:22:27 GMT 27.737640 80.238335 37,000 125 531 64
2021-12-05 21:22:22 GMT 27.745600 80.226021 37,000 125 531 0
2021-12-05 21:22:15 GMT 27.754492 80.212082 37,000 125 531 0
2021-12-05 21:22:10 GMT 27.760849 80.202217 37,000 125 531 64
2021-12-05 21:22:06 GMT 27.767441 80.191849 37,000 125 530 -64
2021-12-05 21:22:00 GMT 27.775360 80.179520 37,000 125 530 0
2021-12-05 21:21:55 GMT 27.783260 80.167183 37,000 125 530 0
2021-12-05 21:21:51 GMT 27.788727 80.158630 37,000 125 530 0
2021-12-05 21:21:45 GMT 27.797459 80.144943 37,000 125 530 0
2021-12-05 21:21:41 GMT 27.803238 80.135933 37,000 125 530 0
2021-12-05 21:21:35 GMT 27.812668 80.121117 37,000 125 530 0
2021-12-05 21:21:31 GMT 27.817244 80.113945 37,000 125 530 0
2021-12-05 21:21:24 GMT 27.827856 80.097305 37,000 125 530 0
2021-12-05 21:21:20 GMT 27.832605 80.089912 37,000 125 530 0
2021-12-05 21:21:14 GMT 27.842661 80.074165 37,000 125 530 0
2021-12-05 21:21:10 GMT 27.847229 80.066963 37,000 125 530 0
2021-12-05 21:21:01 GMT 27.860550 80.046074 37,000 125 530 0
2021-12-05 21:20:51 GMT 27.874878 80.023582 37,000 125 529 0
2021-12-05 21:20:40 GMT 27.891083 79.998299 37,000 125 528 0
2021-12-05 21:20:31 GMT 27.903763 79.978348 37,000 125 528 0
2021-12-05 21:20:20 GMT 27.919193 79.954216 37,000 125 527 0
2021-12-05 21:20:11 GMT 27.932281 79.933624 37,000 125 526 0
2021-12-05 21:20:01 GMT 27.948029 79.908844 37,000 125 526 0
2021-12-05 21:19:51 GMT 27.960531 79.889236 37,000 125 525 0
2021-12-05 21:19:49 GMT 27.963511 79.884552 37,000 125 525 0
2021-12-05 21:19:40 GMT 27.977097 79.863159 37,000 125 523 0
2021-12-05 21:19:31 GMT 27.989365 79.843826 37,000 125 523 0
2021-12-05 21:19:28 GMT 27.992886 79.838242 37,000 125 523 0
2021-12-05 21:19:19 GMT 28.007408 79.815353 37,000 125 523 -64
2021-12-05 21:19:11 GMT 28.017696 79.799141 37,000 125 522 0
2021-12-05 21:19:00 GMT 28.032074 79.776482 37,000 125 522 0
2021-12-05 21:18:57 GMT 28.037567 79.767822 37,000 125 522 0
2021-12-05 21:18:51 GMT 28.046036 79.754509 37,000 125 522 0
2021-12-05 21:18:40 GMT 28.060226 79.732117 37,000 125 522 0
2021-12-05 21:18:37 GMT 28.066589 79.722130 37,000 125 521 0
2021-12-05 21:18:31 GMT 28.073746 79.710815 37,000 125 521 0
2021-12-05 21:18:25 GMT 28.081467 79.698624 37,000 125 521 0
2021-12-05 21:18:21 GMT 28.088083 79.688202 37,000 125 521 0
2021-12-05 21:18:15 GMT 28.097906 79.672691 37,000 125 521 0
2021-12-05 21:18:09 GMT 28.104656 79.662025 37,000 125 521 0
2021-12-05 21:18:05 GMT 28.110718 79.652519 37,000 125 521 0
2021-12-05 21:18:01 GMT 28.116440 79.643379 37,000 125 521 0
2021-12-05 21:17:55 GMT 28.126007 79.628326 37,000 125 521 0
2021-12-05 21:17:51 GMT 28.130356 79.621407 37,000 125 521 0
2021-12-05 21:17:44 GMT 28.140015 79.606087 37,000 125 521 0
2021-12-05 21:17:41 GMT 28.144505 79.599014 37,000 125 521 0
2021-12-05 21:17:34 GMT 28.155029 79.582321 37,000 125 521 0
2021-12-05 21:17:31 GMT 28.158379 79.576988 37,000 125 521 0
2021-12-05 21:17:20 GMT 28.172699 79.554329 37,000 125 522 0
2021-12-05 21:17:11 GMT 28.186249 79.532722 37,000 125 521 0
2021-12-05 21:17:01 GMT 28.200228 79.510536 37,000 125 520 0
2021-12-05 21:16:50 GMT 28.215454 79.486351 37,000 125 519 0
2021-12-05 21:16:40 GMT 28.229555 79.463951 37,000 125 519 0
2021-12-05 21:16:31 GMT 28.243515 79.441772 37,000 125 519 0
2021-12-05 21:16:19 GMT 28.258118 79.418526 37,000 125 518 0
2021-12-05 21:16:10 GMT 28.272430 79.395767 37,000 125 518 0
2021-12-05 21:15:58 GMT 28.287188 79.372292 37,000 125 517 64
2021-12-05 21:15:48 GMT 28.301651 79.349335 37,000 125 517 0
2021-12-05 21:15:37 GMT 28.316097 79.326347 37,000 125 517 0
2021-12-05 21:15:27 GMT 28.330811 79.302963 37,000 125 517 0
2021-12-05 21:15:16 GMT 28.345825 79.279083 37,000 125 517 0
2021-12-05 21:15:05 GMT 28.360657 79.255424 37,000 125 518 -64
2021-12-05 21:14:55 GMT 28.374664 79.233032 37,000 125 518 0
2021-12-05 21:14:45 GMT 28.389370 79.209541 37,000 125 519 0
2021-12-05 21:14:34 GMT 28.404360 79.185577 37,000 125 520 64
2021-12-05 21:14:26 GMT 28.414974 79.168610 37,000 125 523 0
2021-12-05 21:14:22 GMT 28.422913 79.155861 37,000 125 523 0
2021-12-05 21:14:12 GMT 28.434677 79.137054 37,000 125 525 0
2021-12-05 21:14:07 GMT 28.443790 79.122406 37,000 125 525 0
2021-12-05 21:14:02 GMT 28.450819 79.111153 37,000 125 526 0
2021-12-05 21:13:55 GMT 28.460220 79.096069 37,000 125 526 0
2021-12-05 21:13:52 GMT 28.465017 79.088425 37,000 125 526 0
2021-12-05 21:13:49 GMT 28.468510 79.082764 37,000 125 526 0
2021-12-05 21:13:41 GMT 28.480179 79.064117 37,000 125 525 0
2021-12-05 21:13:37 GMT 28.486084 79.054657 37,000 125 525 0
2021-12-05 21:13:30 GMT 28.495056 79.040237 37,000 125 525 0
2021-12-05 21:13:26 GMT 28.500118 79.032143 37,000 125 525 0
2021-12-05 21:13:18 GMT 28.510498 79.015450 37,000 125 525 0
2021-12-05 21:13:15 GMT 28.514420 79.009186 37,000 125 525 0
2021-12-05 21:13:11 GMT 28.521858 78.997246 37,000 125 523 0
2021-12-05 21:13:07 GMT 28.526047 78.990540 37,000 125 523 64
2021-12-05 21:13:04 GMT 28.529800 78.984467 37,000 125 523 64
2021-12-05 21:12:59 GMT 28.536942 78.973015 37,000 125 523 0
2021-12-05 21:12:55 GMT 28.544495 78.960854 37,000 125 523 0
2021-12-05 21:12:50 GMT 28.551092 78.950340 37,000 125 523 64
2021-12-05 21:12:47 GMT 28.556259 78.941994 37,000 125 523 0
2021-12-05 21:12:44 GMT 28.560150 78.935715 37,000 125 523 0
2021-12-05 21:12:39 GMT 28.567154 78.924515 37,000 125 523 0
2021-12-05 21:12:36 GMT 28.571045 78.918228 37,000 125 523 0
2021-12-05 21:12:33 GMT 28.575531 78.911041 37,000 125 523 -64
2021-12-05 21:12:25 GMT 28.586287 78.893791 37,000 125 522 -64
2021-12-05 21:12:22 GMT 28.590057 78.887756 37,000 125 522 -64
2021-12-05 21:12:18 GMT 28.596016 78.878120 37,025 125 521 0
2021-12-05 21:12:14 GMT 28.601028 78.870056 37,000 125 521 64
2021-12-05 21:12:10 GMT 28.605232 78.863365 37,000 125 520 64
2021-12-05 21:12:07 GMT 28.610504 78.854843 37,000 125 520 64
2021-12-05 21:12:03 GMT 28.616777 78.844841 37,000 125 521 64
2021-12-05 21:12:00 GMT 28.620270 78.839233 37,000 125 521 0
2021-12-05 21:11:57 GMT 28.625669 78.830513 37,000 125 521 0
2021-12-05 21:11:49 GMT 28.635544 78.814598 37,000 125 521 0
2021-12-05 21:11:45 GMT 28.640240 78.806976 37,000 125 521 0
2021-12-05 21:11:39 GMT 28.650742 78.789986 37,000 125 520 0
2021-12-05 21:11:36 GMT 28.654486 78.783928 37,000 125 520 0
2021-12-05 21:11:31 GMT 28.662689 78.770706 37,000 125 520 64
2021-12-05 21:11:28 GMT 28.666031 78.765350 37,000 125 520 0
2021-12-05 21:11:25 GMT 28.668640 78.761093 37,000 125 520 0
2021-12-05 21:11:19 GMT 28.677946 78.746071 37,000 125 521 0
2021-12-05 21:11:15 GMT 28.683441 78.737129 37,000 125 521 0
2021-12-05 21:11:06 GMT 28.695923 78.716881 37,000 124 522 0
2021-12-05 21:11:03 GMT 28.698709 78.712410 37,000 125 521 0
2021-12-05 21:10:54 GMT 28.712397 78.690170 37,000 124 522 0
2021-12-05 21:10:45 GMT 28.725012 78.669701 37,000 124 522 0
2021-12-05 21:10:42 GMT 28.727234 78.666122 37,000 124 522 0
2021-12-05 21:10:33 GMT 28.742235 78.641808 37,000 125 522 0
2021-12-05 21:10:21 GMT 28.757217 78.617477 37,000 124 523 0
2021-12-05 21:10:12 GMT 28.771423 78.594467 37,000 125 524 0
2021-12-05 21:10:01 GMT 28.786041 78.570770 37,000 125 524 0
2021-12-05 21:09:50 GMT 28.801916 78.545082 37,000 125 522 0
2021-12-05 21:09:39 GMT 28.816772 78.521027 37,000 125 520 0
2021-12-05 21:09:28 GMT 28.831604 78.497047 37,000 124 519 64
2021-12-05 21:09:19 GMT 28.843719 78.477333 37,000 124 519 -64
2021-12-05 21:09:16 GMT 28.847168 78.471748 37,000 124 519 -64
2021-12-05 21:09:09 GMT 28.858612 78.453156 37,000 124 519 0
2021-12-05 21:09:05 GMT 28.862713 78.446419 37,000 124 519 0
2021-12-05 21:08:56 GMT 28.876352 78.424232 37,000 124 520 0
2021-12-05 21:08:45 GMT 28.891479 78.399490 37,000 124 520 0
2021-12-05 21:08:37 GMT 28.901962 78.382378 37,000 124 521 0
2021-12-05 21:08:34 GMT 28.906658 78.374741 37,000 124 521 0
2021-12-05 21:08:23 GMT 28.921509 78.350372 37,000 124 522 0
2021-12-05 21:08:19 GMT 28.928970 78.338173 37,000 124 522 64
2021-12-05 21:08:16 GMT 28.931305 78.334312 36,975 124 522 0
2021-12-05 21:08:12 GMT 28.936707 78.325546 37,000 124 522 0
2021-12-05 21:08:05 GMT 28.945221 78.311546 37,000 124 521 0
2021-12-05 21:08:00 GMT 28.951584 78.301147 37,000 124 521 -64
2021-12-05 21:07:55 GMT 28.959589 78.288094 37,000 124 521 0
2021-12-05 21:07:50 GMT 28.966200 78.277267 37,025 124 520 64
2021-12-05 21:07:43 GMT 28.974766 78.263313 37,000 124 519 0
2021-12-05 21:07:40 GMT 28.981110 78.253029 37,000 124 518 0
2021-12-05 21:07:34 GMT 28.989197 78.239784 37,000 124 517 -64
2021-12-05 21:07:29 GMT 28.996365 78.228149 37,000 124 516 0
2021-12-05 21:07:23 GMT 29.003302 78.216789 37,000 124 515 0
2021-12-05 21:07:18 GMT 29.010937 78.204346 37,000 124 513 64
2021-12-05 21:07:13 GMT 29.017639 78.193466 37,000 124 513 64
2021-12-05 21:07:07 GMT 29.025785 78.180168 36,975 124 512 64
2021-12-05 21:07:01 GMT 29.032425 78.169312 37,000 124 511 0
2021-12-05 21:06:56 GMT 29.040848 78.155579 37,000 124 511 -128
2021-12-05 21:06:50 GMT 29.047060 78.145378 37,025 124 510 -64
2021-12-05 21:06:45 GMT 29.055161 78.132126 37,025 124 510 0
2021-12-05 21:06:41 GMT 29.062143 78.120659 37,000 124 509 64
2021-12-05 21:06:30 GMT 29.076416 78.097321 36,975 124 508 128
2021-12-05 21:06:22 GMT 29.084747 78.083633 37,000 124 508 -64
2021-12-05 21:06:18 GMT 29.091888 78.071960 37,000 124 508 -64
2021-12-05 21:06:13 GMT 29.098892 78.060501 37,000 124 509 -64
2021-12-05 21:06:10 GMT 29.103058 78.053688 37,000 124 509 -64
2021-12-05 21:05:59 GMT 29.117725 78.029587 37,025 124 510 -64
2021-12-05 21:05:51 GMT 29.128601 78.011642 37,000 124 512 0
2021-12-05 21:05:47 GMT 29.131989 78.006042 37,000 124 513 0
2021-12-05 21:05:41 GMT 29.142654 77.988403 37,000 124 516 0
2021-12-05 21:05:38 GMT 29.145355 77.983971 37,000 124 516 0
2021-12-05 21:05:30 GMT 29.156830 77.965073 37,000 124 518 0
2021-12-05 21:05:27 GMT 29.160229 77.959473 37,000 124 518 0
2021-12-05 21:05:17 GMT 29.174986 77.935127 37,000 124 519 0
2021-12-05 21:05:05 GMT 29.189232 77.911644 37,000 124 518 0
2021-12-05 21:04:56 GMT 29.203308 77.888420 37,000 124 518 0
2021-12-05 21:04:45 GMT 29.217255 77.865440 37,000 124 518 0
2021-12-05 21:04:33 GMT 29.232849 77.839699 37,000 124 518 0
2021-12-05 21:04:22 GMT 29.249634 77.811935 37,000 124 518 0
2021-12-05 21:04:14 GMT 29.260735 77.793648 37,000 124 518 0
2021-12-05 21:04:10 GMT 29.264414 77.787567 37,000 124 518 0
2021-12-05 21:04:02 GMT 29.277512 77.765930 37,000 124 518 0
2021-12-05 21:03:59 GMT 29.279682 77.762306 37,000 124 518 0
2021-12-05 21:03:53 GMT 29.289642 77.745804 37,000 124 518 0
2021-12-05 21:03:49 GMT 29.294403 77.737938 37,000 124 518 0
2021-12-05 21:03:42 GMT 29.303421 77.722992 37,000 124 519 0
2021-12-05 21:03:39 GMT 29.308870 77.713997 37,000 124 519 0
2021-12-05 21:03:32 GMT 29.318390 77.698166 37,000 124 519 0
2021-12-05 21:03:28 GMT 29.323700 77.689346 37,000 124 519 0
2021-12-05 21:03:21 GMT 29.332565 77.674629 37,000 124 519 0
2021-12-05 21:03:17 GMT 29.338430 77.664886 37,000 124 519 0
2021-12-05 21:03:10 GMT 29.347046 77.650627 37,000 124 520 0
2021-12-05 21:03:05 GMT 29.353327 77.640221 37,000 124 520 0
2021-12-05 21:03:00 GMT 29.361240 77.627075 37,000 124 521 0
2021-12-05 21:02:54 GMT 29.368084 77.615715 37,000 124 521 0
2021-12-05 21:02:49 GMT 29.375626 77.603218 37,000 124 521 0
2021-12-05 21:02:44 GMT 29.383028 77.590996 37,000 124 522 0
2021-12-05 21:02:39 GMT 29.390442 77.578690 37,000 124 522 0
2021-12-05 21:02:34 GMT 29.397411 77.567139 37,000 124 522 0
2021-12-05 21:02:28 GMT 29.404814 77.554863 37,000 124 522 64
2021-12-05 21:02:23 GMT 29.412460 77.542137 37,000 124 522 0
2021-12-05 21:02:18 GMT 29.419327 77.530785 37,000 124 521 0
2021-12-05 21:02:12 GMT 29.428070 77.516205 37,000 124 521 0
2021-12-05 21:02:07 GMT 29.434189 77.505959 37,000 124 520 0
2021-12-05 21:02:00 GMT 29.441849 77.493279 37,000 124 520 0
2021-12-05 21:01:56 GMT 29.448526 77.482101 37,000 124 520 0
2021-12-05 21:01:49 GMT 29.462952 77.458054 37,000 124 520 0
2021-12-05 21:01:46 GMT 29.462952 77.458054 37,000 124 520 0
2021-12-05 21:01:38 GMT 29.472874 77.441498 37,000 124 520 0
2021-12-05 21:01:34 GMT 29.477234 77.434227 37,000 124 520 0
2021-12-05 21:01:28 GMT 29.488144 77.416023 37,000 124 520 0
2021-12-05 21:01:25 GMT 29.491241 77.410828 37,000 124 519 0
2021-12-05 21:01:16 GMT 29.503271 77.390877 37,000 124 519 0
2021-12-05 21:01:04 GMT 29.526829 77.351616 37,000 124 520 0
2021-12-05 21:00:55 GMT 29.532133 77.342728 37,000 124 520 0
2021-12-05 21:00:47 GMT 29.541367 77.327271 37,000 124 520 0
2021-12-05 21:00:43 GMT 29.546566 77.318604 37,000 124 520 0
2021-12-05 21:00:38 GMT 29.555550 77.303574 37,000 124 520 0
2021-12-05 21:00:32 GMT 29.562906 77.291245 37,000 124 520 0
2021-12-05 21:00:27 GMT 29.569839 77.279625 37,000 124 521 64
2021-12-05 21:00:22 GMT 29.577477 77.266846 37,000 124 521 64
2021-12-05 21:00:16 GMT 29.584442 77.255226 37,000 124 522 0
2021-12-05 21:00:12 GMT 29.590977 77.244225 37,000 124 522 0
2021-12-05 21:00:05 GMT 29.598890 77.230927 37,000 124 523 -64
2021-12-05 21:00:01 GMT 29.605865 77.219254 37,000 124 523 -64
2021-12-05 20:59:55 GMT 29.614059 77.205521 37,000 124 523 -64
2021-12-05 20:59:50 GMT 29.620911 77.194031 37,000 124 524 0
2021-12-05 20:59:44 GMT 29.629257 77.180061 37,000 124 524 0
2021-12-05 20:59:39 GMT 29.635162 77.170189 37,000 124 523 0
2021-12-05 20:59:32 GMT 29.643631 77.155930 37,000 124 525 0
2021-12-05 20:59:27 GMT 29.651596 77.142563 37,000 124 525 0
2021-12-05 20:59:23 GMT 29.658152 77.131561 37,000 124 525 0
2021-12-05 20:59:17 GMT 29.665283 77.119591 37,000 124 525 0
2021-12-05 20:59:12 GMT 29.672256 77.107811 37,000 124 525 0
2021-12-05 20:59:07 GMT 29.680344 77.094231 37,000 124 526 0
2021-12-05 20:59:02 GMT 29.686361 77.084061 37,000 124 526 0
2021-12-05 20:58:56 GMT 29.695450 77.068878 37,000 124 526 0
2021-12-05 20:58:50 GMT 29.702003 77.057785 37,000 124 526 0
2021-12-05 20:58:45 GMT 29.709032 77.045990 37,000 124 527 0
2021-12-05 20:58:41 GMT 29.715597 77.034897 37,000 124 527 0
2021-12-05 20:58:33 GMT 29.726212 77.017067 37,000 124 527 0
2021-12-05 20:58:29 GMT 29.729919 77.010834 37,000 124 528 0
2021-12-05 20:58:23 GMT 29.740084 76.993698 37,000 124 528 64
2021-12-05 20:58:20 GMT 29.745071 76.985321 37,000 124 528 64
2021-12-05 20:58:09 GMT 29.759216 76.961380 37,000 124 530 0
2021-12-05 20:58:01 GMT 29.769836 76.943436 37,000 124 530 0
2021-12-05 20:57:58 GMT 29.773819 76.936676 37,000 124 530 0
2021-12-05 20:57:51 GMT 29.784168 76.919212 37,000 124 531 0
2021-12-05 20:57:48 GMT 29.788450 76.911942 37,000 124 531 0
2021-12-05 20:57:37 GMT 29.802696 76.887924 37,000 124 531 0
2021-12-05 20:57:27 GMT 29.817499 76.862938 37,000 124 531 0
2021-12-05 20:57:16 GMT 29.831955 76.838432 37,000 124 531 0
2021-12-05 20:57:09 GMT 29.840403 76.824158 37,000 124 531 0
2021-12-05 20:57:06 GMT 29.846596 76.813660 37,000 124 531 0
2021-12-05 20:56:55 GMT 29.860655 76.789856 37,000 124 531 0
2021-12-05 20:56:44 GMT 29.876760 76.762497 37,000 124 531 0
2021-12-05 20:56:35 GMT 29.887939 76.743568 37,000 124 531 0
2021-12-05 20:56:33 GMT 29.890869 76.738655 37,000 124 531 0
2021-12-05 20:56:29 GMT 29.897896 76.726738 37,000 124 531 -64
2021-12-05 20:56:24 GMT 29.904510 76.715469 37,000 124 531 0
2021-12-05 20:56:11 GMT 29.920532 76.688393 37,000 124 530 0
2021-12-05 20:55:59 GMT 29.937469 76.659637 37,000 124 530 0
2021-12-05 20:55:52 GMT 29.948498 76.640953 37,000 124 530 0
2021-12-05 20:55:48 GMT 29.952209 76.634644 37,000 124 530 0
2021-12-05 20:55:41 GMT 29.968735 76.606590 37,000 124 530 0
2021-12-05 20:55:31 GMT 29.977249 76.592102 37,000 124 530 0
2021-12-05 20:55:25 GMT 29.985764 76.577614 37,000 123 531 0
2021-12-05 20:55:19 GMT 29.991943 76.567062 37,000 124 530 0
2021-12-05 20:55:10 GMT 30.005850 76.543396 37,000 123 531 0
2021-12-05 20:55:03 GMT 30.015627 76.526695 37,000 123 532 0
2021-12-05 20:54:59 GMT 30.021240 76.517029 37,000 123 533 0
2021-12-05 20:54:48 GMT 30.035597 76.492531 37,000 123 533 0
2021-12-05 20:54:38 GMT 30.050766 76.466568 37,000 123 534 0
2021-12-05 20:54:26 GMT 30.065159 76.441994 37,000 123 535 0
2021-12-05 20:54:17 GMT 30.079239 76.417831 37,000 123 536 0
2021-12-05 20:54:05 GMT 30.094486 76.391731 37,000 123 536 0
2021-12-05 20:54:02 GMT 30.100584 76.381294 37,000 123 536 -64
2021-12-05 20:53:56 GMT 30.108498 76.367783 37,000 123 537 0
2021-12-05 20:53:51 GMT 30.115311 76.356163 37,000 123 536 0
2021-12-05 20:53:44 GMT 30.123367 76.342377 37,000 123 536 0
2021-12-05 20:53:40 GMT 30.130142 76.330750 37,000 123 536 0
2021-12-05 20:53:35 GMT 30.137733 76.317680 37,000 123 536 0
2021-12-05 20:53:24 GMT 30.152573 76.292183 37,000 123 538 0
2021-12-05 20:53:13 GMT 30.167574 76.266487 37,000 123 538 0
2021-12-05 20:53:03 GMT 30.181732 76.242157 37,000 123 539 0
2021-12-05 20:52:57 GMT 30.189514 76.228745 37,000 123 539 0
2021-12-05 20:52:51 GMT 30.197342 76.215385 37,000 123 539 0
2021-12-05 20:52:45 GMT 30.205124 76.202034 37,000 123 539 0
2021-12-05 20:52:41 GMT 30.211395 76.191261 37,000 123 539 0
2021-12-05 20:52:36 GMT 30.219896 76.176674 37,000 123 539 0
2021-12-05 20:52:30 GMT 30.226416 76.165466 37,000 123 539 0
2021-12-05 20:52:25 GMT 30.235199 76.150391 37,000 123 539 0
2021-12-05 20:52:20 GMT 30.240601 76.141068 37,000 123 539 0
2021-12-05 20:52:14 GMT 30.250156 76.124542 37,000 123 539 0
2021-12-05 20:52:10 GMT 30.255844 76.114738 37,000 123 539 -64
2021-12-05 20:52:03 GMT 30.266031 76.097298 37,000 123 539 0
2021-12-05 20:51:59 GMT 30.270172 76.090179 37,000 123 539 0
2021-12-05 20:51:49 GMT 30.285004 76.064598 37,000 123 537 64
2021-12-05 20:51:40 GMT 30.296402 76.044991 37,000 123 538 0
2021-12-05 20:51:37 GMT 30.300014 76.038795 37,000 123 538 0
2021-12-05 20:51:27 GMT 30.314817 76.013199 37,000 123 538 0
2021-12-05 20:51:20 GMT 30.324371 75.996689 37,000 123 538 0
2021-12-05 20:51:17 GMT 30.328505 75.989517 37,000 123 537 0
2021-12-05 20:51:09 GMT 30.338882 75.971642 37,000 123 537 0
2021-12-05 20:51:06 GMT 30.343447 75.963760 37,000 123 537 0
2021-12-05 20:51:00 GMT 30.352295 75.948486 37,000 123 537 0
2021-12-05 20:50:56 GMT 30.357697 75.939171 37,000 123 537 0
2021-12-05 20:50:49 GMT 30.367655 75.921951 37,000 123 537 0
2021-12-05 20:50:45 GMT 30.372728 75.913109 37,000 123 537 0
2021-12-05 20:50:39 GMT 30.379761 75.900932 37,000 123 536 0
2021-12-05 20:50:34 GMT 30.388046 75.886604 37,000 123 536 0
2021-12-05 20:50:28 GMT 30.394375 75.875595 37,000 123 536 -64
2021-12-05 20:50:24 GMT 30.402334 75.861748 37,000 123 536 0
2021-12-05 20:50:19 GMT 30.407969 75.851974 37,000 123 536 0
2021-12-05 20:50:12 GMT 30.418303 75.834061 37,000 123 536 0
2021-12-05 20:50:09 GMT 30.421463 75.828552 37,000 123 536 0
2021-12-05 20:50:02 GMT 30.431351 75.811371 37,000 123 536 0
2021-12-05 20:49:58 GMT 30.435883 75.803513 37,000 123 536 0
2021-12-05 20:49:52 GMT 30.445908 75.786064 37,000 123 535 0
2021-12-05 20:49:48 GMT 30.450439 75.778198 37,000 123 535 0
2021-12-05 20:49:39 GMT 30.463598 75.755295 37,000 123 535 64
2021-12-05 20:49:29 GMT 30.477797 75.730682 37,000 123 535 0
2021-12-05 20:49:19 GMT 30.491547 75.706787 37,000 123 535 0
2021-12-05 20:49:07 GMT 30.505543 75.682449 37,000 123 536 0
2021-12-05 20:48:57 GMT 30.521416 75.654770 37,000 123 534 0
2021-12-05 20:48:47 GMT 30.536221 75.628952 37,000 123 534 0
2021-12-05 20:48:36 GMT 30.551514 75.602257 37,000 123 534 0
2021-12-05 20:48:28 GMT 30.561777 75.584343 37,000 123 533 0
2021-12-05 20:48:24 GMT 30.566525 75.575996 37,000 123 533 0
2021-12-05 20:48:17 GMT 30.576233 75.559120 37,000 123 533 0
2021-12-05 20:48:12 GMT 30.581726 75.549583 37,000 123 533 0
2021-12-05 20:48:06 GMT 30.591019 75.533432 37,000 123 533 0
2021-12-05 20:48:01 GMT 30.596739 75.523422 37,000 123 533 0
2021-12-05 20:47:58 GMT 30.600973 75.516006 37,000 123 533 0
2021-12-05 20:47:56 GMT 30.605072 75.508873 37,000 123 533 0
2021-12-05 20:47:51 GMT 30.611755 75.497238 37,000 123 532 0
2021-12-05 20:47:48 GMT 30.614473 75.492447 37,000 123 532 0
2021-12-05 20:47:44 GMT 30.619904 75.482971 37,000 123 532 0
2021-12-05 20:47:41 GMT 30.626175 75.471977 37,000 123 532 0
2021-12-05 20:47:38 GMT 30.628052 75.468643 37,000 123 532 0
2021-12-05 20:47:35 GMT 30.633636 75.458893 37,000 123 531 0
2021-12-05 20:47:28 GMT 30.641510 75.445107 37,000 123 531 0
2021-12-05 20:47:24 GMT 30.647736 75.434174 37,000 123 531 0
2021-12-05 20:47:18 GMT 30.655197 75.421089 37,000 123 531 -64
2021-12-05 20:47:14 GMT 30.662331 75.408455 37,000 123 531 0
2021-12-05 20:47:07 GMT 30.671268 75.392746 37,000 123 530 0
2021-12-05 20:47:02 GMT 30.677320 75.382034 37,000 123 530 0
2021-12-05 20:46:57 GMT 30.684906 75.368744 37,000 123 531 0
2021-12-05 20:46:53 GMT 30.690720 75.358513 37,000 123 531 0
2021-12-05 20:46:45 GMT 30.700562 75.341171 37,000 123 531 0
2021-12-05 20:46:42 GMT 30.704727 75.333794 37,000 123 530 0
2021-12-05 20:46:37 GMT 30.709860 75.324738 37,000 123 531 0
2021-12-05 20:46:32 GMT 30.719448 75.307877 37,000 123 531 0
2021-12-05 20:46:28 GMT 30.723129 75.301422 37,000 123 531 0
2021-12-05 20:46:24 GMT 30.729319 75.290512 37,000 123 530 0
2021-12-05 20:46:20 GMT 30.733274 75.283592 37,000 123 531 0
2021-12-05 20:46:16 GMT 30.738674 75.274094 37,000 123 531 0
2021-12-05 20:46:11 GMT 30.747520 75.258652 37,000 123 532 64
2021-12-05 20:46:07 GMT 30.750872 75.252670 37,000 123 532 64
2021-12-05 20:46:02 GMT 30.758881 75.238579 37,000 123 532 0
2021-12-05 20:45:57 GMT 30.764372 75.228775 37,000 123 532 0
2021-12-05 20:45:52 GMT 30.773071 75.213531 37,000 124 529 0
2021-12-05 20:45:47 GMT 30.777966 75.205315 37,000 125 528 0
2021-12-05 20:45:41 GMT 30.788067 75.189224 37,000 127 526 0
2021-12-05 20:45:37 GMT 30.792526 75.182457 37,000 127 526 0
2021-12-05 20:45:28 GMT 30.809418 75.158386 37,000 131 522 64
2021-12-05 20:45:17 GMT 30.826380 75.136429 37,000 133 520 0
2021-12-05 20:45:08 GMT 30.840717 75.119400 37,000 136 517 0
2021-12-05 20:45:05 GMT 30.844345 75.115303 37,000 136 517 0
2021-12-05 20:44:58 GMT 30.857943 75.100449 37,000 136 517 -64
2021-12-05 20:44:56 GMT 30.861969 75.096077 37,000 136 517 -64
2021-12-05 20:44:47 GMT 30.876526 75.080246 37,000 136 517 0
2021-12-05 20:44:44 GMT 30.881079 75.075294 37,000 136 517 0
2021-12-05 20:44:38 GMT 30.892822 75.062576 37,000 136 517 -64
2021-12-05 20:44:35 GMT 30.900330 75.054390 37,000 136 517 -64
2021-12-05 20:44:28 GMT 30.910639 75.043213 37,000 136 517 -64
2021-12-05 20:44:24 GMT 30.917313 75.035973 37,025 136 517 -128
2021-12-05 20:44:18 GMT 30.927631 75.024757 37,025 136 518 -64
2021-12-05 20:44:14 GMT 30.936382 75.015198 37,025 136 519 -64
2021-12-05 20:44:07 GMT 30.946198 75.004524 37,000 136 520 128
2021-12-05 20:44:02 GMT 30.957098 74.992622 36,975 136 522 320
2021-12-05 20:43:58 GMT 30.963455 74.985725 36,950 136 522 576
2021-12-05 20:43:51 GMT 30.976000 74.972130 36,850 136 522 1216
2021-12-05 20:43:48 GMT 30.981262 74.966339 36,800 136 522 1408
2021-12-05 20:43:41 GMT 30.993622 74.952873 36,625 136 522 1280
2021-12-05 20:43:38 GMT 30.998251 74.947906 36,575 136 522 1216
2021-12-05 20:43:31 GMT 31.010925 74.934082 36,400 136 521 1408
2021-12-05 20:43:28 GMT 31.016220 74.928299 36,375 136 521 1472
2021-12-05 20:43:18 GMT 31.034225 74.908661 36,000 136 524 2624
2021-12-05 20:43:08 GMT 31.051554 74.889626 35,575 136 528 2304
2021-12-05 20:43:00 GMT 31.066772 74.873062 35,300 136 530 1856
2021-12-05 20:42:57 GMT 31.069614 74.869904 35,250 136 530 1792
2021-12-05 20:42:47 GMT 31.090565 74.847054 35,025 136 529 512
2021-12-05 20:42:39 GMT 31.104309 74.832031 35,000 136 529 0
2021-12-05 20:42:36 GMT 31.109482 74.826317 35,000 136 529 0
2021-12-05 20:42:27 GMT 31.123581 74.810921 35,000 136 529 0
2021-12-05 20:42:25 GMT 31.128923 74.805031 35,000 136 529 0
2021-12-05 20:42:17 GMT 31.141937 74.790718 35,000 136 529 0
2021-12-05 20:42:13 GMT 31.150177 74.781731 35,000 136 529 0
2021-12-05 20:42:06 GMT 31.161230 74.769600 35,000 136 529 0
2021-12-05 20:42:02 GMT 31.168533 74.761536 35,000 136 529 0
2021-12-05 20:41:57 GMT 31.179804 74.749222 35,000 136 529 0
2021-12-05 20:41:47 GMT 31.195818 74.731583 35,000 136 529 0
2021-12-05 20:41:45 GMT 31.198332 74.728836 35,000 136 529 0
2021-12-05 20:41:36 GMT 31.216553 74.708862 35,000 136 529 0
2021-12-05 20:41:27 GMT 31.231152 74.692802 35,000 136 529 0
2021-12-05 20:41:24 GMT 31.236319 74.687088 35,000 136 529 0
2021-12-05 20:41:17 GMT 31.249374 74.672836 35,000 136 529 0
2021-12-05 20:41:14 GMT 31.256332 74.665184 35,000 136 529 0
2021-12-05 20:41:07 GMT 31.267731 74.652641 35,000 136 529 0
2021-12-05 20:41:04 GMT 31.274323 74.645370 35,000 136 529 0
2021-12-05 20:40:57 GMT 31.284988 74.633575 35,000 136 530 0
2021-12-05 20:40:53 GMT 31.293686 74.623878 35,000 136 529 0
2021-12-05 20:40:46 GMT 31.303848 74.612732 35,000 137 528 0
2021-12-05 20:40:41 GMT 31.312990 74.602829 35,000 137 528 0
2021-12-05 20:40:35 GMT 31.321882 74.593430 35,000 138 528 0
2021-12-05 20:40:31 GMT 31.332687 74.582253 35,000 138 527 0
2021-12-05 20:40:25 GMT 31.343536 74.571213 35,000 139 527 0
2021-12-05 20:40:16 GMT 31.358459 74.556511 35,000 140 525 0
2021-12-05 20:40:14 GMT 31.364105 74.551079 35,000 140 525 -64
2021-12-05 20:40:10 GMT 31.371832 74.543716 35,000 141 524 0
2021-12-05 20:40:06 GMT 31.377699 74.538170 35,000 141 524 0
2021-12-05 20:39:59 GMT 31.392746 74.524300 35,000 142 523 0
2021-12-05 20:39:56 GMT 31.397762 74.519821 35,000 142 524 0
2021-12-05 20:39:49 GMT 31.413870 74.505325 35,000 142 523 0
2021-12-05 20:39:46 GMT 31.416916 74.502548 35,000 142 523 0
2021-12-05 20:39:42 GMT 31.426159 74.494278 35,000 142 523 0
2021-12-05 20:39:36 GMT 31.435562 74.485764 35,000 142 523 0
2021-12-05 20:39:30 GMT 31.446688 74.475769 35,000 142 523 0
2021-12-05 20:39:26 GMT 31.454556 74.468681 35,000 142 523 0
2021-12-05 20:39:19 GMT 31.468552 74.456070 35,000 142 524 0
2021-12-05 20:39:15 GMT 31.474869 74.450363 35,000 142 524 0
2021-12-05 20:39:08 GMT 31.488739 74.437920 35,000 142 524 0
2021-12-05 20:39:05 GMT 31.494278 74.432915 35,000 142 524 0
2021-12-05 20:38:59 GMT 31.508696 74.419960 35,000 142 523 0
2021-12-05 20:38:56 GMT 31.512909 74.416161 35,000 142 523 0
2021-12-05 20:38:46 GMT 31.532455 74.398552 35,000 142 523 0
2021-12-05 20:38:36 GMT 31.551041 74.381752 35,000 142 521 0
2021-12-05 20:38:26 GMT 31.571136 74.363655 35,000 142 521 0
2021-12-05 20:38:16 GMT 31.589697 74.346901 35,000 142 521 0
2021-12-05 20:38:05 GMT 31.608765 74.329620 35,000 142 521 0
2021-12-05 20:37:55 GMT 31.628082 74.312172 35,000 142 521 0
2021-12-05 20:37:45 GMT 31.647003 74.295097 35,000 142 521 0
2021-12-05 20:37:34 GMT 31.667816 74.276253 35,000 142 521 0
2021-12-05 20:37:24 GMT 31.687876 74.258072 35,000 142 522 0
2021-12-05 20:37:15 GMT 31.705078 74.242485 35,000 142 522 0
2021-12-05 20:37:04 GMT 31.725174 74.224281 35,000 142 522 0
2021-12-05 20:36:58 GMT 31.739502 74.211273 35,000 142 522 0
2021-12-05 20:36:55 GMT 31.744297 74.206932 35,000 142 522 0
2021-12-05 20:36:44 GMT 31.764404 74.188683 35,000 142 523 0
2021-12-05 20:36:34 GMT 31.782944 74.171829 35,000 142 522 0
2021-12-05 20:36:24 GMT 31.802673 74.153961 35,000 142 522 0
2021-12-05 20:36:14 GMT 31.821993 74.136475 35,000 142 522 0
2021-12-05 20:36:04 GMT 31.841675 74.118607 35,000 142 521 0
2021-12-05 20:35:54 GMT 31.860535 74.101410 35,000 142 521 0
2021-12-05 20:35:44 GMT 31.879395 74.084160 35,000 142 521 0
2021-12-05 20:35:33 GMT 31.900759 74.064720 35,000 142 521 0
2021-12-05 20:35:24 GMT 31.918123 74.048920 35,000 142 521 0
2021-12-05 20:35:14 GMT 31.936419 74.032211 35,000 142 521 0
2021-12-05 20:35:04 GMT 31.956482 74.013962 35,000 142 521 0
2021-12-05 20:34:54 GMT 31.975569 73.996620 35,000 142 521 0
2021-12-05 20:34:43 GMT 31.995726 73.978180 35,000 142 520 0
2021-12-05 20:34:34 GMT 32.013245 73.962158 35,000 142 520 0
2021-12-05 20:34:24 GMT 32.032837 73.944199 35,000 142 520 0
2021-12-05 20:34:14 GMT 32.052063 73.926620 35,000 142 520 0
2021-12-05 20:34:04 GMT 32.070877 73.909424 35,000 142 520 0
2021-12-05 20:33:53 GMT 32.091064 73.890961 35,000 142 520 0
2021-12-05 20:33:44 GMT 32.109173 73.874428 35,000 142 520 0
2021-12-05 20:33:33 GMT 32.127823 73.857346 35,000 142 521 0
2021-12-05 20:33:23 GMT 32.146881 73.839897 35,000 142 522 0
2021-12-05 20:33:12 GMT 32.167877 73.820656 35,000 141 522 0
2021-12-05 20:33:03 GMT 32.185799 73.804131 35,000 141 522 0
2021-12-05 20:32:53 GMT 32.205276 73.786270 35,000 141 522 0
2021-12-05 20:32:43 GMT 32.223972 73.769043 35,000 141 522 0
2021-12-05 20:32:33 GMT 32.243042 73.751495 35,000 141 522 0
2021-12-05 20:32:23 GMT 32.262096 73.733955 35,000 141 523 0
2021-12-05 20:32:13 GMT 32.281586 73.716011 35,000 141 523 0
2021-12-05 20:32:03 GMT 32.300858 73.698265 35,000 141 524 0
2021-12-05 20:31:53 GMT 32.319962 73.680649 35,000 141 524 0
2021-12-05 20:31:42 GMT 32.341187 73.661079 35,000 141 524 0
2021-12-05 20:31:33 GMT 32.358032 73.645531 35,000 141 524 0
2021-12-05 20:31:23 GMT 32.376938 73.628067 35,000 141 523 0
2021-12-05 20:31:13 GMT 32.396400 73.610077 35,000 141 523 0
2021-12-05 20:31:03 GMT 32.415672 73.592255 35,000 141 522 0
2021-12-05 20:30:53 GMT 32.434528 73.574821 35,000 141 522 0
2021-12-05 20:30:42 GMT 32.454498 73.556328 35,000 141 522 0
2021-12-05 20:30:33 GMT 32.472607 73.539566 35,000 141 522 0
2021-12-05 20:30:23 GMT 32.492390 73.521233 35,000 141 522 0
2021-12-05 20:30:12 GMT 32.511433 73.503578 35,000 141 522 0
2021-12-05 20:30:02 GMT 32.532005 73.484520 35,000 141 522 0
2021-12-05 20:29:53 GMT 32.549511 73.468323 35,000 141 522 0
2021-12-05 20:29:43 GMT 32.567947 73.451225 35,000 141 522 0
2021-12-05 20:29:32 GMT 32.588104 73.432564 35,000 141 521 0
2021-12-05 20:29:23 GMT 32.606552 73.415482 35,000 141 521 0
2021-12-05 20:29:12 GMT 32.626087 73.397301 35,000 141 520 0
2021-12-05 20:29:03 GMT 32.644272 73.380379 35,000 141 520 0
2021-12-05 20:28:53 GMT 32.663315 73.362526 35,000 141 519 0
2021-12-05 20:28:40 GMT 32.685768 73.341476 35,000 141 519 0
2021-12-05 20:28:32 GMT 32.701080 73.327202 35,000 141 519 0
2021-12-05 20:28:21 GMT 32.721222 73.308250 35,000 139 523 0
2021-12-05 20:28:12 GMT 32.738605 73.290131 35,000 136 525 0
2021-12-05 20:28:01 GMT 32.756104 73.269852 35,000 133 526 0
2021-12-05 20:27:52 GMT 32.771713 73.249695 35,000 130 528 0
2021-12-05 20:27:41 GMT 32.787918 73.226128 35,000 126 532 0
2021-12-05 20:27:32 GMT 32.802151 73.202408 35,000 123 532 0
2021-12-05 20:27:21 GMT 32.816116 73.177353 35,000 123 532 0
2021-12-05 20:27:12 GMT 32.828964 73.154205 35,000 123 532 0
2021-12-05 20:27:02 GMT 32.842419 73.130043 35,000 123 532 0
2021-12-05 20:26:51 GMT 32.857735 73.102470 35,000 123 532 0
2021-12-05 20:26:41 GMT 32.870628 73.079262 35,000 123 532 0
2021-12-05 20:26:32 GMT 32.883499 73.056061 35,000 123 533 0
2021-12-05 20:26:22 GMT 32.896790 73.032066 35,000 123 533 0
2021-12-05 20:26:12 GMT 32.910477 73.007347 35,000 123 533 0
2021-12-05 20:26:02 GMT 32.924698 72.981628 35,000 123 533 0
2021-12-05 20:25:52 GMT 32.938110 72.957405 35,000 123 534 0
2021-12-05 20:25:42 GMT 32.951256 72.933578 35,000 123 534 0
2021-12-05 20:25:31 GMT 32.966080 72.906815 35,000 123 534 0
2021-12-05 20:25:21 GMT 32.980724 72.880272 35,000 123 535 0
2021-12-05 20:25:12 GMT 32.992447 72.859131 35,000 123 535 0
2021-12-05 20:25:00 GMT 33.007782 72.831337 35,000 123 535 0
2021-12-05 20:24:49 GMT 33.022202 72.805222 35,000 123 535 0
2021-12-05 20:24:38 GMT 33.037563 72.777359 35,000 123 535 0
2021-12-05 20:24:30 GMT 33.048317 72.757912 35,000 123 536 0
2021-12-05 20:24:21 GMT 33.060795 72.735153 35,000 123 536 0
2021-12-05 20:24:10 GMT 33.075459 72.708473 35,000 123 536 0
2021-12-05 20:24:00 GMT 33.089035 72.683678 35,000 123 538 0
2021-12-05 20:23:50 GMT 33.102356 72.659348 35,000 123 538 0
2021-12-05 20:23:40 GMT 33.116238 72.634094 35,000 123 538 0
2021-12-05 20:23:30 GMT 33.129738 72.609482 35,000 123 538 0
2021-12-05 20:23:20 GMT 33.143471 72.584373 35,000 123 539 0
2021-12-05 20:23:11 GMT 33.156418 72.560745 35,000 123 539 0
2021-12-05 20:23:00 GMT 33.171356 72.533363 35,000 123 539 0
2021-12-05 20:22:51 GMT 33.183884 72.510483 35,000 122 540 0
2021-12-05 20:22:40 GMT 33.198959 72.482803 35,000 122 540 0
2021-12-05 20:22:31 GMT 33.211903 72.459091 35,000 122 540 0
2021-12-05 20:22:21 GMT 33.224945 72.435165 35,000 122 540 0
2021-12-05 20:22:10 GMT 33.239548 72.408470 35,000 123 540 0
2021-12-05 20:21:59 GMT 33.255615 72.378975 35,000 122 540 0
2021-12-05 20:21:51 GMT 33.265858 72.360275 35,000 122 540 0
2021-12-05 20:21:41 GMT 33.279869 72.334541 35,000 122 540 0
2021-12-05 20:21:29 GMT 33.294708 72.307289 35,000 122 540 0
2021-12-05 20:21:17 GMT 33.311188 72.277023 35,000 122 540 0
2021-12-05 20:21:09 GMT 33.322083 72.257027 35,000 122 540 0
2021-12-05 20:19:52 GMT 33.427158 72.062912 35,000 122 536 0
2021-12-05 20:19:46 GMT 33.435608 72.047188 35,000 122 536 0
2021-12-05 20:19:36 GMT 33.449085 72.022278 35,000 122 536 0
2021-12-05 20:18:41 GMT 33.523270 71.889534 35,000 129 533 0
2021-12-05 20:18:40 GMT 33.524872 71.887283 35,000 130 532 0
2021-12-05 20:18:30 GMT 33.542469 71.864143 35,000 136 529 0
2021-12-05 20:17:33 GMT 33.655544 71.766586 35,000 147 522 0
2021-12-05 20:17:25 GMT 33.672024 71.753883 35,000 147 522 0
2021-12-05 20:15:55 GMT 33.852676 71.613037 35,000 147 522 0
We lost coverage of the aircraft here for a total of 200 minutes
2021-12-05 16:55:30 GMT 41.893387 40.341736 33,000 111 504 0
2021-12-05 16:55:22 GMT 41.901077 40.315891 33,000 111 504 0
2021-12-05 16:54:55 GMT 41.922867 40.242233 33,000 111 505 0
2021-12-05 16:54:50 GMT 41.927971 40.225037 33,000 111 506 64
2021-12-05 16:54:39 GMT 41.936920 40.194729 33,000 111 506 0
2021-12-05 16:54:31 GMT 41.944427 40.169323 33,000 111 507 0
2021-12-05 16:54:19 GMT 41.954361 40.135677 33,000 111 507 0
2021-12-05 16:54:09 GMT 41.963287 40.105591 33,000 111 507 0
2021-12-05 16:53:05 GMT 42.018471 39.916969 33,000 111 507 0
2021-12-05 16:52:52 GMT 42.028755 39.881458 33,000 111 508 0
2021-12-05 16:52:47 GMT 42.034065 39.863190 33,000 111 508 0
2021-12-05 16:52:34 GMT 42.044266 39.827934 33,000 111 507 0
2021-12-05 16:51:24 GMT 42.104416 39.619946 33,000 111 507 0
2021-12-05 16:51:13 GMT 42.112831 39.589169 33,000 99 502 0
2021-12-05 16:50:51 GMT 42.127625 39.519756 33,000 99 502 0
2021-12-05 16:50:40 GMT 42.132381 39.489079 33,000 99 502 0
2021-12-05 16:50:12 GMT 42.139618 39.404278 33,000 93 501 0
2021-12-05 16:50:10 GMT 42.139984 39.397472 33,000 94 501 0
2021-12-05 16:50:01 GMT 42.141552 39.367081 33,000 94 501 0
2021-12-05 16:49:48 GMT 42.143646 39.326710 33,000 93 501 0
2021-12-05 16:49:32 GMT 42.146023 39.279827 33,000 93 501 0
2021-12-05 16:49:27 GMT 42.146767 39.264626 33,000 93 501 0
2021-12-05 16:48:56 GMT 42.151611 39.167507 33,000 93 500 0
2021-12-05 16:48:46 GMT 42.153168 39.135487 33,000 93 501 0
2021-12-05 16:48:36 GMT 42.154678 39.105396 33,000 93 501 0

Making use of Plane Finder data

You are free to use the raw flight data, aircraft information and images provided in this report for your own purposes provided the data is correctly attributed to Plane Finder. We ask that you please credit Plane Finder and link to planefinder.net in close proximity to the content.

Optionally one of the following logos (no smaller then 150x24px) can be used and must link to planefinder.net

Embedding the Plane Finder map

You are welcome to embed the Plane Finder playback map on your website to offer visitors a more interactive experience. We suggest using the following HTML code:

<iframe src="//planefinder.net/data/report/AF166-F-GZNR-7700-squawk-2021-12-06/map" width="800" height="600" seamless="seamless"></iframe>

Where our data comes from

Plane Finder has a global network of data feeds and antenna radars that receive data broadcast directly from aircraft. The primary technologies used are ADS-B and MLAT. We also show feeds from the FAA and a FLARM glider feed.

Click here to find out more about the Plane Finder network.

How we collect our data